<?xml version="1.0" encoding="UTF-8" standalone="no" ?>
<gpx xmlns="http://www.topografix.com/GPX/1/1" xmlns:xsi="http://www.w3.org/2001/XMLSchema-instance" xsi:schemaLocation="http://www.topografix.com/GPX/1/1 http://www.topografix.com/GPX/1/1/gpx.xsd" version="1.1" creator="VisuGPX - https://www.visugpx.com">
  <metadata>
    <name>Montagne de la Frau (09)-2020-02-29-164139</name>
    <desc><![CDATA[[b][i][url][img][/img][/url][/i][/b]
]]></desc>
  </metadata>
  <trk>
    <name><![CDATA[MA-Rando-2020-02-29-164139]]></name>
    <trkseg>
      <trkpt lat="42.86645" lon="1.83995">
        <ele>941</ele>
        <time>2020-02-29T08:45:08Z</time>
      </trkpt>
      <trkpt lat="42.86635" lon="1.8399">
        <ele>950</ele>
        <time>2020-02-29T08:47:33Z</time>
      </trkpt>
      <trkpt lat="42.86625" lon="1.83988">
        <ele>957</ele>
        <time>2020-02-29T08:47:45Z</time>
      </trkpt>
      <trkpt lat="42.86616" lon="1.83982">
        <ele>954</ele>
        <time>2020-02-29T08:47:52Z</time>
      </trkpt>
      <trkpt lat="42.86611" lon="1.83972">
        <ele>957</ele>
        <time>2020-02-29T08:48:02Z</time>
      </trkpt>
      <trkpt lat="42.86606" lon="1.83961">
        <ele>957</ele>
        <time>2020-02-29T08:48:14Z</time>
      </trkpt>
      <trkpt lat="42.86598" lon="1.83954">
        <ele>960</ele>
        <time>2020-02-29T08:48:25Z</time>
      </trkpt>
      <trkpt lat="42.86592" lon="1.83944">
        <ele>955</ele>
        <time>2020-02-29T08:48:37Z</time>
      </trkpt>
      <trkpt lat="42.86584" lon="1.83939">
        <ele>951</ele>
        <time>2020-02-29T08:49:00Z</time>
      </trkpt>
      <trkpt lat="42.86576" lon="1.83931">
        <ele>954</ele>
        <time>2020-02-29T08:49:05Z</time>
      </trkpt>
      <trkpt lat="42.86566" lon="1.83922">
        <ele>960</ele>
        <time>2020-02-29T08:49:16Z</time>
      </trkpt>
      <trkpt lat="42.86555" lon="1.83918">
        <ele>962</ele>
        <time>2020-02-29T08:49:26Z</time>
      </trkpt>
      <trkpt lat="42.86546" lon="1.83912">
        <ele>970</ele>
        <time>2020-02-29T08:49:36Z</time>
      </trkpt>
      <trkpt lat="42.86539" lon="1.83903">
        <ele>975</ele>
        <time>2020-02-29T08:49:47Z</time>
      </trkpt>
      <trkpt lat="42.8653" lon="1.83899">
        <ele>975</ele>
        <time>2020-02-29T08:49:56Z</time>
      </trkpt>
      <trkpt lat="42.86519" lon="1.83894">
        <ele>973</ele>
        <time>2020-02-29T08:50:03Z</time>
      </trkpt>
      <trkpt lat="42.86511" lon="1.83888">
        <ele>978</ele>
        <time>2020-02-29T08:50:25Z</time>
      </trkpt>
      <trkpt lat="42.865" lon="1.83888">
        <ele>976</ele>
        <time>2020-02-29T08:50:26Z</time>
      </trkpt>
      <trkpt lat="42.86488" lon="1.8389">
        <ele>978</ele>
        <time>2020-02-29T08:50:37Z</time>
      </trkpt>
      <trkpt lat="42.86479" lon="1.83893">
        <ele>980</ele>
        <time>2020-02-29T08:50:44Z</time>
      </trkpt>
      <trkpt lat="42.8647" lon="1.83898">
        <ele>984</ele>
        <time>2020-02-29T08:51:03Z</time>
      </trkpt>
      <trkpt lat="42.86468" lon="1.83912">
        <ele>984</ele>
        <time>2020-02-29T08:51:08Z</time>
      </trkpt>
      <trkpt lat="42.86463" lon="1.83924">
        <ele>983</ele>
        <time>2020-02-29T08:51:13Z</time>
      </trkpt>
      <trkpt lat="42.86453" lon="1.83925">
        <ele>982</ele>
        <time>2020-02-29T08:51:17Z</time>
      </trkpt>
      <trkpt lat="42.86453" lon="1.83939">
        <ele>983</ele>
        <time>2020-02-29T08:51:23Z</time>
      </trkpt>
      <trkpt lat="42.86453" lon="1.83951">
        <ele>983</ele>
        <time>2020-02-29T08:51:30Z</time>
      </trkpt>
      <trkpt lat="42.86448" lon="1.83963">
        <ele>983</ele>
        <time>2020-02-29T08:51:40Z</time>
      </trkpt>
      <trkpt lat="42.86451" lon="1.83975">
        <ele>983</ele>
        <time>2020-02-29T08:51:48Z</time>
      </trkpt>
      <trkpt lat="42.86443" lon="1.83983">
        <ele>982</ele>
        <time>2020-02-29T08:51:59Z</time>
      </trkpt>
      <trkpt lat="42.86434" lon="1.83991">
        <ele>981</ele>
        <time>2020-02-29T08:52:06Z</time>
      </trkpt>
      <trkpt lat="42.86438" lon="1.84003">
        <ele>977</ele>
        <time>2020-02-29T08:52:17Z</time>
      </trkpt>
      <trkpt lat="42.86428" lon="1.84007">
        <ele>977</ele>
        <time>2020-02-29T08:52:26Z</time>
      </trkpt>
      <trkpt lat="42.86421" lon="1.84021">
        <ele>979</ele>
        <time>2020-02-29T08:52:37Z</time>
      </trkpt>
      <trkpt lat="42.86414" lon="1.8403">
        <ele>979</ele>
        <time>2020-02-29T08:52:45Z</time>
      </trkpt>
      <trkpt lat="42.86408" lon="1.84038">
        <ele>985</ele>
        <time>2020-02-29T08:52:58Z</time>
      </trkpt>
      <trkpt lat="42.86398" lon="1.84046">
        <ele>989</ele>
        <time>2020-02-29T08:53:09Z</time>
      </trkpt>
      <trkpt lat="42.86397" lon="1.84059">
        <ele>997</ele>
        <time>2020-02-29T08:53:23Z</time>
      </trkpt>
      <trkpt lat="42.86394" lon="1.84071">
        <ele>998</ele>
        <time>2020-02-29T08:53:34Z</time>
      </trkpt>
      <trkpt lat="42.86391" lon="1.84084">
        <ele>997</ele>
        <time>2020-02-29T08:53:49Z</time>
      </trkpt>
      <trkpt lat="42.86389" lon="1.84099">
        <ele>996</ele>
        <time>2020-02-29T08:54:03Z</time>
      </trkpt>
      <trkpt lat="42.86387" lon="1.84113">
        <ele>998</ele>
        <time>2020-02-29T08:54:15Z</time>
      </trkpt>
      <trkpt lat="42.86381" lon="1.84124">
        <ele>999</ele>
        <time>2020-02-29T08:54:25Z</time>
      </trkpt>
      <trkpt lat="42.86377" lon="1.84135">
        <ele>995</ele>
        <time>2020-02-29T08:54:31Z</time>
      </trkpt>
      <trkpt lat="42.86369" lon="1.84142">
        <ele>996</ele>
        <time>2020-02-29T08:54:38Z</time>
      </trkpt>
      <trkpt lat="42.86373" lon="1.84158">
        <ele>998</ele>
        <time>2020-02-29T08:55:01Z</time>
      </trkpt>
      <trkpt lat="42.86375" lon="1.84171">
        <ele>998</ele>
        <time>2020-02-29T08:55:08Z</time>
      </trkpt>
      <trkpt lat="42.86372" lon="1.84186">
        <ele>999</ele>
        <time>2020-02-29T08:55:20Z</time>
      </trkpt>
      <trkpt lat="42.86371" lon="1.84199">
        <ele>1000</ele>
        <time>2020-02-29T08:55:30Z</time>
      </trkpt>
      <trkpt lat="42.8637" lon="1.84211">
        <ele>1001</ele>
        <time>2020-02-29T08:55:39Z</time>
      </trkpt>
      <trkpt lat="42.86369" lon="1.84225">
        <ele>1002</ele>
        <time>2020-02-29T08:55:48Z</time>
      </trkpt>
      <trkpt lat="42.86373" lon="1.84236">
        <ele>1005</ele>
        <time>2020-02-29T08:56:00Z</time>
      </trkpt>
      <trkpt lat="42.86369" lon="1.84249">
        <ele>1009</ele>
        <time>2020-02-29T08:56:10Z</time>
      </trkpt>
      <trkpt lat="42.86369" lon="1.84261">
        <ele>1011</ele>
        <time>2020-02-29T08:56:18Z</time>
      </trkpt>
      <trkpt lat="42.8637" lon="1.84275">
        <ele>1017</ele>
        <time>2020-02-29T08:56:34Z</time>
      </trkpt>
      <trkpt lat="42.86371" lon="1.84288">
        <ele>1018</ele>
        <time>2020-02-29T08:56:50Z</time>
      </trkpt>
      <trkpt lat="42.86374" lon="1.84299">
        <ele>1024</ele>
        <time>2020-02-29T08:57:14Z</time>
      </trkpt>
      <trkpt lat="42.86376" lon="1.84315">
        <ele>1028</ele>
        <time>2020-02-29T08:57:39Z</time>
      </trkpt>
      <trkpt lat="42.86379" lon="1.8433">
        <ele>1027</ele>
        <time>2020-02-29T08:57:42Z</time>
      </trkpt>
      <trkpt lat="42.86381" lon="1.84342">
        <ele>1026</ele>
        <time>2020-02-29T08:57:58Z</time>
      </trkpt>
      <trkpt lat="42.86378" lon="1.84356">
        <ele>1028</ele>
        <time>2020-02-29T08:58:03Z</time>
      </trkpt>
      <trkpt lat="42.86377" lon="1.8437">
        <ele>1027</ele>
        <time>2020-02-29T08:58:07Z</time>
      </trkpt>
      <trkpt lat="42.86374" lon="1.84383">
        <ele>1027</ele>
        <time>2020-02-29T08:58:17Z</time>
      </trkpt>
      <trkpt lat="42.86369" lon="1.84395">
        <ele>1031</ele>
        <time>2020-02-29T08:58:30Z</time>
      </trkpt>
      <trkpt lat="42.86377" lon="1.844">
        <ele>1031</ele>
        <time>2020-02-29T08:58:33Z</time>
      </trkpt>
      <trkpt lat="42.8637" lon="1.8441">
        <ele>1033</ele>
        <time>2020-02-29T08:58:59Z</time>
      </trkpt>
      <trkpt lat="42.86367" lon="1.84422">
        <ele>1034</ele>
        <time>2020-02-29T08:59:06Z</time>
      </trkpt>
      <trkpt lat="42.86359" lon="1.84429">
        <ele>1035</ele>
        <time>2020-02-29T08:59:10Z</time>
      </trkpt>
      <trkpt lat="42.86357" lon="1.84442">
        <ele>1036</ele>
        <time>2020-02-29T08:59:19Z</time>
      </trkpt>
      <trkpt lat="42.86355" lon="1.84455">
        <ele>1036</ele>
        <time>2020-02-29T08:59:29Z</time>
      </trkpt>
      <trkpt lat="42.86356" lon="1.84468">
        <ele>1035</ele>
        <time>2020-02-29T08:59:41Z</time>
      </trkpt>
      <trkpt lat="42.86348" lon="1.84475">
        <ele>1039</ele>
        <time>2020-02-29T08:59:53Z</time>
      </trkpt>
      <trkpt lat="42.86341" lon="1.84485">
        <ele>1037</ele>
        <time>2020-02-29T09:00:01Z</time>
      </trkpt>
      <trkpt lat="42.86338" lon="1.84496">
        <ele>1039</ele>
        <time>2020-02-29T09:00:13Z</time>
      </trkpt>
      <trkpt lat="42.86332" lon="1.84507">
        <ele>1042</ele>
        <time>2020-02-29T09:00:26Z</time>
      </trkpt>
      <trkpt lat="42.86325" lon="1.84515">
        <ele>1042</ele>
        <time>2020-02-29T09:00:35Z</time>
      </trkpt>
      <trkpt lat="42.86333" lon="1.84521">
        <ele>1042</ele>
        <time>2020-02-29T09:00:38Z</time>
      </trkpt>
      <trkpt lat="42.86332" lon="1.84534">
        <ele>1041</ele>
        <time>2020-02-29T09:00:44Z</time>
      </trkpt>
      <trkpt lat="42.86322" lon="1.84536">
        <ele>1046</ele>
        <time>2020-02-29T09:01:06Z</time>
      </trkpt>
      <trkpt lat="42.86314" lon="1.84545">
        <ele>1048</ele>
        <time>2020-02-29T09:01:13Z</time>
      </trkpt>
      <trkpt lat="42.86314" lon="1.84559">
        <ele>1048</ele>
        <time>2020-02-29T09:01:21Z</time>
      </trkpt>
      <trkpt lat="42.86311" lon="1.84572">
        <ele>1047</ele>
        <time>2020-02-29T09:01:34Z</time>
      </trkpt>
      <trkpt lat="42.8631" lon="1.84587">
        <ele>1047</ele>
        <time>2020-02-29T09:01:47Z</time>
      </trkpt>
      <trkpt lat="42.86308" lon="1.846">
        <ele>1051</ele>
        <time>2020-02-29T09:01:55Z</time>
      </trkpt>
      <trkpt lat="42.863" lon="1.84609">
        <ele>1053</ele>
        <time>2020-02-29T09:02:04Z</time>
      </trkpt>
      <trkpt lat="42.86301" lon="1.84623">
        <ele>1050</ele>
        <time>2020-02-29T09:02:13Z</time>
      </trkpt>
      <trkpt lat="42.86294" lon="1.84633">
        <ele>1052</ele>
        <time>2020-02-29T09:02:26Z</time>
      </trkpt>
      <trkpt lat="42.86287" lon="1.84642">
        <ele>1051</ele>
        <time>2020-02-29T09:02:38Z</time>
      </trkpt>
      <trkpt lat="42.8629" lon="1.8466">
        <ele>1052</ele>
        <time>2020-02-29T09:04:11Z</time>
      </trkpt>
      <trkpt lat="42.86276" lon="1.84667">
        <ele>1059</ele>
        <time>2020-02-29T09:04:25Z</time>
      </trkpt>
      <trkpt lat="42.86275" lon="1.84679">
        <ele>1058</ele>
        <time>2020-02-29T09:04:39Z</time>
      </trkpt>
      <trkpt lat="42.86272" lon="1.84692">
        <ele>1056</ele>
        <time>2020-02-29T09:04:47Z</time>
      </trkpt>
      <trkpt lat="42.86268" lon="1.84705">
        <ele>1056</ele>
        <time>2020-02-29T09:04:54Z</time>
      </trkpt>
      <trkpt lat="42.86266" lon="1.84719">
        <ele>1057</ele>
        <time>2020-02-29T09:05:04Z</time>
      </trkpt>
      <trkpt lat="42.86262" lon="1.84731">
        <ele>1059</ele>
        <time>2020-02-29T09:05:15Z</time>
      </trkpt>
      <trkpt lat="42.86254" lon="1.84739">
        <ele>1060</ele>
        <time>2020-02-29T09:05:29Z</time>
      </trkpt>
      <trkpt lat="42.86252" lon="1.84752">
        <ele>1061</ele>
        <time>2020-02-29T09:05:51Z</time>
      </trkpt>
      <trkpt lat="42.86247" lon="1.84764">
        <ele>1060</ele>
        <time>2020-02-29T09:05:59Z</time>
      </trkpt>
      <trkpt lat="42.8624" lon="1.84774">
        <ele>1057</ele>
        <time>2020-02-29T09:06:05Z</time>
      </trkpt>
      <trkpt lat="42.86239" lon="1.84787">
        <ele>1065</ele>
        <time>2020-02-29T09:06:18Z</time>
      </trkpt>
      <trkpt lat="42.8623" lon="1.84791">
        <ele>1067</ele>
        <time>2020-02-29T09:06:24Z</time>
      </trkpt>
      <trkpt lat="42.8623" lon="1.84804">
        <ele>1064</ele>
        <time>2020-02-29T09:06:34Z</time>
      </trkpt>
      <trkpt lat="42.86224" lon="1.84815">
        <ele>1066</ele>
        <time>2020-02-29T09:06:47Z</time>
      </trkpt>
      <trkpt lat="42.8622" lon="1.84825">
        <ele>1066</ele>
        <time>2020-02-29T09:06:59Z</time>
      </trkpt>
      <trkpt lat="42.86215" lon="1.84836">
        <ele>1073</ele>
        <time>2020-02-29T09:07:07Z</time>
      </trkpt>
      <trkpt lat="42.86212" lon="1.84848">
        <ele>1072</ele>
        <time>2020-02-29T09:07:17Z</time>
      </trkpt>
      <trkpt lat="42.86203" lon="1.8485">
        <ele>1072</ele>
        <time>2020-02-29T09:07:22Z</time>
      </trkpt>
      <trkpt lat="42.86197" lon="1.8486">
        <ele>1073</ele>
        <time>2020-02-29T09:07:34Z</time>
      </trkpt>
      <trkpt lat="42.86188" lon="1.84868">
        <ele>1074</ele>
        <time>2020-02-29T09:07:46Z</time>
      </trkpt>
      <trkpt lat="42.86181" lon="1.84876">
        <ele>1073</ele>
        <time>2020-02-29T09:07:57Z</time>
      </trkpt>
      <trkpt lat="42.86179" lon="1.84889">
        <ele>1071</ele>
        <time>2020-02-29T09:08:03Z</time>
      </trkpt>
      <trkpt lat="42.8617" lon="1.84895">
        <ele>1067</ele>
        <time>2020-02-29T09:08:22Z</time>
      </trkpt>
      <trkpt lat="42.86162" lon="1.84886">
        <ele>1063</ele>
        <time>2020-02-29T09:08:55Z</time>
      </trkpt>
      <trkpt lat="42.86152" lon="1.84881">
        <ele>1061</ele>
        <time>2020-02-29T09:09:03Z</time>
      </trkpt>
      <trkpt lat="42.86144" lon="1.84873">
        <ele>1060</ele>
        <time>2020-02-29T09:09:07Z</time>
      </trkpt>
      <trkpt lat="42.86135" lon="1.84867">
        <ele>1057</ele>
        <time>2020-02-29T09:09:17Z</time>
      </trkpt>
      <trkpt lat="42.86128" lon="1.84858">
        <ele>1061</ele>
        <time>2020-02-29T09:09:27Z</time>
      </trkpt>
      <trkpt lat="42.86121" lon="1.8485">
        <ele>1067</ele>
        <time>2020-02-29T09:09:38Z</time>
      </trkpt>
      <trkpt lat="42.86115" lon="1.84832">
        <ele>1070</ele>
        <time>2020-02-29T09:09:45Z</time>
      </trkpt>
      <trkpt lat="42.86106" lon="1.84828">
        <ele>1069</ele>
        <time>2020-02-29T09:09:58Z</time>
      </trkpt>
      <trkpt lat="42.86097" lon="1.84821">
        <ele>1063</ele>
        <time>2020-02-29T09:10:08Z</time>
      </trkpt>
      <trkpt lat="42.86089" lon="1.84816">
        <ele>1067</ele>
        <time>2020-02-29T09:10:16Z</time>
      </trkpt>
      <trkpt lat="42.86082" lon="1.84807">
        <ele>1067</ele>
        <time>2020-02-29T09:10:26Z</time>
      </trkpt>
      <trkpt lat="42.86073" lon="1.84805">
        <ele>1068</ele>
        <time>2020-02-29T09:10:35Z</time>
      </trkpt>
      <trkpt lat="42.86064" lon="1.84801">
        <ele>1070</ele>
        <time>2020-02-29T09:10:43Z</time>
      </trkpt>
      <trkpt lat="42.86056" lon="1.84796">
        <ele>1069</ele>
        <time>2020-02-29T09:10:48Z</time>
      </trkpt>
      <trkpt lat="42.86049" lon="1.84787">
        <ele>1071</ele>
        <time>2020-02-29T09:10:59Z</time>
      </trkpt>
      <trkpt lat="42.86043" lon="1.84778">
        <ele>1069</ele>
        <time>2020-02-29T09:11:06Z</time>
      </trkpt>
      <trkpt lat="42.86037" lon="1.84768">
        <ele>1063</ele>
        <time>2020-02-29T09:11:15Z</time>
      </trkpt>
      <trkpt lat="42.8603" lon="1.84757">
        <ele>1058</ele>
        <time>2020-02-29T09:11:28Z</time>
      </trkpt>
      <trkpt lat="42.86025" lon="1.84743">
        <ele>1058</ele>
        <time>2020-02-29T09:11:33Z</time>
      </trkpt>
      <trkpt lat="42.86019" lon="1.8473">
        <ele>1056</ele>
        <time>2020-02-29T09:11:43Z</time>
      </trkpt>
      <trkpt lat="42.86016" lon="1.84717">
        <ele>1056</ele>
        <time>2020-02-29T09:11:54Z</time>
      </trkpt>
      <trkpt lat="42.86006" lon="1.84711">
        <ele>1051</ele>
        <time>2020-02-29T09:12:01Z</time>
      </trkpt>
      <trkpt lat="42.86004" lon="1.84697">
        <ele>1049</ele>
        <time>2020-02-29T09:12:07Z</time>
      </trkpt>
      <trkpt lat="42.85995" lon="1.84694">
        <ele>1054</ele>
        <time>2020-02-29T09:12:16Z</time>
      </trkpt>
      <trkpt lat="42.85988" lon="1.84685">
        <ele>1056</ele>
        <time>2020-02-29T09:12:26Z</time>
      </trkpt>
      <trkpt lat="42.85985" lon="1.84672">
        <ele>1055</ele>
        <time>2020-02-29T09:12:33Z</time>
      </trkpt>
      <trkpt lat="42.85981" lon="1.8466">
        <ele>1057</ele>
        <time>2020-02-29T09:12:42Z</time>
      </trkpt>
      <trkpt lat="42.85977" lon="1.84645">
        <ele>1062</ele>
        <time>2020-02-29T09:12:50Z</time>
      </trkpt>
      <trkpt lat="42.85979" lon="1.8463">
        <ele>1066</ele>
        <time>2020-02-29T09:12:54Z</time>
      </trkpt>
      <trkpt lat="42.85971" lon="1.84623">
        <ele>1064</ele>
        <time>2020-02-29T09:13:15Z</time>
      </trkpt>
      <trkpt lat="42.85964" lon="1.84612">
        <ele>1061</ele>
        <time>2020-02-29T09:13:18Z</time>
      </trkpt>
      <trkpt lat="42.85956" lon="1.84605">
        <ele>1063</ele>
        <time>2020-02-29T09:13:24Z</time>
      </trkpt>
      <trkpt lat="42.85949" lon="1.84596">
        <ele>1064</ele>
        <time>2020-02-29T09:13:31Z</time>
      </trkpt>
      <trkpt lat="42.8594" lon="1.84597">
        <ele>1064</ele>
        <time>2020-02-29T09:13:41Z</time>
      </trkpt>
      <trkpt lat="42.85933" lon="1.84589">
        <ele>1060</ele>
        <time>2020-02-29T09:13:47Z</time>
      </trkpt>
      <trkpt lat="42.85926" lon="1.8458">
        <ele>1056</ele>
        <time>2020-02-29T09:13:56Z</time>
      </trkpt>
      <trkpt lat="42.85917" lon="1.84582">
        <ele>1057</ele>
        <time>2020-02-29T09:14:01Z</time>
      </trkpt>
      <trkpt lat="42.85909" lon="1.84578">
        <ele>1055</ele>
        <time>2020-02-29T09:14:09Z</time>
      </trkpt>
      <trkpt lat="42.85903" lon="1.84568">
        <ele>1055</ele>
        <time>2020-02-29T09:14:15Z</time>
      </trkpt>
      <trkpt lat="42.85896" lon="1.8456">
        <ele>1053</ele>
        <time>2020-02-29T09:14:24Z</time>
      </trkpt>
      <trkpt lat="42.85887" lon="1.84556">
        <ele>1053</ele>
        <time>2020-02-29T09:14:32Z</time>
      </trkpt>
      <trkpt lat="42.85877" lon="1.84552">
        <ele>1055</ele>
        <time>2020-02-29T09:14:44Z</time>
      </trkpt>
      <trkpt lat="42.85868" lon="1.84554">
        <ele>1052</ele>
        <time>2020-02-29T09:14:51Z</time>
      </trkpt>
      <trkpt lat="42.85858" lon="1.84558">
        <ele>1053</ele>
        <time>2020-02-29T09:14:59Z</time>
      </trkpt>
      <trkpt lat="42.85846" lon="1.84561">
        <ele>1053</ele>
        <time>2020-02-29T09:15:41Z</time>
      </trkpt>
      <trkpt lat="42.8584" lon="1.84571">
        <ele>1055</ele>
        <time>2020-02-29T09:15:46Z</time>
      </trkpt>
      <trkpt lat="42.85832" lon="1.84578">
        <ele>1057</ele>
        <time>2020-02-29T09:15:52Z</time>
      </trkpt>
      <trkpt lat="42.85823" lon="1.84584">
        <ele>1058</ele>
        <time>2020-02-29T09:15:59Z</time>
      </trkpt>
      <trkpt lat="42.85811" lon="1.8459">
        <ele>1060</ele>
        <time>2020-02-29T09:16:05Z</time>
      </trkpt>
      <trkpt lat="42.85803" lon="1.84597">
        <ele>1058</ele>
        <time>2020-02-29T09:16:13Z</time>
      </trkpt>
      <trkpt lat="42.85794" lon="1.84606">
        <ele>1054</ele>
        <time>2020-02-29T09:17:06Z</time>
      </trkpt>
      <trkpt lat="42.85786" lon="1.84611">
        <ele>1057</ele>
        <time>2020-02-29T09:17:10Z</time>
      </trkpt>
      <trkpt lat="42.85783" lon="1.84623">
        <ele>1057</ele>
        <time>2020-02-29T09:17:20Z</time>
      </trkpt>
      <trkpt lat="42.85776" lon="1.84631">
        <ele>1054</ele>
        <time>2020-02-29T09:17:29Z</time>
      </trkpt>
      <trkpt lat="42.85767" lon="1.84634">
        <ele>1055</ele>
        <time>2020-02-29T09:18:22Z</time>
      </trkpt>
      <trkpt lat="42.8576" lon="1.84643">
        <ele>1054</ele>
        <time>2020-02-29T09:19:02Z</time>
      </trkpt>
      <trkpt lat="42.85752" lon="1.84652">
        <ele>1056</ele>
        <time>2020-02-29T09:19:37Z</time>
      </trkpt>
      <trkpt lat="42.85744" lon="1.84667">
        <ele>1056</ele>
        <time>2020-02-29T09:20:32Z</time>
      </trkpt>
      <trkpt lat="42.85734" lon="1.8467">
        <ele>1054</ele>
        <time>2020-02-29T09:20:41Z</time>
      </trkpt>
      <trkpt lat="42.85723" lon="1.84677">
        <ele>1053</ele>
        <time>2020-02-29T09:20:48Z</time>
      </trkpt>
      <trkpt lat="42.85714" lon="1.84683">
        <ele>1054</ele>
        <time>2020-02-29T09:20:53Z</time>
      </trkpt>
      <trkpt lat="42.85709" lon="1.84694">
        <ele>1054</ele>
        <time>2020-02-29T09:21:04Z</time>
      </trkpt>
      <trkpt lat="42.85703" lon="1.84704">
        <ele>1057</ele>
        <time>2020-02-29T09:21:15Z</time>
      </trkpt>
      <trkpt lat="42.85694" lon="1.84708">
        <ele>1058</ele>
        <time>2020-02-29T09:21:22Z</time>
      </trkpt>
      <trkpt lat="42.85684" lon="1.84703">
        <ele>1059</ele>
        <time>2020-02-29T09:21:40Z</time>
      </trkpt>
      <trkpt lat="42.85677" lon="1.84716">
        <ele>1059</ele>
        <time>2020-02-29T09:21:46Z</time>
      </trkpt>
      <trkpt lat="42.85667" lon="1.8472">
        <ele>1059</ele>
        <time>2020-02-29T09:21:56Z</time>
      </trkpt>
      <trkpt lat="42.85656" lon="1.8472">
        <ele>1058</ele>
        <time>2020-02-29T09:22:05Z</time>
      </trkpt>
      <trkpt lat="42.85649" lon="1.84728">
        <ele>1068</ele>
        <time>2020-02-29T09:22:47Z</time>
      </trkpt>
      <trkpt lat="42.85638" lon="1.8473">
        <ele>1068</ele>
        <time>2020-02-29T09:22:48Z</time>
      </trkpt>
      <trkpt lat="42.85626" lon="1.84733">
        <ele>1068</ele>
        <time>2020-02-29T09:22:50Z</time>
      </trkpt>
      <trkpt lat="42.85614" lon="1.8474">
        <ele>1068</ele>
        <time>2020-02-29T09:22:52Z</time>
      </trkpt>
      <trkpt lat="42.85603" lon="1.84746">
        <ele>1062</ele>
        <time>2020-02-29T09:22:56Z</time>
      </trkpt>
      <trkpt lat="42.85615" lon="1.84757">
        <ele>1066</ele>
        <time>2020-02-29T09:23:00Z</time>
      </trkpt>
      <trkpt lat="42.8562" lon="1.8477">
        <ele>1062</ele>
        <time>2020-02-29T09:23:12Z</time>
      </trkpt>
      <trkpt lat="42.85607" lon="1.84774">
        <ele>1061</ele>
        <time>2020-02-29T09:23:26Z</time>
      </trkpt>
      <trkpt lat="42.85622" lon="1.84786">
        <ele>1060</ele>
        <time>2020-02-29T09:23:32Z</time>
      </trkpt>
      <trkpt lat="42.85612" lon="1.84785">
        <ele>1060</ele>
        <time>2020-02-29T09:23:36Z</time>
      </trkpt>
      <trkpt lat="42.85606" lon="1.84794">
        <ele>1057</ele>
        <time>2020-02-29T09:23:43Z</time>
      </trkpt>
      <trkpt lat="42.85611" lon="1.8481">
        <ele>1060</ele>
        <time>2020-02-29T09:23:49Z</time>
      </trkpt>
      <trkpt lat="42.85604" lon="1.8482">
        <ele>1061</ele>
        <time>2020-02-29T09:24:03Z</time>
      </trkpt>
      <trkpt lat="42.85595" lon="1.84825">
        <ele>1061</ele>
        <time>2020-02-29T09:24:14Z</time>
      </trkpt>
      <trkpt lat="42.85587" lon="1.84839">
        <ele>1062</ele>
        <time>2020-02-29T09:24:48Z</time>
      </trkpt>
      <trkpt lat="42.85582" lon="1.84852">
        <ele>1070</ele>
        <time>2020-02-29T09:25:19Z</time>
      </trkpt>
      <trkpt lat="42.85571" lon="1.84857">
        <ele>1071</ele>
        <time>2020-02-29T09:25:25Z</time>
      </trkpt>
      <trkpt lat="42.85568" lon="1.84868">
        <ele>1078</ele>
        <time>2020-02-29T09:25:37Z</time>
      </trkpt>
      <trkpt lat="42.8556" lon="1.84874">
        <ele>1079</ele>
        <time>2020-02-29T09:25:43Z</time>
      </trkpt>
      <trkpt lat="42.85548" lon="1.8488">
        <ele>1074</ele>
        <time>2020-02-29T09:25:48Z</time>
      </trkpt>
      <trkpt lat="42.85556" lon="1.84889">
        <ele>1077</ele>
        <time>2020-02-29T09:26:04Z</time>
      </trkpt>
      <trkpt lat="42.85555" lon="1.84901">
        <ele>1085</ele>
        <time>2020-02-29T09:26:14Z</time>
      </trkpt>
      <trkpt lat="42.85547" lon="1.84909">
        <ele>1082</ele>
        <time>2020-02-29T09:26:20Z</time>
      </trkpt>
      <trkpt lat="42.85537" lon="1.84907">
        <ele>1084</ele>
        <time>2020-02-29T09:26:27Z</time>
      </trkpt>
      <trkpt lat="42.85529" lon="1.84913">
        <ele>1080</ele>
        <time>2020-02-29T09:26:35Z</time>
      </trkpt>
      <trkpt lat="42.85521" lon="1.84923">
        <ele>1089</ele>
        <time>2020-02-29T09:26:48Z</time>
      </trkpt>
      <trkpt lat="42.85513" lon="1.8493">
        <ele>1087</ele>
        <time>2020-02-29T09:26:55Z</time>
      </trkpt>
      <trkpt lat="42.85519" lon="1.84945">
        <ele>1091</ele>
        <time>2020-02-29T09:27:07Z</time>
      </trkpt>
      <trkpt lat="42.85509" lon="1.84957">
        <ele>1089</ele>
        <time>2020-02-29T09:27:58Z</time>
      </trkpt>
      <trkpt lat="42.85505" lon="1.8497">
        <ele>1087</ele>
        <time>2020-02-29T09:28:01Z</time>
      </trkpt>
      <trkpt lat="42.85495" lon="1.8498">
        <ele>1089</ele>
        <time>2020-02-29T09:28:06Z</time>
      </trkpt>
      <trkpt lat="42.85488" lon="1.84989">
        <ele>1086</ele>
        <time>2020-02-29T09:28:11Z</time>
      </trkpt>
      <trkpt lat="42.8548" lon="1.84999">
        <ele>1083</ele>
        <time>2020-02-29T09:28:16Z</time>
      </trkpt>
      <trkpt lat="42.85474" lon="1.85009">
        <ele>1083</ele>
        <time>2020-02-29T09:28:30Z</time>
      </trkpt>
      <trkpt lat="42.85468" lon="1.8502">
        <ele>1080</ele>
        <time>2020-02-29T09:28:36Z</time>
      </trkpt>
      <trkpt lat="42.85454" lon="1.85021">
        <ele>1079</ele>
        <time>2020-02-29T09:28:40Z</time>
      </trkpt>
      <trkpt lat="42.8546" lon="1.8503">
        <ele>1079</ele>
        <time>2020-02-29T09:28:47Z</time>
      </trkpt>
      <trkpt lat="42.85451" lon="1.85027">
        <ele>1079</ele>
        <time>2020-02-29T09:28:49Z</time>
      </trkpt>
      <trkpt lat="42.8546" lon="1.85036">
        <ele>1080</ele>
        <time>2020-02-29T09:28:52Z</time>
      </trkpt>
      <trkpt lat="42.85457" lon="1.85049">
        <ele>1079</ele>
        <time>2020-02-29T09:29:01Z</time>
      </trkpt>
      <trkpt lat="42.85448" lon="1.85049">
        <ele>1079</ele>
        <time>2020-02-29T09:29:05Z</time>
      </trkpt>
      <trkpt lat="42.85457" lon="1.85058">
        <ele>1079</ele>
        <time>2020-02-29T09:29:08Z</time>
      </trkpt>
      <trkpt lat="42.85448" lon="1.85053">
        <ele>1088</ele>
        <time>2020-02-29T09:29:23Z</time>
      </trkpt>
      <trkpt lat="42.85455" lon="1.85063">
        <ele>1091</ele>
        <time>2020-02-29T09:29:36Z</time>
      </trkpt>
      <trkpt lat="42.85445" lon="1.85067">
        <ele>1091</ele>
        <time>2020-02-29T09:29:41Z</time>
      </trkpt>
      <trkpt lat="42.85433" lon="1.8507">
        <ele>1090</ele>
        <time>2020-02-29T09:30:02Z</time>
      </trkpt>
      <trkpt lat="42.8542" lon="1.85073">
        <ele>1086</ele>
        <time>2020-02-29T09:30:07Z</time>
      </trkpt>
      <trkpt lat="42.85423" lon="1.85086">
        <ele>1093</ele>
        <time>2020-02-29T09:30:22Z</time>
      </trkpt>
      <trkpt lat="42.85415" lon="1.85095">
        <ele>1094</ele>
        <time>2020-02-29T09:30:42Z</time>
      </trkpt>
      <trkpt lat="42.85406" lon="1.85096">
        <ele>1095</ele>
        <time>2020-02-29T09:30:45Z</time>
      </trkpt>
      <trkpt lat="42.85406" lon="1.85109">
        <ele>1099</ele>
        <time>2020-02-29T09:30:54Z</time>
      </trkpt>
      <trkpt lat="42.85397" lon="1.85115">
        <ele>1099</ele>
        <time>2020-02-29T09:31:00Z</time>
      </trkpt>
      <trkpt lat="42.85389" lon="1.85122">
        <ele>1099</ele>
        <time>2020-02-29T09:31:10Z</time>
      </trkpt>
      <trkpt lat="42.8538" lon="1.85123">
        <ele>1100</ele>
        <time>2020-02-29T09:31:18Z</time>
      </trkpt>
      <trkpt lat="42.8537" lon="1.85124">
        <ele>1102</ele>
        <time>2020-02-29T09:31:37Z</time>
      </trkpt>
      <trkpt lat="42.8536" lon="1.85126">
        <ele>1106</ele>
        <time>2020-02-29T09:31:45Z</time>
      </trkpt>
      <trkpt lat="42.85352" lon="1.85134">
        <ele>1109</ele>
        <time>2020-02-29T09:31:57Z</time>
      </trkpt>
      <trkpt lat="42.85346" lon="1.85143">
        <ele>1106</ele>
        <time>2020-02-29T09:32:39Z</time>
      </trkpt>
      <trkpt lat="42.85338" lon="1.85153">
        <ele>1103</ele>
        <time>2020-02-29T09:32:45Z</time>
      </trkpt>
      <trkpt lat="42.85325" lon="1.85156">
        <ele>1106</ele>
        <time>2020-02-29T09:32:52Z</time>
      </trkpt>
      <trkpt lat="42.85319" lon="1.85164">
        <ele>1107</ele>
        <time>2020-02-29T09:32:56Z</time>
      </trkpt>
      <trkpt lat="42.85315" lon="1.85176">
        <ele>1108</ele>
        <time>2020-02-29T09:33:09Z</time>
      </trkpt>
      <trkpt lat="42.85302" lon="1.85184">
        <ele>1111</ele>
        <time>2020-02-29T09:33:35Z</time>
      </trkpt>
      <trkpt lat="42.85293" lon="1.85186">
        <ele>1109</ele>
        <time>2020-02-29T09:33:39Z</time>
      </trkpt>
      <trkpt lat="42.85285" lon="1.85194">
        <ele>1108</ele>
        <time>2020-02-29T09:33:51Z</time>
      </trkpt>
      <trkpt lat="42.85277" lon="1.85202">
        <ele>1113</ele>
        <time>2020-02-29T09:34:21Z</time>
      </trkpt>
      <trkpt lat="42.85265" lon="1.85203">
        <ele>1115</ele>
        <time>2020-02-29T09:34:28Z</time>
      </trkpt>
      <trkpt lat="42.8526" lon="1.85215">
        <ele>1120</ele>
        <time>2020-02-29T09:34:34Z</time>
      </trkpt>
      <trkpt lat="42.85253" lon="1.85225">
        <ele>1125</ele>
        <time>2020-02-29T09:35:17Z</time>
      </trkpt>
      <trkpt lat="42.85242" lon="1.85225">
        <ele>1125</ele>
        <time>2020-02-29T09:35:19Z</time>
      </trkpt>
      <trkpt lat="42.85233" lon="1.85229">
        <ele>1131</ele>
        <time>2020-02-29T09:35:30Z</time>
      </trkpt>
      <trkpt lat="42.85218" lon="1.85231">
        <ele>1134</ele>
        <time>2020-02-29T09:36:02Z</time>
      </trkpt>
      <trkpt lat="42.85208" lon="1.85234">
        <ele>1134</ele>
        <time>2020-02-29T09:36:06Z</time>
      </trkpt>
      <trkpt lat="42.85191" lon="1.85236">
        <ele>1133</ele>
        <time>2020-02-29T09:36:32Z</time>
      </trkpt>
      <trkpt lat="42.85182" lon="1.8524">
        <ele>1136</ele>
        <time>2020-02-29T09:36:38Z</time>
      </trkpt>
      <trkpt lat="42.85176" lon="1.85251">
        <ele>1139</ele>
        <time>2020-02-29T09:36:46Z</time>
      </trkpt>
      <trkpt lat="42.8516" lon="1.8526">
        <ele>1135</ele>
        <time>2020-02-29T09:37:20Z</time>
      </trkpt>
      <trkpt lat="42.85148" lon="1.85266">
        <ele>1136</ele>
        <time>2020-02-29T09:37:23Z</time>
      </trkpt>
      <trkpt lat="42.85137" lon="1.85274">
        <ele>1137</ele>
        <time>2020-02-29T09:37:31Z</time>
      </trkpt>
      <trkpt lat="42.85124" lon="1.8528">
        <ele>1141</ele>
        <time>2020-02-29T09:37:39Z</time>
      </trkpt>
      <trkpt lat="42.85112" lon="1.85277">
        <ele>1141</ele>
        <time>2020-02-29T09:37:40Z</time>
      </trkpt>
      <trkpt lat="42.8512" lon="1.85286">
        <ele>1139</ele>
        <time>2020-02-29T09:37:44Z</time>
      </trkpt>
      <trkpt lat="42.8513" lon="1.85287">
        <ele>1141</ele>
        <time>2020-02-29T09:40:35Z</time>
      </trkpt>
      <trkpt lat="42.85137" lon="1.85279">
        <ele>1145</ele>
        <time>2020-02-29T09:40:52Z</time>
      </trkpt>
      <trkpt lat="42.85141" lon="1.85266">
        <ele>1146</ele>
        <time>2020-02-29T09:42:32Z</time>
      </trkpt>
      <trkpt lat="42.85148" lon="1.85254">
        <ele>1141</ele>
        <time>2020-02-29T09:42:46Z</time>
      </trkpt>
      <trkpt lat="42.85152" lon="1.85243">
        <ele>1139</ele>
        <time>2020-02-29T09:42:54Z</time>
      </trkpt>
      <trkpt lat="42.85161" lon="1.85237">
        <ele>1139</ele>
        <time>2020-02-29T09:42:59Z</time>
      </trkpt>
      <trkpt lat="42.85169" lon="1.85231">
        <ele>1144</ele>
        <time>2020-02-29T09:43:08Z</time>
      </trkpt>
      <trkpt lat="42.85179" lon="1.85226">
        <ele>1143</ele>
        <time>2020-02-29T09:43:19Z</time>
      </trkpt>
      <trkpt lat="42.85185" lon="1.85215">
        <ele>1140</ele>
        <time>2020-02-29T09:43:29Z</time>
      </trkpt>
      <trkpt lat="42.85194" lon="1.85212">
        <ele>1143</ele>
        <time>2020-02-29T09:43:36Z</time>
      </trkpt>
      <trkpt lat="42.85203" lon="1.85205">
        <ele>1150</ele>
        <time>2020-02-29T09:43:49Z</time>
      </trkpt>
      <trkpt lat="42.8521" lon="1.85196">
        <ele>1150</ele>
        <time>2020-02-29T09:43:56Z</time>
      </trkpt>
      <trkpt lat="42.85218" lon="1.8519">
        <ele>1153</ele>
        <time>2020-02-29T09:44:08Z</time>
      </trkpt>
      <trkpt lat="42.85223" lon="1.85179">
        <ele>1151</ele>
        <time>2020-02-29T09:44:16Z</time>
      </trkpt>
      <trkpt lat="42.8523" lon="1.85171">
        <ele>1152</ele>
        <time>2020-02-29T09:44:26Z</time>
      </trkpt>
      <trkpt lat="42.85237" lon="1.85163">
        <ele>1153</ele>
        <time>2020-02-29T09:44:37Z</time>
      </trkpt>
      <trkpt lat="42.85241" lon="1.85151">
        <ele>1154</ele>
        <time>2020-02-29T09:44:47Z</time>
      </trkpt>
      <trkpt lat="42.85251" lon="1.85144">
        <ele>1160</ele>
        <time>2020-02-29T09:44:58Z</time>
      </trkpt>
      <trkpt lat="42.85257" lon="1.85133">
        <ele>1160</ele>
        <time>2020-02-29T09:45:07Z</time>
      </trkpt>
      <trkpt lat="42.85263" lon="1.8512">
        <ele>1159</ele>
        <time>2020-02-29T09:45:31Z</time>
      </trkpt>
      <trkpt lat="42.85272" lon="1.85111">
        <ele>1161</ele>
        <time>2020-02-29T09:45:35Z</time>
      </trkpt>
      <trkpt lat="42.85276" lon="1.85098">
        <ele>1164</ele>
        <time>2020-02-29T09:45:42Z</time>
      </trkpt>
      <trkpt lat="42.85279" lon="1.85085">
        <ele>1166</ele>
        <time>2020-02-29T09:45:48Z</time>
      </trkpt>
      <trkpt lat="42.85286" lon="1.85075">
        <ele>1168</ele>
        <time>2020-02-29T09:45:57Z</time>
      </trkpt>
      <trkpt lat="42.85289" lon="1.85063">
        <ele>1167</ele>
        <time>2020-02-29T09:46:06Z</time>
      </trkpt>
      <trkpt lat="42.85299" lon="1.85063">
        <ele>1167</ele>
        <time>2020-02-29T09:46:13Z</time>
      </trkpt>
      <trkpt lat="42.8529" lon="1.85057">
        <ele>1161</ele>
        <time>2020-02-29T09:46:34Z</time>
      </trkpt>
      <trkpt lat="42.85278" lon="1.85056">
        <ele>1169</ele>
        <time>2020-02-29T09:46:56Z</time>
      </trkpt>
      <trkpt lat="42.85269" lon="1.85059">
        <ele>1171</ele>
        <time>2020-02-29T09:47:05Z</time>
      </trkpt>
      <trkpt lat="42.85263" lon="1.85068">
        <ele>1175</ele>
        <time>2020-02-29T09:47:19Z</time>
      </trkpt>
      <trkpt lat="42.85255" lon="1.85076">
        <ele>1173</ele>
        <time>2020-02-29T09:47:29Z</time>
      </trkpt>
      <trkpt lat="42.85246" lon="1.85081">
        <ele>1170</ele>
        <time>2020-02-29T09:47:36Z</time>
      </trkpt>
      <trkpt lat="42.85237" lon="1.85085">
        <ele>1174</ele>
        <time>2020-02-29T09:47:48Z</time>
      </trkpt>
      <trkpt lat="42.85229" lon="1.85091">
        <ele>1177</ele>
        <time>2020-02-29T09:48:03Z</time>
      </trkpt>
      <trkpt lat="42.85222" lon="1.85099">
        <ele>1182</ele>
        <time>2020-02-29T09:48:16Z</time>
      </trkpt>
      <trkpt lat="42.85214" lon="1.85106">
        <ele>1186</ele>
        <time>2020-02-29T09:48:30Z</time>
      </trkpt>
      <trkpt lat="42.85206" lon="1.85113">
        <ele>1189</ele>
        <time>2020-02-29T09:48:40Z</time>
      </trkpt>
      <trkpt lat="42.85197" lon="1.85115">
        <ele>1189</ele>
        <time>2020-02-29T09:48:54Z</time>
      </trkpt>
      <trkpt lat="42.8519" lon="1.85124">
        <ele>1192</ele>
        <time>2020-02-29T09:49:13Z</time>
      </trkpt>
      <trkpt lat="42.8518" lon="1.85126">
        <ele>1193</ele>
        <time>2020-02-29T09:49:20Z</time>
      </trkpt>
      <trkpt lat="42.85171" lon="1.85135">
        <ele>1188</ele>
        <time>2020-02-29T09:49:50Z</time>
      </trkpt>
      <trkpt lat="42.85162" lon="1.85136">
        <ele>1186</ele>
        <time>2020-02-29T09:49:55Z</time>
      </trkpt>
      <trkpt lat="42.85155" lon="1.85145">
        <ele>1194</ele>
        <time>2020-02-29T09:50:06Z</time>
      </trkpt>
      <trkpt lat="42.85147" lon="1.8515">
        <ele>1194</ele>
        <time>2020-02-29T09:50:14Z</time>
      </trkpt>
      <trkpt lat="42.85139" lon="1.85153">
        <ele>1194</ele>
        <time>2020-02-29T09:50:28Z</time>
      </trkpt>
      <trkpt lat="42.85127" lon="1.85153">
        <ele>1198</ele>
        <time>2020-02-29T09:50:34Z</time>
      </trkpt>
      <trkpt lat="42.85117" lon="1.85154">
        <ele>1198</ele>
        <time>2020-02-29T09:50:36Z</time>
      </trkpt>
      <trkpt lat="42.85116" lon="1.85166">
        <ele>1195</ele>
        <time>2020-02-29T09:50:49Z</time>
      </trkpt>
      <trkpt lat="42.85115" lon="1.85179">
        <ele>1201</ele>
        <time>2020-02-29T09:51:11Z</time>
      </trkpt>
      <trkpt lat="42.85108" lon="1.85188">
        <ele>1202</ele>
        <time>2020-02-29T09:51:48Z</time>
      </trkpt>
      <trkpt lat="42.85098" lon="1.85191">
        <ele>1203</ele>
        <time>2020-02-29T09:51:53Z</time>
      </trkpt>
      <trkpt lat="42.85087" lon="1.85194">
        <ele>1203</ele>
        <time>2020-02-29T09:52:01Z</time>
      </trkpt>
      <trkpt lat="42.85077" lon="1.85199">
        <ele>1201</ele>
        <time>2020-02-29T09:52:10Z</time>
      </trkpt>
      <trkpt lat="42.85068" lon="1.85195">
        <ele>1201</ele>
        <time>2020-02-29T09:52:14Z</time>
      </trkpt>
      <trkpt lat="42.85069" lon="1.85208">
        <ele>1205</ele>
        <time>2020-02-29T09:52:25Z</time>
      </trkpt>
      <trkpt lat="42.85061" lon="1.85214">
        <ele>1215</ele>
        <time>2020-02-29T09:52:42Z</time>
      </trkpt>
      <trkpt lat="42.85057" lon="1.85226">
        <ele>1225</ele>
        <time>2020-02-29T09:53:21Z</time>
      </trkpt>
      <trkpt lat="42.85046" lon="1.85238">
        <ele>1217</ele>
        <time>2020-02-29T09:53:45Z</time>
      </trkpt>
      <trkpt lat="42.85033" lon="1.8524">
        <ele>1216</ele>
        <time>2020-02-29T09:53:59Z</time>
      </trkpt>
      <trkpt lat="42.85037" lon="1.85252">
        <ele>1213</ele>
        <time>2020-02-29T09:55:20Z</time>
      </trkpt>
      <trkpt lat="42.85047" lon="1.85255">
        <ele>1209</ele>
        <time>2020-02-29T09:58:17Z</time>
      </trkpt>
      <trkpt lat="42.85055" lon="1.85247">
        <ele>1208</ele>
        <time>2020-02-29T09:58:40Z</time>
      </trkpt>
      <trkpt lat="42.85063" lon="1.85239">
        <ele>1208</ele>
        <time>2020-02-29T09:58:58Z</time>
      </trkpt>
      <trkpt lat="42.85073" lon="1.8523">
        <ele>1202</ele>
        <time>2020-02-29T09:59:09Z</time>
      </trkpt>
      <trkpt lat="42.85076" lon="1.85218">
        <ele>1204</ele>
        <time>2020-02-29T09:59:44Z</time>
      </trkpt>
      <trkpt lat="42.85086" lon="1.85213">
        <ele>1204</ele>
        <time>2020-02-29T09:59:53Z</time>
      </trkpt>
      <trkpt lat="42.85094" lon="1.85204">
        <ele>1201</ele>
        <time>2020-02-29T10:00:05Z</time>
      </trkpt>
      <trkpt lat="42.85103" lon="1.85204">
        <ele>1204</ele>
        <time>2020-02-29T10:00:35Z</time>
      </trkpt>
      <trkpt lat="42.85111" lon="1.85197">
        <ele>1206</ele>
        <time>2020-02-29T10:00:59Z</time>
      </trkpt>
      <trkpt lat="42.85119" lon="1.85192">
        <ele>1205</ele>
        <time>2020-02-29T10:01:04Z</time>
      </trkpt>
      <trkpt lat="42.85125" lon="1.85183">
        <ele>1207</ele>
        <time>2020-02-29T10:01:13Z</time>
      </trkpt>
      <trkpt lat="42.85132" lon="1.85174">
        <ele>1202</ele>
        <time>2020-02-29T10:01:20Z</time>
      </trkpt>
      <trkpt lat="42.8514" lon="1.85167">
        <ele>1197</ele>
        <time>2020-02-29T10:01:30Z</time>
      </trkpt>
      <trkpt lat="42.8515" lon="1.85167">
        <ele>1198</ele>
        <time>2020-02-29T10:01:39Z</time>
      </trkpt>
      <trkpt lat="42.85159" lon="1.8517">
        <ele>1197</ele>
        <time>2020-02-29T10:01:56Z</time>
      </trkpt>
      <trkpt lat="42.85167" lon="1.85161">
        <ele>1195</ele>
        <time>2020-02-29T10:02:06Z</time>
      </trkpt>
      <trkpt lat="42.85173" lon="1.85149">
        <ele>1194</ele>
        <time>2020-02-29T10:02:19Z</time>
      </trkpt>
      <trkpt lat="42.85183" lon="1.85146">
        <ele>1192</ele>
        <time>2020-02-29T10:02:36Z</time>
      </trkpt>
      <trkpt lat="42.85192" lon="1.85143">
        <ele>1191</ele>
        <time>2020-02-29T10:02:43Z</time>
      </trkpt>
      <trkpt lat="42.85201" lon="1.85138">
        <ele>1191</ele>
        <time>2020-02-29T10:02:58Z</time>
      </trkpt>
      <trkpt lat="42.85208" lon="1.85131">
        <ele>1190</ele>
        <time>2020-02-29T10:03:19Z</time>
      </trkpt>
      <trkpt lat="42.85219" lon="1.85126">
        <ele>1191</ele>
        <time>2020-02-29T10:03:39Z</time>
      </trkpt>
      <trkpt lat="42.85229" lon="1.8512">
        <ele>1195</ele>
        <time>2020-02-29T10:03:46Z</time>
      </trkpt>
      <trkpt lat="42.85237" lon="1.85113">
        <ele>1189</ele>
        <time>2020-02-29T10:03:58Z</time>
      </trkpt>
      <trkpt lat="42.85244" lon="1.85106">
        <ele>1179</ele>
        <time>2020-02-29T10:04:14Z</time>
      </trkpt>
      <trkpt lat="42.85253" lon="1.85101">
        <ele>1175</ele>
        <time>2020-02-29T10:04:20Z</time>
      </trkpt>
      <trkpt lat="42.85261" lon="1.85092">
        <ele>1173</ele>
        <time>2020-02-29T10:04:30Z</time>
      </trkpt>
      <trkpt lat="42.85268" lon="1.85082">
        <ele>1172</ele>
        <time>2020-02-29T10:04:41Z</time>
      </trkpt>
      <trkpt lat="42.85276" lon="1.85074">
        <ele>1176</ele>
        <time>2020-02-29T10:05:09Z</time>
      </trkpt>
      <trkpt lat="42.85286" lon="1.85071">
        <ele>1171</ele>
        <time>2020-02-29T10:05:23Z</time>
      </trkpt>
      <trkpt lat="42.85292" lon="1.8506">
        <ele>1168</ele>
        <time>2020-02-29T10:05:36Z</time>
      </trkpt>
      <trkpt lat="42.853" lon="1.85051">
        <ele>1170</ele>
        <time>2020-02-29T10:05:45Z</time>
      </trkpt>
      <trkpt lat="42.85308" lon="1.85043">
        <ele>1172</ele>
        <time>2020-02-29T10:05:53Z</time>
      </trkpt>
      <trkpt lat="42.85312" lon="1.85031">
        <ele>1169</ele>
        <time>2020-02-29T10:06:01Z</time>
      </trkpt>
      <trkpt lat="42.8532" lon="1.85023">
        <ele>1168</ele>
        <time>2020-02-29T10:06:09Z</time>
      </trkpt>
      <trkpt lat="42.85323" lon="1.85009">
        <ele>1170</ele>
        <time>2020-02-29T10:06:19Z</time>
      </trkpt>
      <trkpt lat="42.8533" lon="1.85001">
        <ele>1171</ele>
        <time>2020-02-29T10:06:28Z</time>
      </trkpt>
      <trkpt lat="42.85334" lon="1.84988">
        <ele>1170</ele>
        <time>2020-02-29T10:06:37Z</time>
      </trkpt>
      <trkpt lat="42.8534" lon="1.84975">
        <ele>1168</ele>
        <time>2020-02-29T10:06:55Z</time>
      </trkpt>
      <trkpt lat="42.85345" lon="1.84963">
        <ele>1171</ele>
        <time>2020-02-29T10:07:01Z</time>
      </trkpt>
      <trkpt lat="42.85349" lon="1.84952">
        <ele>1175</ele>
        <time>2020-02-29T10:07:17Z</time>
      </trkpt>
      <trkpt lat="42.85353" lon="1.8494">
        <ele>1174</ele>
        <time>2020-02-29T10:07:23Z</time>
      </trkpt>
      <trkpt lat="42.85362" lon="1.8493">
        <ele>1175</ele>
        <time>2020-02-29T10:07:31Z</time>
      </trkpt>
      <trkpt lat="42.85369" lon="1.84922">
        <ele>1176</ele>
        <time>2020-02-29T10:07:41Z</time>
      </trkpt>
      <trkpt lat="42.85373" lon="1.84909">
        <ele>1176</ele>
        <time>2020-02-29T10:08:06Z</time>
      </trkpt>
      <trkpt lat="42.85379" lon="1.84897">
        <ele>1180</ele>
        <time>2020-02-29T10:08:18Z</time>
      </trkpt>
      <trkpt lat="42.85387" lon="1.84888">
        <ele>1186</ele>
        <time>2020-02-29T10:08:28Z</time>
      </trkpt>
      <trkpt lat="42.85391" lon="1.84876">
        <ele>1186</ele>
        <time>2020-02-29T10:08:40Z</time>
      </trkpt>
      <trkpt lat="42.85396" lon="1.84865">
        <ele>1187</ele>
        <time>2020-02-29T10:08:52Z</time>
      </trkpt>
      <trkpt lat="42.85398" lon="1.84852">
        <ele>1187</ele>
        <time>2020-02-29T10:08:59Z</time>
      </trkpt>
      <trkpt lat="42.854" lon="1.84839">
        <ele>1187</ele>
        <time>2020-02-29T10:09:27Z</time>
      </trkpt>
      <trkpt lat="42.85406" lon="1.84828">
        <ele>1187</ele>
        <time>2020-02-29T10:09:38Z</time>
      </trkpt>
      <trkpt lat="42.85407" lon="1.84815">
        <ele>1183</ele>
        <time>2020-02-29T10:09:46Z</time>
      </trkpt>
      <trkpt lat="42.85409" lon="1.84802">
        <ele>1183</ele>
        <time>2020-02-29T10:09:55Z</time>
      </trkpt>
      <trkpt lat="42.85416" lon="1.84793">
        <ele>1188</ele>
        <time>2020-02-29T10:10:08Z</time>
      </trkpt>
      <trkpt lat="42.85418" lon="1.8478">
        <ele>1194</ele>
        <time>2020-02-29T10:10:19Z</time>
      </trkpt>
      <trkpt lat="42.85423" lon="1.84767">
        <ele>1196</ele>
        <time>2020-02-29T10:10:29Z</time>
      </trkpt>
      <trkpt lat="42.85428" lon="1.84756">
        <ele>1197</ele>
        <time>2020-02-29T10:10:36Z</time>
      </trkpt>
      <trkpt lat="42.85431" lon="1.84744">
        <ele>1197</ele>
        <time>2020-02-29T10:10:46Z</time>
      </trkpt>
      <trkpt lat="42.85436" lon="1.84731">
        <ele>1197</ele>
        <time>2020-02-29T10:10:58Z</time>
      </trkpt>
      <trkpt lat="42.85435" lon="1.84718">
        <ele>1194</ele>
        <time>2020-02-29T10:11:03Z</time>
      </trkpt>
      <trkpt lat="42.85441" lon="1.84706">
        <ele>1193</ele>
        <time>2020-02-29T10:11:10Z</time>
      </trkpt>
      <trkpt lat="42.8544" lon="1.84693">
        <ele>1197</ele>
        <time>2020-02-29T10:11:18Z</time>
      </trkpt>
      <trkpt lat="42.85442" lon="1.8468">
        <ele>1197</ele>
        <time>2020-02-29T10:11:26Z</time>
      </trkpt>
      <trkpt lat="42.85443" lon="1.84667">
        <ele>1199</ele>
        <time>2020-02-29T10:11:45Z</time>
      </trkpt>
      <trkpt lat="42.85441" lon="1.84654">
        <ele>1198</ele>
        <time>2020-02-29T10:11:55Z</time>
      </trkpt>
      <trkpt lat="42.85434" lon="1.84644">
        <ele>1198</ele>
        <time>2020-02-29T10:12:01Z</time>
      </trkpt>
      <trkpt lat="42.85439" lon="1.84634">
        <ele>1198</ele>
        <time>2020-02-29T10:13:20Z</time>
      </trkpt>
      <trkpt lat="42.85447" lon="1.84627">
        <ele>1205</ele>
        <time>2020-02-29T10:13:25Z</time>
      </trkpt>
      <trkpt lat="42.85437" lon="1.84622">
        <ele>1202</ele>
        <time>2020-02-29T10:13:34Z</time>
      </trkpt>
      <trkpt lat="42.85442" lon="1.84611">
        <ele>1203</ele>
        <time>2020-02-29T10:14:53Z</time>
      </trkpt>
      <trkpt lat="42.85441" lon="1.84598">
        <ele>1203</ele>
        <time>2020-02-29T10:15:03Z</time>
      </trkpt>
      <trkpt lat="42.85435" lon="1.84587">
        <ele>1207</ele>
        <time>2020-02-29T10:15:15Z</time>
      </trkpt>
      <trkpt lat="42.85438" lon="1.84575">
        <ele>1207</ele>
        <time>2020-02-29T10:15:20Z</time>
      </trkpt>
      <trkpt lat="42.85435" lon="1.84563">
        <ele>1204</ele>
        <time>2020-02-29T10:15:27Z</time>
      </trkpt>
      <trkpt lat="42.85438" lon="1.8455">
        <ele>1204</ele>
        <time>2020-02-29T10:15:35Z</time>
      </trkpt>
      <trkpt lat="42.85443" lon="1.8454">
        <ele>1209</ele>
        <time>2020-02-29T10:15:44Z</time>
      </trkpt>
      <trkpt lat="42.85449" lon="1.8453">
        <ele>1205</ele>
        <time>2020-02-29T10:16:21Z</time>
      </trkpt>
      <trkpt lat="42.85457" lon="1.84525">
        <ele>1207</ele>
        <time>2020-02-29T10:16:28Z</time>
      </trkpt>
      <trkpt lat="42.85466" lon="1.84522">
        <ele>1205</ele>
        <time>2020-02-29T10:16:32Z</time>
      </trkpt>
      <trkpt lat="42.85475" lon="1.84515">
        <ele>1205</ele>
        <time>2020-02-29T10:16:37Z</time>
      </trkpt>
      <trkpt lat="42.85481" lon="1.84507">
        <ele>1201</ele>
        <time>2020-02-29T10:16:41Z</time>
      </trkpt>
      <trkpt lat="42.85489" lon="1.845">
        <ele>1200</ele>
        <time>2020-02-29T10:16:47Z</time>
      </trkpt>
      <trkpt lat="42.85496" lon="1.84492">
        <ele>1200</ele>
        <time>2020-02-29T10:16:54Z</time>
      </trkpt>
      <trkpt lat="42.85503" lon="1.84484">
        <ele>1201</ele>
        <time>2020-02-29T10:17:02Z</time>
      </trkpt>
      <trkpt lat="42.85508" lon="1.84472">
        <ele>1200</ele>
        <time>2020-02-29T10:17:12Z</time>
      </trkpt>
      <trkpt lat="42.85514" lon="1.84463">
        <ele>1200</ele>
        <time>2020-02-29T10:17:50Z</time>
      </trkpt>
      <trkpt lat="42.85523" lon="1.84454">
        <ele>1197</ele>
        <time>2020-02-29T10:18:02Z</time>
      </trkpt>
      <trkpt lat="42.85531" lon="1.84447">
        <ele>1202</ele>
        <time>2020-02-29T10:18:08Z</time>
      </trkpt>
      <trkpt lat="42.85535" lon="1.84435">
        <ele>1199</ele>
        <time>2020-02-29T10:18:16Z</time>
      </trkpt>
      <trkpt lat="42.85541" lon="1.84426">
        <ele>1201</ele>
        <time>2020-02-29T10:18:26Z</time>
      </trkpt>
      <trkpt lat="42.85546" lon="1.84413">
        <ele>1205</ele>
        <time>2020-02-29T10:18:35Z</time>
      </trkpt>
      <trkpt lat="42.8555" lon="1.84401">
        <ele>1207</ele>
        <time>2020-02-29T10:18:44Z</time>
      </trkpt>
      <trkpt lat="42.85557" lon="1.84392">
        <ele>1208</ele>
        <time>2020-02-29T10:18:54Z</time>
      </trkpt>
      <trkpt lat="42.85564" lon="1.84383">
        <ele>1210</ele>
        <time>2020-02-29T10:19:02Z</time>
      </trkpt>
      <trkpt lat="42.85571" lon="1.84374">
        <ele>1212</ele>
        <time>2020-02-29T10:19:12Z</time>
      </trkpt>
      <trkpt lat="42.85578" lon="1.84366">
        <ele>1216</ele>
        <time>2020-02-29T10:19:25Z</time>
      </trkpt>
      <trkpt lat="42.85584" lon="1.84356">
        <ele>1216</ele>
        <time>2020-02-29T10:19:35Z</time>
      </trkpt>
      <trkpt lat="42.85589" lon="1.84345">
        <ele>1216</ele>
        <time>2020-02-29T10:19:43Z</time>
      </trkpt>
      <trkpt lat="42.85596" lon="1.84336">
        <ele>1217</ele>
        <time>2020-02-29T10:19:51Z</time>
      </trkpt>
      <trkpt lat="42.85603" lon="1.84327">
        <ele>1217</ele>
        <time>2020-02-29T10:20:00Z</time>
      </trkpt>
      <trkpt lat="42.85609" lon="1.84318">
        <ele>1219</ele>
        <time>2020-02-29T10:20:09Z</time>
      </trkpt>
      <trkpt lat="42.85614" lon="1.84306">
        <ele>1217</ele>
        <time>2020-02-29T10:20:16Z</time>
      </trkpt>
      <trkpt lat="42.8562" lon="1.84297">
        <ele>1216</ele>
        <time>2020-02-29T10:20:22Z</time>
      </trkpt>
      <trkpt lat="42.85626" lon="1.84286">
        <ele>1215</ele>
        <time>2020-02-29T10:20:32Z</time>
      </trkpt>
      <trkpt lat="42.85632" lon="1.84276">
        <ele>1216</ele>
        <time>2020-02-29T10:20:41Z</time>
      </trkpt>
      <trkpt lat="42.85637" lon="1.84264">
        <ele>1216</ele>
        <time>2020-02-29T10:20:49Z</time>
      </trkpt>
      <trkpt lat="42.85643" lon="1.84254">
        <ele>1221</ele>
        <time>2020-02-29T10:21:00Z</time>
      </trkpt>
      <trkpt lat="42.85649" lon="1.84242">
        <ele>1224</ele>
        <time>2020-02-29T10:21:09Z</time>
      </trkpt>
      <trkpt lat="42.85657" lon="1.84233">
        <ele>1224</ele>
        <time>2020-02-29T10:21:19Z</time>
      </trkpt>
      <trkpt lat="42.85662" lon="1.84223">
        <ele>1227</ele>
        <time>2020-02-29T10:21:29Z</time>
      </trkpt>
      <trkpt lat="42.8567" lon="1.84215">
        <ele>1227</ele>
        <time>2020-02-29T10:21:38Z</time>
      </trkpt>
      <trkpt lat="42.85678" lon="1.84208">
        <ele>1227</ele>
        <time>2020-02-29T10:21:47Z</time>
      </trkpt>
      <trkpt lat="42.85684" lon="1.84197">
        <ele>1229</ele>
        <time>2020-02-29T10:21:57Z</time>
      </trkpt>
      <trkpt lat="42.85693" lon="1.8419">
        <ele>1232</ele>
        <time>2020-02-29T10:22:10Z</time>
      </trkpt>
      <trkpt lat="42.85691" lon="1.84177">
        <ele>1232</ele>
        <time>2020-02-29T10:22:18Z</time>
      </trkpt>
      <trkpt lat="42.85678" lon="1.84189">
        <ele>1239</ele>
        <time>2020-02-29T10:23:09Z</time>
      </trkpt>
      <trkpt lat="42.85671" lon="1.84198">
        <ele>1243</ele>
        <time>2020-02-29T10:23:12Z</time>
      </trkpt>
      <trkpt lat="42.85662" lon="1.84204">
        <ele>1243</ele>
        <time>2020-02-29T10:23:15Z</time>
      </trkpt>
      <trkpt lat="42.85653" lon="1.8421">
        <ele>1247</ele>
        <time>2020-02-29T10:23:22Z</time>
      </trkpt>
      <trkpt lat="42.85646" lon="1.84223">
        <ele>1250</ele>
        <time>2020-02-29T10:23:29Z</time>
      </trkpt>
      <trkpt lat="42.85635" lon="1.84229">
        <ele>1247</ele>
        <time>2020-02-29T10:23:31Z</time>
      </trkpt>
      <trkpt lat="42.85626" lon="1.84239">
        <ele>1251</ele>
        <time>2020-02-29T10:24:02Z</time>
      </trkpt>
      <trkpt lat="42.85616" lon="1.84244">
        <ele>1254</ele>
        <time>2020-02-29T10:24:05Z</time>
      </trkpt>
      <trkpt lat="42.85608" lon="1.84249">
        <ele>1253</ele>
        <time>2020-02-29T10:24:07Z</time>
      </trkpt>
      <trkpt lat="42.85596" lon="1.84259">
        <ele>1261</ele>
        <time>2020-02-29T10:24:20Z</time>
      </trkpt>
      <trkpt lat="42.8559" lon="1.84269">
        <ele>1263</ele>
        <time>2020-02-29T10:24:33Z</time>
      </trkpt>
      <trkpt lat="42.85586" lon="1.84281">
        <ele>1264</ele>
        <time>2020-02-29T10:24:52Z</time>
      </trkpt>
      <trkpt lat="42.85577" lon="1.84287">
        <ele>1263</ele>
        <time>2020-02-29T10:24:57Z</time>
      </trkpt>
      <trkpt lat="42.85567" lon="1.84291">
        <ele>1259</ele>
        <time>2020-02-29T10:25:02Z</time>
      </trkpt>
      <trkpt lat="42.85557" lon="1.84294">
        <ele>1259</ele>
        <time>2020-02-29T10:25:06Z</time>
      </trkpt>
      <trkpt lat="42.85548" lon="1.84301">
        <ele>1262</ele>
        <time>2020-02-29T10:25:13Z</time>
      </trkpt>
      <trkpt lat="42.85539" lon="1.84305">
        <ele>1261</ele>
        <time>2020-02-29T10:25:24Z</time>
      </trkpt>
      <trkpt lat="42.85538" lon="1.84318">
        <ele>1269</ele>
        <time>2020-02-29T10:25:41Z</time>
      </trkpt>
      <trkpt lat="42.85527" lon="1.84321">
        <ele>1268</ele>
        <time>2020-02-29T10:25:45Z</time>
      </trkpt>
      <trkpt lat="42.85519" lon="1.84326">
        <ele>1270</ele>
        <time>2020-02-29T10:25:52Z</time>
      </trkpt>
      <trkpt lat="42.85515" lon="1.8434">
        <ele>1277</ele>
        <time>2020-02-29T10:26:08Z</time>
      </trkpt>
      <trkpt lat="42.85507" lon="1.84344">
        <ele>1277</ele>
        <time>2020-02-29T10:26:14Z</time>
      </trkpt>
      <trkpt lat="42.85498" lon="1.84345">
        <ele>1275</ele>
        <time>2020-02-29T10:26:21Z</time>
      </trkpt>
      <trkpt lat="42.85496" lon="1.84358">
        <ele>1275</ele>
        <time>2020-02-29T10:26:29Z</time>
      </trkpt>
      <trkpt lat="42.8549" lon="1.84366">
        <ele>1273</ele>
        <time>2020-02-29T10:26:38Z</time>
      </trkpt>
      <trkpt lat="42.85485" lon="1.84378">
        <ele>1276</ele>
        <time>2020-02-29T10:26:45Z</time>
      </trkpt>
      <trkpt lat="42.85476" lon="1.84382">
        <ele>1278</ele>
        <time>2020-02-29T10:26:54Z</time>
      </trkpt>
      <trkpt lat="42.85467" lon="1.84389">
        <ele>1276</ele>
        <time>2020-02-29T10:27:03Z</time>
      </trkpt>
      <trkpt lat="42.85459" lon="1.84394">
        <ele>1277</ele>
        <time>2020-02-29T10:27:12Z</time>
      </trkpt>
      <trkpt lat="42.8545" lon="1.84398">
        <ele>1276</ele>
        <time>2020-02-29T10:27:19Z</time>
      </trkpt>
      <trkpt lat="42.85443" lon="1.84406">
        <ele>1273</ele>
        <time>2020-02-29T10:27:28Z</time>
      </trkpt>
      <trkpt lat="42.85446" lon="1.84418">
        <ele>1271</ele>
        <time>2020-02-29T10:29:11Z</time>
      </trkpt>
      <trkpt lat="42.85444" lon="1.84405">
        <ele>1264</ele>
        <time>2020-02-29T10:32:26Z</time>
      </trkpt>
      <trkpt lat="42.85449" lon="1.84394">
        <ele>1265</ele>
        <time>2020-02-29T10:32:37Z</time>
      </trkpt>
      <trkpt lat="42.85454" lon="1.84385">
        <ele>1263</ele>
        <time>2020-02-29T10:32:46Z</time>
      </trkpt>
      <trkpt lat="42.85462" lon="1.84378">
        <ele>1264</ele>
        <time>2020-02-29T10:32:57Z</time>
      </trkpt>
      <trkpt lat="42.85468" lon="1.84368">
        <ele>1265</ele>
        <time>2020-02-29T10:33:07Z</time>
      </trkpt>
      <trkpt lat="42.85474" lon="1.84358">
        <ele>1267</ele>
        <time>2020-02-29T10:33:17Z</time>
      </trkpt>
      <trkpt lat="42.85478" lon="1.84346">
        <ele>1268</ele>
        <time>2020-02-29T10:33:27Z</time>
      </trkpt>
      <trkpt lat="42.85482" lon="1.84334">
        <ele>1270</ele>
        <time>2020-02-29T10:33:38Z</time>
      </trkpt>
      <trkpt lat="42.85487" lon="1.84323">
        <ele>1272</ele>
        <time>2020-02-29T10:33:48Z</time>
      </trkpt>
      <trkpt lat="42.85492" lon="1.84311">
        <ele>1271</ele>
        <time>2020-02-29T10:33:58Z</time>
      </trkpt>
      <trkpt lat="42.85497" lon="1.843">
        <ele>1274</ele>
        <time>2020-02-29T10:34:08Z</time>
      </trkpt>
      <trkpt lat="42.85502" lon="1.84289">
        <ele>1276</ele>
        <time>2020-02-29T10:34:18Z</time>
      </trkpt>
      <trkpt lat="42.85507" lon="1.84278">
        <ele>1277</ele>
        <time>2020-02-29T10:34:27Z</time>
      </trkpt>
      <trkpt lat="42.85513" lon="1.84268">
        <ele>1278</ele>
        <time>2020-02-29T10:34:37Z</time>
      </trkpt>
      <trkpt lat="42.85519" lon="1.84257">
        <ele>1280</ele>
        <time>2020-02-29T10:34:47Z</time>
      </trkpt>
      <trkpt lat="42.85525" lon="1.84248">
        <ele>1282</ele>
        <time>2020-02-29T10:34:56Z</time>
      </trkpt>
      <trkpt lat="42.85531" lon="1.84236">
        <ele>1278</ele>
        <time>2020-02-29T10:35:04Z</time>
      </trkpt>
      <trkpt lat="42.85536" lon="1.84225">
        <ele>1278</ele>
        <time>2020-02-29T10:35:13Z</time>
      </trkpt>
      <trkpt lat="42.85542" lon="1.84214">
        <ele>1281</ele>
        <time>2020-02-29T10:35:23Z</time>
      </trkpt>
      <trkpt lat="42.85546" lon="1.84203">
        <ele>1283</ele>
        <time>2020-02-29T10:35:32Z</time>
      </trkpt>
      <trkpt lat="42.85555" lon="1.84194">
        <ele>1282</ele>
        <time>2020-02-29T10:35:43Z</time>
      </trkpt>
      <trkpt lat="42.85561" lon="1.84184">
        <ele>1288</ele>
        <time>2020-02-29T10:35:52Z</time>
      </trkpt>
      <trkpt lat="42.85566" lon="1.84174">
        <ele>1287</ele>
        <time>2020-02-29T10:36:01Z</time>
      </trkpt>
      <trkpt lat="42.85571" lon="1.84162">
        <ele>1293</ele>
        <time>2020-02-29T10:36:13Z</time>
      </trkpt>
      <trkpt lat="42.85577" lon="1.84152">
        <ele>1292</ele>
        <time>2020-02-29T10:36:23Z</time>
      </trkpt>
      <trkpt lat="42.85581" lon="1.8414">
        <ele>1292</ele>
        <time>2020-02-29T10:36:31Z</time>
      </trkpt>
      <trkpt lat="42.85584" lon="1.84129">
        <ele>1294</ele>
        <time>2020-02-29T10:36:40Z</time>
      </trkpt>
      <trkpt lat="42.85591" lon="1.84121">
        <ele>1299</ele>
        <time>2020-02-29T10:36:49Z</time>
      </trkpt>
      <trkpt lat="42.85597" lon="1.84112">
        <ele>1300</ele>
        <time>2020-02-29T10:36:59Z</time>
      </trkpt>
      <trkpt lat="42.85605" lon="1.84104">
        <ele>1301</ele>
        <time>2020-02-29T10:37:11Z</time>
      </trkpt>
      <trkpt lat="42.85609" lon="1.84092">
        <ele>1299</ele>
        <time>2020-02-29T10:37:18Z</time>
      </trkpt>
      <trkpt lat="42.85614" lon="1.84081">
        <ele>1298</ele>
        <time>2020-02-29T10:37:29Z</time>
      </trkpt>
      <trkpt lat="42.8562" lon="1.8407">
        <ele>1298</ele>
        <time>2020-02-29T10:37:37Z</time>
      </trkpt>
      <trkpt lat="42.85627" lon="1.8406">
        <ele>1299</ele>
        <time>2020-02-29T10:37:45Z</time>
      </trkpt>
      <trkpt lat="42.85632" lon="1.84048">
        <ele>1304</ele>
        <time>2020-02-29T10:37:59Z</time>
      </trkpt>
      <trkpt lat="42.85634" lon="1.84035">
        <ele>1303</ele>
        <time>2020-02-29T10:38:07Z</time>
      </trkpt>
      <trkpt lat="42.85642" lon="1.84027">
        <ele>1307</ele>
        <time>2020-02-29T10:38:16Z</time>
      </trkpt>
      <trkpt lat="42.85645" lon="1.84016">
        <ele>1305</ele>
        <time>2020-02-29T10:38:23Z</time>
      </trkpt>
      <trkpt lat="42.85651" lon="1.84005">
        <ele>1306</ele>
        <time>2020-02-29T10:38:35Z</time>
      </trkpt>
      <trkpt lat="42.85654" lon="1.83993">
        <ele>1308</ele>
        <time>2020-02-29T10:38:43Z</time>
      </trkpt>
      <trkpt lat="42.85658" lon="1.83981">
        <ele>1312</ele>
        <time>2020-02-29T10:38:54Z</time>
      </trkpt>
      <trkpt lat="42.85664" lon="1.83971">
        <ele>1311</ele>
        <time>2020-02-29T10:39:03Z</time>
      </trkpt>
      <trkpt lat="42.85668" lon="1.83958">
        <ele>1313</ele>
        <time>2020-02-29T10:39:12Z</time>
      </trkpt>
      <trkpt lat="42.85673" lon="1.83948">
        <ele>1313</ele>
        <time>2020-02-29T10:39:22Z</time>
      </trkpt>
      <trkpt lat="42.85679" lon="1.83937">
        <ele>1317</ele>
        <time>2020-02-29T10:39:33Z</time>
      </trkpt>
      <trkpt lat="42.85682" lon="1.83926">
        <ele>1318</ele>
        <time>2020-02-29T10:39:42Z</time>
      </trkpt>
      <trkpt lat="42.8569" lon="1.83918">
        <ele>1319</ele>
        <time>2020-02-29T10:39:48Z</time>
      </trkpt>
      <trkpt lat="42.85692" lon="1.83905">
        <ele>1321</ele>
        <time>2020-02-29T10:40:00Z</time>
      </trkpt>
      <trkpt lat="42.85698" lon="1.83895">
        <ele>1317</ele>
        <time>2020-02-29T10:40:09Z</time>
      </trkpt>
      <trkpt lat="42.85702" lon="1.83884">
        <ele>1322</ele>
        <time>2020-02-29T10:40:20Z</time>
      </trkpt>
      <trkpt lat="42.85708" lon="1.83874">
        <ele>1326</ele>
        <time>2020-02-29T10:40:29Z</time>
      </trkpt>
      <trkpt lat="42.85711" lon="1.83862">
        <ele>1325</ele>
        <time>2020-02-29T10:40:33Z</time>
      </trkpt>
      <trkpt lat="42.85714" lon="1.8385">
        <ele>1324</ele>
        <time>2020-02-29T10:40:42Z</time>
      </trkpt>
      <trkpt lat="42.85723" lon="1.83847">
        <ele>1331</ele>
        <time>2020-02-29T10:40:59Z</time>
      </trkpt>
      <trkpt lat="42.85731" lon="1.83838">
        <ele>1327</ele>
        <time>2020-02-29T10:41:07Z</time>
      </trkpt>
      <trkpt lat="42.8574" lon="1.83842">
        <ele>1333</ele>
        <time>2020-02-29T10:43:14Z</time>
      </trkpt>
      <trkpt lat="42.8575" lon="1.83843">
        <ele>1337</ele>
        <time>2020-02-29T10:43:27Z</time>
      </trkpt>
      <trkpt lat="42.85759" lon="1.83838">
        <ele>1338</ele>
        <time>2020-02-29T10:43:33Z</time>
      </trkpt>
      <trkpt lat="42.85764" lon="1.83827">
        <ele>1335</ele>
        <time>2020-02-29T10:43:38Z</time>
      </trkpt>
      <trkpt lat="42.85773" lon="1.83816">
        <ele>1340</ele>
        <time>2020-02-29T10:43:51Z</time>
      </trkpt>
      <trkpt lat="42.85781" lon="1.8381">
        <ele>1341</ele>
        <time>2020-02-29T10:44:01Z</time>
      </trkpt>
      <trkpt lat="42.8579" lon="1.83806">
        <ele>1338</ele>
        <time>2020-02-29T10:44:09Z</time>
      </trkpt>
      <trkpt lat="42.85798" lon="1.83801">
        <ele>1337</ele>
        <time>2020-02-29T10:44:15Z</time>
      </trkpt>
      <trkpt lat="42.85803" lon="1.83791">
        <ele>1337</ele>
        <time>2020-02-29T10:44:23Z</time>
      </trkpt>
      <trkpt lat="42.85812" lon="1.83782">
        <ele>1340</ele>
        <time>2020-02-29T10:44:34Z</time>
      </trkpt>
      <trkpt lat="42.8582" lon="1.83775">
        <ele>1340</ele>
        <time>2020-02-29T10:44:43Z</time>
      </trkpt>
      <trkpt lat="42.85823" lon="1.83762">
        <ele>1340</ele>
        <time>2020-02-29T10:44:50Z</time>
      </trkpt>
      <trkpt lat="42.85818" lon="1.83751">
        <ele>1339</ele>
        <time>2020-02-29T10:45:00Z</time>
      </trkpt>
      <trkpt lat="42.85809" lon="1.83749">
        <ele>1348</ele>
        <time>2020-02-29T10:45:16Z</time>
      </trkpt>
      <trkpt lat="42.85799" lon="1.83754">
        <ele>1348</ele>
        <time>2020-02-29T10:45:27Z</time>
      </trkpt>
      <trkpt lat="42.85791" lon="1.8376">
        <ele>1346</ele>
        <time>2020-02-29T10:45:33Z</time>
      </trkpt>
      <trkpt lat="42.85782" lon="1.83766">
        <ele>1342</ele>
        <time>2020-02-29T10:45:41Z</time>
      </trkpt>
      <trkpt lat="42.85773" lon="1.8377">
        <ele>1343</ele>
        <time>2020-02-29T10:45:51Z</time>
      </trkpt>
      <trkpt lat="42.85763" lon="1.83776">
        <ele>1342</ele>
        <time>2020-02-29T10:46:02Z</time>
      </trkpt>
      <trkpt lat="42.85754" lon="1.83781">
        <ele>1347</ele>
        <time>2020-02-29T10:46:12Z</time>
      </trkpt>
      <trkpt lat="42.85745" lon="1.83783">
        <ele>1346</ele>
        <time>2020-02-29T10:46:21Z</time>
      </trkpt>
      <trkpt lat="42.85738" lon="1.83792">
        <ele>1352</ele>
        <time>2020-02-29T10:46:58Z</time>
      </trkpt>
      <trkpt lat="42.8573" lon="1.83798">
        <ele>1360</ele>
        <time>2020-02-29T10:47:34Z</time>
      </trkpt>
      <trkpt lat="42.85719" lon="1.83798">
        <ele>1362</ele>
        <time>2020-02-29T10:47:43Z</time>
      </trkpt>
      <trkpt lat="42.8571" lon="1.83797">
        <ele>1367</ele>
        <time>2020-02-29T10:47:52Z</time>
      </trkpt>
      <trkpt lat="42.857" lon="1.838">
        <ele>1368</ele>
        <time>2020-02-29T10:47:58Z</time>
      </trkpt>
      <trkpt lat="42.85692" lon="1.83804">
        <ele>1370</ele>
        <time>2020-02-29T10:48:07Z</time>
      </trkpt>
      <trkpt lat="42.8568" lon="1.83812">
        <ele>1371</ele>
        <time>2020-02-29T10:48:46Z</time>
      </trkpt>
      <trkpt lat="42.85671" lon="1.83818">
        <ele>1369</ele>
        <time>2020-02-29T10:48:48Z</time>
      </trkpt>
      <trkpt lat="42.85661" lon="1.83822">
        <ele>1369</ele>
        <time>2020-02-29T10:48:53Z</time>
      </trkpt>
      <trkpt lat="42.85652" lon="1.83826">
        <ele>1367</ele>
        <time>2020-02-29T10:48:59Z</time>
      </trkpt>
      <trkpt lat="42.85641" lon="1.83834">
        <ele>1369</ele>
        <time>2020-02-29T10:49:06Z</time>
      </trkpt>
      <trkpt lat="42.85633" lon="1.83839">
        <ele>1373</ele>
        <time>2020-02-29T10:49:14Z</time>
      </trkpt>
      <trkpt lat="42.85629" lon="1.83851">
        <ele>1375</ele>
        <time>2020-02-29T10:49:23Z</time>
      </trkpt>
      <trkpt lat="42.85623" lon="1.83861">
        <ele>1374</ele>
        <time>2020-02-29T10:49:33Z</time>
      </trkpt>
      <trkpt lat="42.85616" lon="1.83868">
        <ele>1374</ele>
        <time>2020-02-29T10:49:41Z</time>
      </trkpt>
      <trkpt lat="42.85608" lon="1.83875">
        <ele>1372</ele>
        <time>2020-02-29T10:49:51Z</time>
      </trkpt>
      <trkpt lat="42.856" lon="1.83881">
        <ele>1369</ele>
        <time>2020-02-29T10:50:00Z</time>
      </trkpt>
      <trkpt lat="42.85593" lon="1.83888">
        <ele>1367</ele>
        <time>2020-02-29T10:50:07Z</time>
      </trkpt>
      <trkpt lat="42.85588" lon="1.839">
        <ele>1369</ele>
        <time>2020-02-29T10:50:19Z</time>
      </trkpt>
      <trkpt lat="42.8558" lon="1.83908">
        <ele>1370</ele>
        <time>2020-02-29T10:50:30Z</time>
      </trkpt>
      <trkpt lat="42.85573" lon="1.83917">
        <ele>1374</ele>
        <time>2020-02-29T10:50:39Z</time>
      </trkpt>
      <trkpt lat="42.85564" lon="1.83924">
        <ele>1379</ele>
        <time>2020-02-29T10:50:50Z</time>
      </trkpt>
      <trkpt lat="42.85557" lon="1.83933">
        <ele>1381</ele>
        <time>2020-02-29T10:51:02Z</time>
      </trkpt>
      <trkpt lat="42.85548" lon="1.83937">
        <ele>1386</ele>
        <time>2020-02-29T10:51:12Z</time>
      </trkpt>
      <trkpt lat="42.85539" lon="1.8394">
        <ele>1385</ele>
        <time>2020-02-29T10:51:20Z</time>
      </trkpt>
      <trkpt lat="42.85528" lon="1.83943">
        <ele>1385</ele>
        <time>2020-02-29T10:51:31Z</time>
      </trkpt>
      <trkpt lat="42.8552" lon="1.83951">
        <ele>1385</ele>
        <time>2020-02-29T10:51:38Z</time>
      </trkpt>
      <trkpt lat="42.8552" lon="1.83964">
        <ele>1388</ele>
        <time>2020-02-29T10:51:48Z</time>
      </trkpt>
      <trkpt lat="42.85514" lon="1.83974">
        <ele>1394</ele>
        <time>2020-02-29T10:52:01Z</time>
      </trkpt>
      <trkpt lat="42.85506" lon="1.83982">
        <ele>1391</ele>
        <time>2020-02-29T10:52:09Z</time>
      </trkpt>
      <trkpt lat="42.85497" lon="1.83989">
        <ele>1392</ele>
        <time>2020-02-29T10:52:17Z</time>
      </trkpt>
      <trkpt lat="42.8549" lon="1.83998">
        <ele>1394</ele>
        <time>2020-02-29T10:52:26Z</time>
      </trkpt>
      <trkpt lat="42.85483" lon="1.84007">
        <ele>1394</ele>
        <time>2020-02-29T10:52:35Z</time>
      </trkpt>
      <trkpt lat="42.85477" lon="1.84018">
        <ele>1398</ele>
        <time>2020-02-29T10:52:46Z</time>
      </trkpt>
      <trkpt lat="42.85472" lon="1.84029">
        <ele>1398</ele>
        <time>2020-02-29T10:52:58Z</time>
      </trkpt>
      <trkpt lat="42.85466" lon="1.84038">
        <ele>1398</ele>
        <time>2020-02-29T10:53:05Z</time>
      </trkpt>
      <trkpt lat="42.85461" lon="1.84049">
        <ele>1397</ele>
        <time>2020-02-29T10:53:15Z</time>
      </trkpt>
      <trkpt lat="42.85454" lon="1.84059">
        <ele>1400</ele>
        <time>2020-02-29T10:53:25Z</time>
      </trkpt>
      <trkpt lat="42.85448" lon="1.84068">
        <ele>1398</ele>
        <time>2020-02-29T10:53:35Z</time>
      </trkpt>
      <trkpt lat="42.85441" lon="1.84076">
        <ele>1398</ele>
        <time>2020-02-29T10:53:44Z</time>
      </trkpt>
      <trkpt lat="42.85434" lon="1.84086">
        <ele>1401</ele>
        <time>2020-02-29T10:53:55Z</time>
      </trkpt>
      <trkpt lat="42.85427" lon="1.84095">
        <ele>1402</ele>
        <time>2020-02-29T10:54:05Z</time>
      </trkpt>
      <trkpt lat="42.85419" lon="1.84103">
        <ele>1402</ele>
        <time>2020-02-29T10:54:14Z</time>
      </trkpt>
      <trkpt lat="42.85413" lon="1.84112">
        <ele>1400</ele>
        <time>2020-02-29T10:54:22Z</time>
      </trkpt>
      <trkpt lat="42.85408" lon="1.84123">
        <ele>1404</ele>
        <time>2020-02-29T10:54:32Z</time>
      </trkpt>
      <trkpt lat="42.85402" lon="1.84134">
        <ele>1405</ele>
        <time>2020-02-29T10:54:41Z</time>
      </trkpt>
      <trkpt lat="42.85394" lon="1.84141">
        <ele>1406</ele>
        <time>2020-02-29T10:54:51Z</time>
      </trkpt>
      <trkpt lat="42.85389" lon="1.84152">
        <ele>1410</ele>
        <time>2020-02-29T10:55:04Z</time>
      </trkpt>
      <trkpt lat="42.8538" lon="1.84159">
        <ele>1410</ele>
        <time>2020-02-29T10:55:13Z</time>
      </trkpt>
      <trkpt lat="42.85371" lon="1.84162">
        <ele>1411</ele>
        <time>2020-02-29T10:55:51Z</time>
      </trkpt>
      <trkpt lat="42.8538" lon="1.8416">
        <ele>1411</ele>
        <time>2020-02-29T10:59:29Z</time>
      </trkpt>
      <trkpt lat="42.85386" lon="1.84148">
        <ele>1412</ele>
        <time>2020-02-29T10:59:41Z</time>
      </trkpt>
      <trkpt lat="42.85387" lon="1.84136">
        <ele>1415</ele>
        <time>2020-02-29T10:59:52Z</time>
      </trkpt>
      <trkpt lat="42.85387" lon="1.84122">
        <ele>1416</ele>
        <time>2020-02-29T11:00:08Z</time>
      </trkpt>
      <trkpt lat="42.85387" lon="1.84109">
        <ele>1420</ele>
        <time>2020-02-29T11:00:21Z</time>
      </trkpt>
      <trkpt lat="42.85388" lon="1.84097">
        <ele>1421</ele>
        <time>2020-02-29T11:00:37Z</time>
      </trkpt>
      <trkpt lat="42.85388" lon="1.84084">
        <ele>1422</ele>
        <time>2020-02-29T11:00:51Z</time>
      </trkpt>
      <trkpt lat="42.85389" lon="1.8407">
        <ele>1423</ele>
        <time>2020-02-29T11:01:05Z</time>
      </trkpt>
      <trkpt lat="42.85388" lon="1.84058">
        <ele>1427</ele>
        <time>2020-02-29T11:01:19Z</time>
      </trkpt>
      <trkpt lat="42.8539" lon="1.84045">
        <ele>1432</ele>
        <time>2020-02-29T11:01:42Z</time>
      </trkpt>
      <trkpt lat="42.85389" lon="1.84032">
        <ele>1433</ele>
        <time>2020-02-29T11:02:04Z</time>
      </trkpt>
      <trkpt lat="42.85388" lon="1.84019">
        <ele>1436</ele>
        <time>2020-02-29T11:02:15Z</time>
      </trkpt>
      <trkpt lat="42.8539" lon="1.84006">
        <ele>1434</ele>
        <time>2020-02-29T11:02:26Z</time>
      </trkpt>
      <trkpt lat="42.85392" lon="1.83994">
        <ele>1441</ele>
        <time>2020-02-29T11:03:18Z</time>
      </trkpt>
      <trkpt lat="42.85394" lon="1.83981">
        <ele>1443</ele>
        <time>2020-02-29T11:03:30Z</time>
      </trkpt>
      <trkpt lat="42.85394" lon="1.83969">
        <ele>1444</ele>
        <time>2020-02-29T11:03:44Z</time>
      </trkpt>
      <trkpt lat="42.85395" lon="1.83956">
        <ele>1450</ele>
        <time>2020-02-29T11:04:01Z</time>
      </trkpt>
      <trkpt lat="42.85397" lon="1.83943">
        <ele>1454</ele>
        <time>2020-02-29T11:04:11Z</time>
      </trkpt>
      <trkpt lat="42.85397" lon="1.8393">
        <ele>1456</ele>
        <time>2020-02-29T11:04:27Z</time>
      </trkpt>
      <trkpt lat="42.85399" lon="1.83917">
        <ele>1458</ele>
        <time>2020-02-29T11:04:41Z</time>
      </trkpt>
      <trkpt lat="42.85403" lon="1.83906">
        <ele>1461</ele>
        <time>2020-02-29T11:05:00Z</time>
      </trkpt>
      <trkpt lat="42.85396" lon="1.83898">
        <ele>1466</ele>
        <time>2020-02-29T11:06:45Z</time>
      </trkpt>
      <trkpt lat="42.85386" lon="1.83898">
        <ele>1466</ele>
        <time>2020-02-29T11:06:56Z</time>
      </trkpt>
      <trkpt lat="42.85377" lon="1.83902">
        <ele>1475</ele>
        <time>2020-02-29T11:07:17Z</time>
      </trkpt>
      <trkpt lat="42.85367" lon="1.83905">
        <ele>1479</ele>
        <time>2020-02-29T11:07:30Z</time>
      </trkpt>
      <trkpt lat="42.85359" lon="1.83911">
        <ele>1481</ele>
        <time>2020-02-29T11:07:46Z</time>
      </trkpt>
      <trkpt lat="42.85351" lon="1.83918">
        <ele>1481</ele>
        <time>2020-02-29T11:08:02Z</time>
      </trkpt>
      <trkpt lat="42.85342" lon="1.83924">
        <ele>1483</ele>
        <time>2020-02-29T11:08:13Z</time>
      </trkpt>
      <trkpt lat="42.85336" lon="1.83934">
        <ele>1490</ele>
        <time>2020-02-29T11:08:35Z</time>
      </trkpt>
      <trkpt lat="42.85332" lon="1.83945">
        <ele>1491</ele>
        <time>2020-02-29T11:08:54Z</time>
      </trkpt>
      <trkpt lat="42.85324" lon="1.83954">
        <ele>1494</ele>
        <time>2020-02-29T11:08:58Z</time>
      </trkpt>
      <trkpt lat="42.85317" lon="1.83964">
        <ele>1494</ele>
        <time>2020-02-29T11:09:07Z</time>
      </trkpt>
      <trkpt lat="42.8531" lon="1.83973">
        <ele>1494</ele>
        <time>2020-02-29T11:09:22Z</time>
      </trkpt>
      <trkpt lat="42.85304" lon="1.83983">
        <ele>1498</ele>
        <time>2020-02-29T11:09:39Z</time>
      </trkpt>
      <trkpt lat="42.85298" lon="1.83993">
        <ele>1513</ele>
        <time>2020-02-29T11:10:02Z</time>
      </trkpt>
      <trkpt lat="42.85293" lon="1.84004">
        <ele>1516</ele>
        <time>2020-02-29T11:10:17Z</time>
      </trkpt>
      <trkpt lat="42.85284" lon="1.84008">
        <ele>1518</ele>
        <time>2020-02-29T11:10:28Z</time>
      </trkpt>
      <trkpt lat="42.85278" lon="1.84017">
        <ele>1518</ele>
        <time>2020-02-29T11:10:44Z</time>
      </trkpt>
      <trkpt lat="42.85271" lon="1.84025">
        <ele>1517</ele>
        <time>2020-02-29T11:11:07Z</time>
      </trkpt>
      <trkpt lat="42.85261" lon="1.84035">
        <ele>1520</ele>
        <time>2020-02-29T11:13:13Z</time>
      </trkpt>
      <trkpt lat="42.85254" lon="1.84042">
        <ele>1520</ele>
        <time>2020-02-29T11:13:24Z</time>
      </trkpt>
      <trkpt lat="42.85247" lon="1.84051">
        <ele>1523</ele>
        <time>2020-02-29T11:13:36Z</time>
      </trkpt>
      <trkpt lat="42.85238" lon="1.84062">
        <ele>1525</ele>
        <time>2020-02-29T11:13:58Z</time>
      </trkpt>
      <trkpt lat="42.85233" lon="1.84072">
        <ele>1527</ele>
        <time>2020-02-29T11:14:09Z</time>
      </trkpt>
      <trkpt lat="42.85226" lon="1.84081">
        <ele>1529</ele>
        <time>2020-02-29T11:14:19Z</time>
      </trkpt>
      <trkpt lat="42.8522" lon="1.84091">
        <ele>1528</ele>
        <time>2020-02-29T11:14:32Z</time>
      </trkpt>
      <trkpt lat="42.85211" lon="1.84096">
        <ele>1528</ele>
        <time>2020-02-29T11:14:43Z</time>
      </trkpt>
      <trkpt lat="42.85206" lon="1.84107">
        <ele>1536</ele>
        <time>2020-02-29T11:15:02Z</time>
      </trkpt>
      <trkpt lat="42.85202" lon="1.84119">
        <ele>1540</ele>
        <time>2020-02-29T11:15:24Z</time>
      </trkpt>
      <trkpt lat="42.85194" lon="1.84127">
        <ele>1538</ele>
        <time>2020-02-29T11:15:33Z</time>
      </trkpt>
      <trkpt lat="42.85187" lon="1.84135">
        <ele>1540</ele>
        <time>2020-02-29T11:15:47Z</time>
      </trkpt>
      <trkpt lat="42.85181" lon="1.84145">
        <ele>1541</ele>
        <time>2020-02-29T11:16:08Z</time>
      </trkpt>
      <trkpt lat="42.85175" lon="1.84154">
        <ele>1543</ele>
        <time>2020-02-29T11:16:13Z</time>
      </trkpt>
      <trkpt lat="42.85169" lon="1.84164">
        <ele>1541</ele>
        <time>2020-02-29T11:16:25Z</time>
      </trkpt>
      <trkpt lat="42.8516" lon="1.84168">
        <ele>1547</ele>
        <time>2020-02-29T11:16:38Z</time>
      </trkpt>
      <trkpt lat="42.85154" lon="1.84177">
        <ele>1556</ele>
        <time>2020-02-29T11:16:59Z</time>
      </trkpt>
      <trkpt lat="42.85146" lon="1.84185">
        <ele>1557</ele>
        <time>2020-02-29T11:17:19Z</time>
      </trkpt>
      <trkpt lat="42.85141" lon="1.84196">
        <ele>1559</ele>
        <time>2020-02-29T11:17:31Z</time>
      </trkpt>
      <trkpt lat="42.85132" lon="1.84198">
        <ele>1560</ele>
        <time>2020-02-29T11:17:39Z</time>
      </trkpt>
      <trkpt lat="42.85126" lon="1.84208">
        <ele>1561</ele>
        <time>2020-02-29T11:17:50Z</time>
      </trkpt>
      <trkpt lat="42.85121" lon="1.8422">
        <ele>1559</ele>
        <time>2020-02-29T11:18:02Z</time>
      </trkpt>
      <trkpt lat="42.85115" lon="1.84231">
        <ele>1559</ele>
        <time>2020-02-29T11:18:10Z</time>
      </trkpt>
      <trkpt lat="42.85109" lon="1.84241">
        <ele>1563</ele>
        <time>2020-02-29T11:18:21Z</time>
      </trkpt>
      <trkpt lat="42.85101" lon="1.84248">
        <ele>1561</ele>
        <time>2020-02-29T11:18:30Z</time>
      </trkpt>
      <trkpt lat="42.85093" lon="1.84257">
        <ele>1559</ele>
        <time>2020-02-29T11:18:43Z</time>
      </trkpt>
      <trkpt lat="42.85085" lon="1.84266">
        <ele>1562</ele>
        <time>2020-02-29T11:18:58Z</time>
      </trkpt>
      <trkpt lat="42.85083" lon="1.84278">
        <ele>1562</ele>
        <time>2020-02-29T11:19:10Z</time>
      </trkpt>
      <trkpt lat="42.85076" lon="1.84286">
        <ele>1563</ele>
        <time>2020-02-29T11:19:19Z</time>
      </trkpt>
      <trkpt lat="42.85072" lon="1.84298">
        <ele>1564</ele>
        <time>2020-02-29T11:19:32Z</time>
      </trkpt>
      <trkpt lat="42.85074" lon="1.8431">
        <ele>1570</ele>
        <time>2020-02-29T11:20:03Z</time>
      </trkpt>
      <trkpt lat="42.85078" lon="1.84321">
        <ele>1577</ele>
        <time>2020-02-29T11:20:54Z</time>
      </trkpt>
      <trkpt lat="42.85068" lon="1.84321">
        <ele>1588</ele>
        <time>2020-02-29T11:23:07Z</time>
      </trkpt>
      <trkpt lat="42.8506" lon="1.84314">
        <ele>1594</ele>
        <time>2020-02-29T11:23:50Z</time>
      </trkpt>
      <trkpt lat="42.85053" lon="1.84304">
        <ele>1593</ele>
        <time>2020-02-29T11:24:56Z</time>
      </trkpt>
      <trkpt lat="42.85044" lon="1.843">
        <ele>1598</ele>
        <time>2020-02-29T11:25:30Z</time>
      </trkpt>
      <trkpt lat="42.85036" lon="1.84295">
        <ele>1597</ele>
        <time>2020-02-29T11:25:59Z</time>
      </trkpt>
      <trkpt lat="42.85027" lon="1.84292">
        <ele>1605</ele>
        <time>2020-02-29T11:26:58Z</time>
      </trkpt>
      <trkpt lat="42.85019" lon="1.84298">
        <ele>1610</ele>
        <time>2020-02-29T11:27:18Z</time>
      </trkpt>
      <trkpt lat="42.85012" lon="1.84307">
        <ele>1612</ele>
        <time>2020-02-29T11:27:38Z</time>
      </trkpt>
      <trkpt lat="42.85007" lon="1.84318">
        <ele>1613</ele>
        <time>2020-02-29T11:28:14Z</time>
      </trkpt>
      <trkpt lat="42.84999" lon="1.84325">
        <ele>1618</ele>
        <time>2020-02-29T11:28:39Z</time>
      </trkpt>
      <trkpt lat="42.84991" lon="1.8433">
        <ele>1620</ele>
        <time>2020-02-29T11:29:01Z</time>
      </trkpt>
      <trkpt lat="42.84989" lon="1.84343">
        <ele>1621</ele>
        <time>2020-02-29T11:29:14Z</time>
      </trkpt>
      <trkpt lat="42.8498" lon="1.84352">
        <ele>1620</ele>
        <time>2020-02-29T11:30:50Z</time>
      </trkpt>
      <trkpt lat="42.84974" lon="1.84362">
        <ele>1624</ele>
        <time>2020-02-29T11:34:07Z</time>
      </trkpt>
      <trkpt lat="42.84967" lon="1.8437">
        <ele>1623</ele>
        <time>2020-02-29T11:36:04Z</time>
      </trkpt>
      <trkpt lat="42.8496" lon="1.84378">
        <ele>1622</ele>
        <time>2020-02-29T11:36:12Z</time>
      </trkpt>
      <trkpt lat="42.84952" lon="1.84386">
        <ele>1624</ele>
        <time>2020-02-29T11:36:23Z</time>
      </trkpt>
      <trkpt lat="42.84944" lon="1.84395">
        <ele>1627</ele>
        <time>2020-02-29T11:36:35Z</time>
      </trkpt>
      <trkpt lat="42.84935" lon="1.84396">
        <ele>1630</ele>
        <time>2020-02-29T11:36:48Z</time>
      </trkpt>
      <trkpt lat="42.84927" lon="1.84404">
        <ele>1630</ele>
        <time>2020-02-29T11:36:57Z</time>
      </trkpt>
      <trkpt lat="42.84918" lon="1.84408">
        <ele>1630</ele>
        <time>2020-02-29T11:37:07Z</time>
      </trkpt>
      <trkpt lat="42.8491" lon="1.84416">
        <ele>1631</ele>
        <time>2020-02-29T11:37:18Z</time>
      </trkpt>
      <trkpt lat="42.84902" lon="1.84422">
        <ele>1631</ele>
        <time>2020-02-29T11:37:28Z</time>
      </trkpt>
      <trkpt lat="42.84893" lon="1.84423">
        <ele>1631</ele>
        <time>2020-02-29T11:37:36Z</time>
      </trkpt>
      <trkpt lat="42.84884" lon="1.84428">
        <ele>1630</ele>
        <time>2020-02-29T11:37:47Z</time>
      </trkpt>
      <trkpt lat="42.84875" lon="1.84434">
        <ele>1626</ele>
        <time>2020-02-29T11:37:58Z</time>
      </trkpt>
      <trkpt lat="42.84867" lon="1.84441">
        <ele>1626</ele>
        <time>2020-02-29T11:38:08Z</time>
      </trkpt>
      <trkpt lat="42.84859" lon="1.84446">
        <ele>1625</ele>
        <time>2020-02-29T11:38:22Z</time>
      </trkpt>
      <trkpt lat="42.8485" lon="1.84448">
        <ele>1624</ele>
        <time>2020-02-29T11:38:30Z</time>
      </trkpt>
      <trkpt lat="42.84842" lon="1.84454">
        <ele>1623</ele>
        <time>2020-02-29T11:38:40Z</time>
      </trkpt>
      <trkpt lat="42.84834" lon="1.84461">
        <ele>1627</ele>
        <time>2020-02-29T11:38:53Z</time>
      </trkpt>
      <trkpt lat="42.84826" lon="1.84467">
        <ele>1630</ele>
        <time>2020-02-29T11:39:03Z</time>
      </trkpt>
      <trkpt lat="42.84816" lon="1.84473">
        <ele>1630</ele>
        <time>2020-02-29T11:39:15Z</time>
      </trkpt>
      <trkpt lat="42.84807" lon="1.84471">
        <ele>1633</ele>
        <time>2020-02-29T11:39:27Z</time>
      </trkpt>
      <trkpt lat="42.84797" lon="1.84473">
        <ele>1631</ele>
        <time>2020-02-29T11:39:51Z</time>
      </trkpt>
      <trkpt lat="42.84787" lon="1.84472">
        <ele>1628</ele>
        <time>2020-02-29T11:39:59Z</time>
      </trkpt>
      <trkpt lat="42.84777" lon="1.84473">
        <ele>1631</ele>
        <time>2020-02-29T11:40:12Z</time>
      </trkpt>
      <trkpt lat="42.84768" lon="1.84473">
        <ele>1636</ele>
        <time>2020-02-29T11:40:40Z</time>
      </trkpt>
      <trkpt lat="42.84759" lon="1.84473">
        <ele>1642</ele>
        <time>2020-02-29T11:40:53Z</time>
      </trkpt>
      <trkpt lat="42.8475" lon="1.8447">
        <ele>1640</ele>
        <time>2020-02-29T11:41:01Z</time>
      </trkpt>
      <trkpt lat="42.84741" lon="1.84468">
        <ele>1635</ele>
        <time>2020-02-29T11:41:13Z</time>
      </trkpt>
      <trkpt lat="42.84732" lon="1.84468">
        <ele>1634</ele>
        <time>2020-02-29T11:41:25Z</time>
      </trkpt>
      <trkpt lat="42.84722" lon="1.84466">
        <ele>1632</ele>
        <time>2020-02-29T11:41:34Z</time>
      </trkpt>
      <trkpt lat="42.84713" lon="1.84464">
        <ele>1634</ele>
        <time>2020-02-29T11:41:51Z</time>
      </trkpt>
      <trkpt lat="42.84704" lon="1.84464">
        <ele>1635</ele>
        <time>2020-02-29T11:42:01Z</time>
      </trkpt>
      <trkpt lat="42.84695" lon="1.84462">
        <ele>1640</ele>
        <time>2020-02-29T11:42:14Z</time>
      </trkpt>
      <trkpt lat="42.84689" lon="1.84452">
        <ele>1641</ele>
        <time>2020-02-29T11:42:27Z</time>
      </trkpt>
      <trkpt lat="42.84684" lon="1.84442">
        <ele>1643</ele>
        <time>2020-02-29T11:42:40Z</time>
      </trkpt>
      <trkpt lat="42.84677" lon="1.84432">
        <ele>1645</ele>
        <time>2020-02-29T11:42:52Z</time>
      </trkpt>
      <trkpt lat="42.84672" lon="1.84422">
        <ele>1649</ele>
        <time>2020-02-29T11:43:08Z</time>
      </trkpt>
      <trkpt lat="42.84671" lon="1.84409">
        <ele>1652</ele>
        <time>2020-02-29T11:43:27Z</time>
      </trkpt>
      <trkpt lat="42.8467" lon="1.84396">
        <ele>1656</ele>
        <time>2020-02-29T11:43:42Z</time>
      </trkpt>
      <trkpt lat="42.84664" lon="1.84387">
        <ele>1657</ele>
        <time>2020-02-29T11:44:00Z</time>
      </trkpt>
      <trkpt lat="42.84662" lon="1.84374">
        <ele>1661</ele>
        <time>2020-02-29T11:44:17Z</time>
      </trkpt>
      <trkpt lat="42.84659" lon="1.84362">
        <ele>1665</ele>
        <time>2020-02-29T11:44:42Z</time>
      </trkpt>
      <trkpt lat="42.84657" lon="1.84349">
        <ele>1670</ele>
        <time>2020-02-29T11:45:00Z</time>
      </trkpt>
      <trkpt lat="42.84655" lon="1.84337">
        <ele>1673</ele>
        <time>2020-02-29T11:45:25Z</time>
      </trkpt>
      <trkpt lat="42.8465" lon="1.84327">
        <ele>1675</ele>
        <time>2020-02-29T11:45:49Z</time>
      </trkpt>
      <trkpt lat="42.84648" lon="1.84315">
        <ele>1676</ele>
        <time>2020-02-29T11:46:13Z</time>
      </trkpt>
      <trkpt lat="42.84645" lon="1.84302">
        <ele>1673</ele>
        <time>2020-02-29T11:46:43Z</time>
      </trkpt>
      <trkpt lat="42.84639" lon="1.84292">
        <ele>1675</ele>
        <time>2020-02-29T11:47:02Z</time>
      </trkpt>
      <trkpt lat="42.84639" lon="1.84279">
        <ele>1682</ele>
        <time>2020-02-29T11:47:39Z</time>
      </trkpt>
      <trkpt lat="42.84638" lon="1.84265">
        <ele>1687</ele>
        <time>2020-02-29T11:48:11Z</time>
      </trkpt>
      <trkpt lat="42.84639" lon="1.84252">
        <ele>1688</ele>
        <time>2020-02-29T11:48:24Z</time>
      </trkpt>
      <trkpt lat="42.84636" lon="1.8424">
        <ele>1694</ele>
        <time>2020-02-29T11:48:47Z</time>
      </trkpt>
      <trkpt lat="42.84632" lon="1.84228">
        <ele>1699</ele>
        <time>2020-02-29T11:49:23Z</time>
      </trkpt>
      <trkpt lat="42.84627" lon="1.84217">
        <ele>1702</ele>
        <time>2020-02-29T11:49:59Z</time>
      </trkpt>
      <trkpt lat="42.84621" lon="1.84207">
        <ele>1704</ele>
        <time>2020-02-29T11:50:39Z</time>
      </trkpt>
      <trkpt lat="42.84613" lon="1.84199">
        <ele>1707</ele>
        <time>2020-02-29T11:51:07Z</time>
      </trkpt>
      <trkpt lat="42.84608" lon="1.84188">
        <ele>1707</ele>
        <time>2020-02-29T11:51:39Z</time>
      </trkpt>
      <trkpt lat="42.84599" lon="1.84184">
        <ele>1711</ele>
        <time>2020-02-29T11:52:09Z</time>
      </trkpt>
      <trkpt lat="42.8459" lon="1.8418">
        <ele>1715</ele>
        <time>2020-02-29T11:52:53Z</time>
      </trkpt>
      <trkpt lat="42.84582" lon="1.84172">
        <ele>1719</ele>
        <time>2020-02-29T11:53:12Z</time>
      </trkpt>
      <trkpt lat="42.84575" lon="1.84164">
        <ele>1729</ele>
        <time>2020-02-29T11:53:51Z</time>
      </trkpt>
      <trkpt lat="42.84568" lon="1.84155">
        <ele>1730</ele>
        <time>2020-02-29T11:54:11Z</time>
      </trkpt>
      <trkpt lat="42.84567" lon="1.84142">
        <ele>1732</ele>
        <time>2020-02-29T11:54:35Z</time>
      </trkpt>
      <trkpt lat="42.84564" lon="1.8413">
        <ele>1731</ele>
        <time>2020-02-29T11:55:01Z</time>
      </trkpt>
      <trkpt lat="42.84555" lon="1.84121">
        <ele>1732</ele>
        <time>2020-02-29T11:55:13Z</time>
      </trkpt>
      <trkpt lat="42.84553" lon="1.84109">
        <ele>1732</ele>
        <time>2020-02-29T11:55:26Z</time>
      </trkpt>
      <trkpt lat="42.84548" lon="1.84097">
        <ele>1734</ele>
        <time>2020-02-29T11:56:00Z</time>
      </trkpt>
      <trkpt lat="42.84547" lon="1.84085">
        <ele>1736</ele>
        <time>2020-02-29T11:57:50Z</time>
      </trkpt>
      <trkpt lat="42.84545" lon="1.84072">
        <ele>1740</ele>
        <time>2020-02-29T11:58:03Z</time>
      </trkpt>
      <trkpt lat="42.84544" lon="1.84059">
        <ele>1740</ele>
        <time>2020-02-29T11:58:15Z</time>
      </trkpt>
      <trkpt lat="42.84542" lon="1.84046">
        <ele>1744</ele>
        <time>2020-02-29T11:58:28Z</time>
      </trkpt>
      <trkpt lat="42.84543" lon="1.84033">
        <ele>1744</ele>
        <time>2020-02-29T11:58:45Z</time>
      </trkpt>
      <trkpt lat="42.84542" lon="1.8402">
        <ele>1743</ele>
        <time>2020-02-29T11:58:54Z</time>
      </trkpt>
      <trkpt lat="42.84539" lon="1.84008">
        <ele>1743</ele>
        <time>2020-02-29T11:59:07Z</time>
      </trkpt>
      <trkpt lat="42.84537" lon="1.83995">
        <ele>1746</ele>
        <time>2020-02-29T11:59:20Z</time>
      </trkpt>
      <trkpt lat="42.84536" lon="1.83983">
        <ele>1746</ele>
        <time>2020-02-29T11:59:33Z</time>
      </trkpt>
      <trkpt lat="42.84538" lon="1.8397">
        <ele>1747</ele>
        <time>2020-02-29T11:59:45Z</time>
      </trkpt>
      <trkpt lat="42.84533" lon="1.8396">
        <ele>1748</ele>
        <time>2020-02-29T11:59:57Z</time>
      </trkpt>
      <trkpt lat="42.84528" lon="1.83947">
        <ele>1748</ele>
        <time>2020-02-29T12:00:10Z</time>
      </trkpt>
      <trkpt lat="42.84522" lon="1.83938">
        <ele>1751</ele>
        <time>2020-02-29T12:00:24Z</time>
      </trkpt>
      <trkpt lat="42.84517" lon="1.83927">
        <ele>1754</ele>
        <time>2020-02-29T12:00:46Z</time>
      </trkpt>
      <trkpt lat="42.84513" lon="1.83916">
        <ele>1756</ele>
        <time>2020-02-29T12:01:04Z</time>
      </trkpt>
      <trkpt lat="42.8451" lon="1.83903">
        <ele>1757</ele>
        <time>2020-02-29T12:01:18Z</time>
      </trkpt>
      <trkpt lat="42.84502" lon="1.839">
        <ele>1759</ele>
        <time>2020-02-29T12:01:35Z</time>
      </trkpt>
      <trkpt lat="42.84492" lon="1.83901">
        <ele>1761</ele>
        <time>2020-02-29T12:01:49Z</time>
      </trkpt>
      <trkpt lat="42.84486" lon="1.83893">
        <ele>1762</ele>
        <time>2020-02-29T12:02:07Z</time>
      </trkpt>
      <trkpt lat="42.84477" lon="1.83886">
        <ele>1763</ele>
        <time>2020-02-29T12:02:23Z</time>
      </trkpt>
      <trkpt lat="42.84469" lon="1.83881">
        <ele>1765</ele>
        <time>2020-02-29T12:02:40Z</time>
      </trkpt>
      <trkpt lat="42.84463" lon="1.83871">
        <ele>1767</ele>
        <time>2020-02-29T12:02:57Z</time>
      </trkpt>
      <trkpt lat="42.84459" lon="1.83859">
        <ele>1769</ele>
        <time>2020-02-29T12:03:17Z</time>
      </trkpt>
      <trkpt lat="42.84457" lon="1.83846">
        <ele>1771</ele>
        <time>2020-02-29T12:03:33Z</time>
      </trkpt>
      <trkpt lat="42.84456" lon="1.83834">
        <ele>1772</ele>
        <time>2020-02-29T12:03:49Z</time>
      </trkpt>
      <trkpt lat="42.84448" lon="1.83827">
        <ele>1775</ele>
        <time>2020-02-29T12:04:04Z</time>
      </trkpt>
      <trkpt lat="42.84441" lon="1.83819">
        <ele>1778</ele>
        <time>2020-02-29T12:04:33Z</time>
      </trkpt>
      <trkpt lat="42.84438" lon="1.83808">
        <ele>1781</ele>
        <time>2020-02-29T12:05:00Z</time>
      </trkpt>
      <trkpt lat="42.84432" lon="1.83797">
        <ele>1783</ele>
        <time>2020-02-29T12:05:22Z</time>
      </trkpt>
      <trkpt lat="42.84429" lon="1.83785">
        <ele>1784</ele>
        <time>2020-02-29T12:05:34Z</time>
      </trkpt>
      <trkpt lat="42.84424" lon="1.83774">
        <ele>1790</ele>
        <time>2020-02-29T12:05:50Z</time>
      </trkpt>
      <trkpt lat="42.84418" lon="1.83765">
        <ele>1790</ele>
        <time>2020-02-29T12:06:17Z</time>
      </trkpt>
      <trkpt lat="42.8441" lon="1.83758">
        <ele>1792</ele>
        <time>2020-02-29T12:07:03Z</time>
      </trkpt>
      <trkpt lat="42.84402" lon="1.83751">
        <ele>1793</ele>
        <time>2020-02-29T12:07:57Z</time>
      </trkpt>
      <trkpt lat="42.84393" lon="1.8375">
        <ele>1796</ele>
        <time>2020-02-29T12:08:13Z</time>
      </trkpt>
      <trkpt lat="42.84385" lon="1.83747">
        <ele>1797</ele>
        <time>2020-02-29T12:08:33Z</time>
      </trkpt>
      <trkpt lat="42.84375" lon="1.83743">
        <ele>1800</ele>
        <time>2020-02-29T12:08:54Z</time>
      </trkpt>
      <trkpt lat="42.84383" lon="1.8375">
        <ele>1802</ele>
        <time>2020-02-29T12:11:20Z</time>
      </trkpt>
      <trkpt lat="42.84392" lon="1.83747">
        <ele>1799</ele>
        <time>2020-02-29T12:11:34Z</time>
      </trkpt>
      <trkpt lat="42.844" lon="1.83752">
        <ele>1795</ele>
        <time>2020-02-29T12:11:46Z</time>
      </trkpt>
      <trkpt lat="42.84409" lon="1.83758">
        <ele>1791</ele>
        <time>2020-02-29T12:11:58Z</time>
      </trkpt>
      <trkpt lat="42.84418" lon="1.83761">
        <ele>1787</ele>
        <time>2020-02-29T12:12:11Z</time>
      </trkpt>
      <trkpt lat="42.84428" lon="1.83762">
        <ele>1780</ele>
        <time>2020-02-29T12:12:24Z</time>
      </trkpt>
      <trkpt lat="42.84437" lon="1.83764">
        <ele>1779</ele>
        <time>2020-02-29T12:12:35Z</time>
      </trkpt>
      <trkpt lat="42.84445" lon="1.83771">
        <ele>1776</ele>
        <time>2020-02-29T12:12:46Z</time>
      </trkpt>
      <trkpt lat="42.84453" lon="1.83777">
        <ele>1775</ele>
        <time>2020-02-29T12:12:54Z</time>
      </trkpt>
      <trkpt lat="42.84463" lon="1.83778">
        <ele>1769</ele>
        <time>2020-02-29T12:13:04Z</time>
      </trkpt>
      <trkpt lat="42.84472" lon="1.83779">
        <ele>1767</ele>
        <time>2020-02-29T12:13:13Z</time>
      </trkpt>
      <trkpt lat="42.84481" lon="1.83784">
        <ele>1769</ele>
        <time>2020-02-29T12:13:22Z</time>
      </trkpt>
      <trkpt lat="42.8449" lon="1.83789">
        <ele>1769</ele>
        <time>2020-02-29T12:13:31Z</time>
      </trkpt>
      <trkpt lat="42.84496" lon="1.83801">
        <ele>1766</ele>
        <time>2020-02-29T12:13:40Z</time>
      </trkpt>
      <trkpt lat="42.84504" lon="1.83807">
        <ele>1766</ele>
        <time>2020-02-29T12:13:45Z</time>
      </trkpt>
      <trkpt lat="42.84512" lon="1.83814">
        <ele>1767</ele>
        <time>2020-02-29T12:13:53Z</time>
      </trkpt>
      <trkpt lat="42.84521" lon="1.83814">
        <ele>1769</ele>
        <time>2020-02-29T12:14:03Z</time>
      </trkpt>
      <trkpt lat="42.84528" lon="1.83822">
        <ele>1764</ele>
        <time>2020-02-29T12:14:13Z</time>
      </trkpt>
      <trkpt lat="42.84534" lon="1.83832">
        <ele>1759</ele>
        <time>2020-02-29T12:14:22Z</time>
      </trkpt>
      <trkpt lat="42.84544" lon="1.83836">
        <ele>1757</ele>
        <time>2020-02-29T12:14:29Z</time>
      </trkpt>
      <trkpt lat="42.84552" lon="1.83828">
        <ele>1759</ele>
        <time>2020-02-29T12:14:42Z</time>
      </trkpt>
      <trkpt lat="42.84561" lon="1.83828">
        <ele>1757</ele>
        <time>2020-02-29T12:14:57Z</time>
      </trkpt>
      <trkpt lat="42.84566" lon="1.83838">
        <ele>1756</ele>
        <time>2020-02-29T13:06:54Z</time>
      </trkpt>
      <trkpt lat="42.84563" lon="1.8385">
        <ele>1755</ele>
        <time>2020-02-29T13:07:05Z</time>
      </trkpt>
      <trkpt lat="42.8457" lon="1.83859">
        <ele>1755</ele>
        <time>2020-02-29T13:08:07Z</time>
      </trkpt>
      <trkpt lat="42.84577" lon="1.83867">
        <ele>1756</ele>
        <time>2020-02-29T13:08:17Z</time>
      </trkpt>
      <trkpt lat="42.84585" lon="1.83873">
        <ele>1759</ele>
        <time>2020-02-29T13:08:31Z</time>
      </trkpt>
      <trkpt lat="42.84594" lon="1.83872">
        <ele>1759</ele>
        <time>2020-02-29T13:08:45Z</time>
      </trkpt>
      <trkpt lat="42.84603" lon="1.83873">
        <ele>1759</ele>
        <time>2020-02-29T13:08:59Z</time>
      </trkpt>
      <trkpt lat="42.84612" lon="1.83869">
        <ele>1759</ele>
        <time>2020-02-29T13:09:13Z</time>
      </trkpt>
      <trkpt lat="42.84621" lon="1.83867">
        <ele>1759</ele>
        <time>2020-02-29T13:09:34Z</time>
      </trkpt>
      <trkpt lat="42.8463" lon="1.83869">
        <ele>1759</ele>
        <time>2020-02-29T13:09:45Z</time>
      </trkpt>
      <trkpt lat="42.84639" lon="1.83875">
        <ele>1761</ele>
        <time>2020-02-29T13:10:43Z</time>
      </trkpt>
      <trkpt lat="42.84645" lon="1.83885">
        <ele>1756</ele>
        <time>2020-02-29T13:10:59Z</time>
      </trkpt>
      <trkpt lat="42.8465" lon="1.83896">
        <ele>1754</ele>
        <time>2020-02-29T13:11:18Z</time>
      </trkpt>
      <trkpt lat="42.84656" lon="1.83908">
        <ele>1754</ele>
        <time>2020-02-29T13:11:35Z</time>
      </trkpt>
      <trkpt lat="42.84663" lon="1.83915">
        <ele>1747</ele>
        <time>2020-02-29T13:12:05Z</time>
      </trkpt>
      <trkpt lat="42.8467" lon="1.83924">
        <ele>1739</ele>
        <time>2020-02-29T13:12:31Z</time>
      </trkpt>
      <trkpt lat="42.84679" lon="1.8393">
        <ele>1735</ele>
        <time>2020-02-29T13:12:46Z</time>
      </trkpt>
      <trkpt lat="42.84686" lon="1.83938">
        <ele>1733</ele>
        <time>2020-02-29T13:13:02Z</time>
      </trkpt>
      <trkpt lat="42.84696" lon="1.8394">
        <ele>1733</ele>
        <time>2020-02-29T13:13:14Z</time>
      </trkpt>
      <trkpt lat="42.84705" lon="1.83941">
        <ele>1729</ele>
        <time>2020-02-29T13:13:25Z</time>
      </trkpt>
      <trkpt lat="42.84714" lon="1.83939">
        <ele>1728</ele>
        <time>2020-02-29T13:13:34Z</time>
      </trkpt>
      <trkpt lat="42.84724" lon="1.83939">
        <ele>1727</ele>
        <time>2020-02-29T13:13:58Z</time>
      </trkpt>
      <trkpt lat="42.84729" lon="1.8395">
        <ele>1723</ele>
        <time>2020-02-29T13:14:13Z</time>
      </trkpt>
      <trkpt lat="42.84732" lon="1.83962">
        <ele>1720</ele>
        <time>2020-02-29T13:14:26Z</time>
      </trkpt>
      <trkpt lat="42.84738" lon="1.83973">
        <ele>1716</ele>
        <time>2020-02-29T13:14:46Z</time>
      </trkpt>
      <trkpt lat="42.84746" lon="1.83979">
        <ele>1712</ele>
        <time>2020-02-29T13:14:58Z</time>
      </trkpt>
      <trkpt lat="42.84756" lon="1.83979">
        <ele>1712</ele>
        <time>2020-02-29T13:15:09Z</time>
      </trkpt>
      <trkpt lat="42.84765" lon="1.83983">
        <ele>1713</ele>
        <time>2020-02-29T13:15:30Z</time>
      </trkpt>
      <trkpt lat="42.84774" lon="1.83988">
        <ele>1710</ele>
        <time>2020-02-29T13:15:42Z</time>
      </trkpt>
      <trkpt lat="42.84782" lon="1.83995">
        <ele>1712</ele>
        <time>2020-02-29T13:15:58Z</time>
      </trkpt>
      <trkpt lat="42.8479" lon="1.84">
        <ele>1713</ele>
        <time>2020-02-29T13:16:12Z</time>
      </trkpt>
      <trkpt lat="42.84799" lon="1.84005">
        <ele>1715</ele>
        <time>2020-02-29T13:16:34Z</time>
      </trkpt>
      <trkpt lat="42.84808" lon="1.8401">
        <ele>1714</ele>
        <time>2020-02-29T13:16:57Z</time>
      </trkpt>
      <trkpt lat="42.84814" lon="1.8402">
        <ele>1712</ele>
        <time>2020-02-29T13:17:18Z</time>
      </trkpt>
      <trkpt lat="42.84822" lon="1.84028">
        <ele>1709</ele>
        <time>2020-02-29T13:17:28Z</time>
      </trkpt>
      <trkpt lat="42.84831" lon="1.84033">
        <ele>1711</ele>
        <time>2020-02-29T13:17:37Z</time>
      </trkpt>
      <trkpt lat="42.8484" lon="1.84037">
        <ele>1710</ele>
        <time>2020-02-29T13:17:53Z</time>
      </trkpt>
      <trkpt lat="42.84848" lon="1.84044">
        <ele>1712</ele>
        <time>2020-02-29T13:18:36Z</time>
      </trkpt>
      <trkpt lat="42.84858" lon="1.84046">
        <ele>1710</ele>
        <time>2020-02-29T13:19:05Z</time>
      </trkpt>
      <trkpt lat="42.84868" lon="1.84046">
        <ele>1706</ele>
        <time>2020-02-29T13:19:31Z</time>
      </trkpt>
      <trkpt lat="42.84877" lon="1.84046">
        <ele>1706</ele>
        <time>2020-02-29T13:19:45Z</time>
      </trkpt>
      <trkpt lat="42.84884" lon="1.84053">
        <ele>1704</ele>
        <time>2020-02-29T13:20:05Z</time>
      </trkpt>
      <trkpt lat="42.8489" lon="1.84064">
        <ele>1698</ele>
        <time>2020-02-29T13:20:26Z</time>
      </trkpt>
      <trkpt lat="42.84899" lon="1.84061">
        <ele>1692</ele>
        <time>2020-02-29T13:20:50Z</time>
      </trkpt>
      <trkpt lat="42.84908" lon="1.84065">
        <ele>1687</ele>
        <time>2020-02-29T13:21:31Z</time>
      </trkpt>
      <trkpt lat="42.84917" lon="1.84067">
        <ele>1683</ele>
        <time>2020-02-29T13:22:20Z</time>
      </trkpt>
      <trkpt lat="42.84924" lon="1.84059">
        <ele>1679</ele>
        <time>2020-02-29T13:22:45Z</time>
      </trkpt>
      <trkpt lat="42.84934" lon="1.84059">
        <ele>1675</ele>
        <time>2020-02-29T13:23:34Z</time>
      </trkpt>
      <trkpt lat="42.84943" lon="1.84064">
        <ele>1671</ele>
        <time>2020-02-29T13:24:01Z</time>
      </trkpt>
      <trkpt lat="42.84945" lon="1.84076">
        <ele>1667</ele>
        <time>2020-02-29T13:26:20Z</time>
      </trkpt>
      <trkpt lat="42.84954" lon="1.8408">
        <ele>1664</ele>
        <time>2020-02-29T13:26:38Z</time>
      </trkpt>
      <trkpt lat="42.84964" lon="1.8408">
        <ele>1661</ele>
        <time>2020-02-29T13:26:58Z</time>
      </trkpt>
      <trkpt lat="42.84974" lon="1.84086">
        <ele>1662</ele>
        <time>2020-02-29T13:27:11Z</time>
      </trkpt>
      <trkpt lat="42.84982" lon="1.84091">
        <ele>1661</ele>
        <time>2020-02-29T13:27:34Z</time>
      </trkpt>
      <trkpt lat="42.84991" lon="1.84097">
        <ele>1650</ele>
        <time>2020-02-29T13:28:40Z</time>
      </trkpt>
      <trkpt lat="42.84999" lon="1.84103">
        <ele>1642</ele>
        <time>2020-02-29T13:29:17Z</time>
      </trkpt>
      <trkpt lat="42.85007" lon="1.8411">
        <ele>1639</ele>
        <time>2020-02-29T13:29:32Z</time>
      </trkpt>
      <trkpt lat="42.85015" lon="1.84116">
        <ele>1637</ele>
        <time>2020-02-29T13:29:48Z</time>
      </trkpt>
      <trkpt lat="42.85025" lon="1.84117">
        <ele>1634</ele>
        <time>2020-02-29T13:30:01Z</time>
      </trkpt>
      <trkpt lat="42.85034" lon="1.84115">
        <ele>1629</ele>
        <time>2020-02-29T13:30:15Z</time>
      </trkpt>
      <trkpt lat="42.85043" lon="1.8412">
        <ele>1625</ele>
        <time>2020-02-29T13:30:34Z</time>
      </trkpt>
      <trkpt lat="42.85052" lon="1.84123">
        <ele>1621</ele>
        <time>2020-02-29T13:30:53Z</time>
      </trkpt>
      <trkpt lat="42.85061" lon="1.84119">
        <ele>1616</ele>
        <time>2020-02-29T13:31:08Z</time>
      </trkpt>
      <trkpt lat="42.8507" lon="1.84122">
        <ele>1613</ele>
        <time>2020-02-29T13:31:19Z</time>
      </trkpt>
      <trkpt lat="42.85079" lon="1.84124">
        <ele>1610</ele>
        <time>2020-02-29T13:31:34Z</time>
      </trkpt>
      <trkpt lat="42.85087" lon="1.84127">
        <ele>1607</ele>
        <time>2020-02-29T13:31:50Z</time>
      </trkpt>
      <trkpt lat="42.85096" lon="1.84121">
        <ele>1605</ele>
        <time>2020-02-29T13:32:07Z</time>
      </trkpt>
      <trkpt lat="42.85099" lon="1.84109">
        <ele>1603</ele>
        <time>2020-02-29T13:32:20Z</time>
      </trkpt>
      <trkpt lat="42.85108" lon="1.84106">
        <ele>1600</ele>
        <time>2020-02-29T13:32:28Z</time>
      </trkpt>
      <trkpt lat="42.85115" lon="1.84099">
        <ele>1596</ele>
        <time>2020-02-29T13:32:49Z</time>
      </trkpt>
      <trkpt lat="42.85125" lon="1.84092">
        <ele>1590</ele>
        <time>2020-02-29T13:33:20Z</time>
      </trkpt>
      <trkpt lat="42.85134" lon="1.8409">
        <ele>1590</ele>
        <time>2020-02-29T13:33:30Z</time>
      </trkpt>
      <trkpt lat="42.85142" lon="1.84082">
        <ele>1588</ele>
        <time>2020-02-29T13:33:48Z</time>
      </trkpt>
      <trkpt lat="42.85137" lon="1.84072">
        <ele>1585</ele>
        <time>2020-02-29T13:33:59Z</time>
      </trkpt>
      <trkpt lat="42.8514" lon="1.84058">
        <ele>1581</ele>
        <time>2020-02-29T13:35:22Z</time>
      </trkpt>
      <trkpt lat="42.85148" lon="1.8405">
        <ele>1573</ele>
        <time>2020-02-29T13:35:43Z</time>
      </trkpt>
      <trkpt lat="42.85157" lon="1.84046">
        <ele>1570</ele>
        <time>2020-02-29T13:36:10Z</time>
      </trkpt>
      <trkpt lat="42.85166" lon="1.84044">
        <ele>1563</ele>
        <time>2020-02-29T13:36:33Z</time>
      </trkpt>
      <trkpt lat="42.85176" lon="1.84042">
        <ele>1559</ele>
        <time>2020-02-29T13:37:01Z</time>
      </trkpt>
      <trkpt lat="42.85185" lon="1.84039">
        <ele>1558</ele>
        <time>2020-02-29T13:37:08Z</time>
      </trkpt>
      <trkpt lat="42.85193" lon="1.84031">
        <ele>1555</ele>
        <time>2020-02-29T13:37:17Z</time>
      </trkpt>
      <trkpt lat="42.852" lon="1.84024">
        <ele>1552</ele>
        <time>2020-02-29T13:37:31Z</time>
      </trkpt>
      <trkpt lat="42.85208" lon="1.84019">
        <ele>1551</ele>
        <time>2020-02-29T13:40:32Z</time>
      </trkpt>
      <trkpt lat="42.85216" lon="1.84011">
        <ele>1547</ele>
        <time>2020-02-29T13:40:47Z</time>
      </trkpt>
      <trkpt lat="42.85224" lon="1.84005">
        <ele>1543</ele>
        <time>2020-02-29T13:41:01Z</time>
      </trkpt>
      <trkpt lat="42.85231" lon="1.83995">
        <ele>1540</ele>
        <time>2020-02-29T13:41:33Z</time>
      </trkpt>
      <trkpt lat="42.85234" lon="1.83984">
        <ele>1532</ele>
        <time>2020-02-29T13:45:01Z</time>
      </trkpt>
      <trkpt lat="42.85241" lon="1.83975">
        <ele>1528</ele>
        <time>2020-02-29T13:45:16Z</time>
      </trkpt>
      <trkpt lat="42.8525" lon="1.83969">
        <ele>1524</ele>
        <time>2020-02-29T13:45:29Z</time>
      </trkpt>
      <trkpt lat="42.85257" lon="1.83961">
        <ele>1522</ele>
        <time>2020-02-29T13:45:41Z</time>
      </trkpt>
      <trkpt lat="42.85265" lon="1.83953">
        <ele>1520</ele>
        <time>2020-02-29T13:45:56Z</time>
      </trkpt>
      <trkpt lat="42.85273" lon="1.83945">
        <ele>1518</ele>
        <time>2020-02-29T13:46:08Z</time>
      </trkpt>
      <trkpt lat="42.85281" lon="1.83938">
        <ele>1516</ele>
        <time>2020-02-29T13:46:24Z</time>
      </trkpt>
      <trkpt lat="42.85289" lon="1.83931">
        <ele>1511</ele>
        <time>2020-02-29T13:46:48Z</time>
      </trkpt>
      <trkpt lat="42.85297" lon="1.83925">
        <ele>1500</ele>
        <time>2020-02-29T13:47:24Z</time>
      </trkpt>
      <trkpt lat="42.85305" lon="1.83918">
        <ele>1498</ele>
        <time>2020-02-29T13:48:39Z</time>
      </trkpt>
      <trkpt lat="42.85309" lon="1.83904">
        <ele>1495</ele>
        <time>2020-02-29T13:49:33Z</time>
      </trkpt>
      <trkpt lat="42.85318" lon="1.83907">
        <ele>1492</ele>
        <time>2020-02-29T13:49:50Z</time>
      </trkpt>
      <trkpt lat="42.85325" lon="1.83894">
        <ele>1490</ele>
        <time>2020-02-29T13:50:19Z</time>
      </trkpt>
      <trkpt lat="42.85333" lon="1.83886">
        <ele>1485</ele>
        <time>2020-02-29T13:50:42Z</time>
      </trkpt>
      <trkpt lat="42.85341" lon="1.83879">
        <ele>1485</ele>
        <time>2020-02-29T13:50:50Z</time>
      </trkpt>
      <trkpt lat="42.85349" lon="1.83873">
        <ele>1485</ele>
        <time>2020-02-29T13:50:58Z</time>
      </trkpt>
      <trkpt lat="42.85358" lon="1.83867">
        <ele>1483</ele>
        <time>2020-02-29T13:51:10Z</time>
      </trkpt>
      <trkpt lat="42.85366" lon="1.83871">
        <ele>1491</ele>
        <time>2020-02-29T13:54:36Z</time>
      </trkpt>
      <trkpt lat="42.85372" lon="1.83883">
        <ele>1487</ele>
        <time>2020-02-29T13:54:43Z</time>
      </trkpt>
      <trkpt lat="42.8538" lon="1.8389">
        <ele>1488</ele>
        <time>2020-02-29T13:55:06Z</time>
      </trkpt>
      <trkpt lat="42.8538" lon="1.83904">
        <ele>1481</ele>
        <time>2020-02-29T13:55:20Z</time>
      </trkpt>
      <trkpt lat="42.85389" lon="1.83898">
        <ele>1471</ele>
        <time>2020-02-29T13:57:51Z</time>
      </trkpt>
      <trkpt lat="42.85399" lon="1.83904">
        <ele>1474</ele>
        <time>2020-02-29T13:58:26Z</time>
      </trkpt>
      <trkpt lat="42.85405" lon="1.83892">
        <ele>1473</ele>
        <time>2020-02-29T13:58:37Z</time>
      </trkpt>
      <trkpt lat="42.8541" lon="1.8388">
        <ele>1471</ele>
        <time>2020-02-29T13:58:46Z</time>
      </trkpt>
      <trkpt lat="42.85418" lon="1.83875">
        <ele>1473</ele>
        <time>2020-02-29T13:58:54Z</time>
      </trkpt>
      <trkpt lat="42.85419" lon="1.83862">
        <ele>1472</ele>
        <time>2020-02-29T13:59:06Z</time>
      </trkpt>
      <trkpt lat="42.85423" lon="1.83851">
        <ele>1467</ele>
        <time>2020-02-29T13:59:18Z</time>
      </trkpt>
      <trkpt lat="42.85428" lon="1.83841">
        <ele>1467</ele>
        <time>2020-02-29T13:59:27Z</time>
      </trkpt>
      <trkpt lat="42.85436" lon="1.83834">
        <ele>1467</ele>
        <time>2020-02-29T13:59:35Z</time>
      </trkpt>
      <trkpt lat="42.85444" lon="1.83828">
        <ele>1467</ele>
        <time>2020-02-29T13:59:44Z</time>
      </trkpt>
      <trkpt lat="42.85452" lon="1.8382">
        <ele>1462</ele>
        <time>2020-02-29T13:59:57Z</time>
      </trkpt>
      <trkpt lat="42.85459" lon="1.83813">
        <ele>1458</ele>
        <time>2020-02-29T14:00:11Z</time>
      </trkpt>
      <trkpt lat="42.85467" lon="1.83806">
        <ele>1457</ele>
        <time>2020-02-29T14:00:31Z</time>
      </trkpt>
      <trkpt lat="42.85477" lon="1.83807">
        <ele>1454</ele>
        <time>2020-02-29T14:00:49Z</time>
      </trkpt>
      <trkpt lat="42.85485" lon="1.83813">
        <ele>1452</ele>
        <time>2020-02-29T14:01:04Z</time>
      </trkpt>
      <trkpt lat="42.85494" lon="1.83816">
        <ele>1454</ele>
        <time>2020-02-29T14:01:15Z</time>
      </trkpt>
      <trkpt lat="42.85506" lon="1.83808">
        <ele>1438</ele>
        <time>2020-02-29T14:02:44Z</time>
      </trkpt>
      <trkpt lat="42.85515" lon="1.8381">
        <ele>1437</ele>
        <time>2020-02-29T14:02:53Z</time>
      </trkpt>
      <trkpt lat="42.85525" lon="1.83804">
        <ele>1435</ele>
        <time>2020-02-29T14:03:10Z</time>
      </trkpt>
      <trkpt lat="42.85533" lon="1.83798">
        <ele>1433</ele>
        <time>2020-02-29T14:03:17Z</time>
      </trkpt>
      <trkpt lat="42.85543" lon="1.83799">
        <ele>1428</ele>
        <time>2020-02-29T14:03:56Z</time>
      </trkpt>
      <trkpt lat="42.85553" lon="1.83798">
        <ele>1424</ele>
        <time>2020-02-29T14:04:38Z</time>
      </trkpt>
      <trkpt lat="42.85563" lon="1.83797">
        <ele>1417</ele>
        <time>2020-02-29T14:06:42Z</time>
      </trkpt>
      <trkpt lat="42.85572" lon="1.83789">
        <ele>1412</ele>
        <time>2020-02-29T14:07:38Z</time>
      </trkpt>
      <trkpt lat="42.85574" lon="1.83776">
        <ele>1409</ele>
        <time>2020-02-29T14:08:00Z</time>
      </trkpt>
      <trkpt lat="42.8557" lon="1.83765">
        <ele>1405</ele>
        <time>2020-02-29T14:08:13Z</time>
      </trkpt>
      <trkpt lat="42.85567" lon="1.83753">
        <ele>1405</ele>
        <time>2020-02-29T14:08:25Z</time>
      </trkpt>
      <trkpt lat="42.85559" lon="1.83747">
        <ele>1407</ele>
        <time>2020-02-29T14:09:09Z</time>
      </trkpt>
      <trkpt lat="42.85508" lon="1.8375">
        <ele>1392</ele>
        <time>2020-02-29T14:11:43Z</time>
      </trkpt>
      <trkpt lat="42.85559" lon="1.83747">
        <ele>1408</ele>
        <time>2020-02-29T14:14:52Z</time>
      </trkpt>
      <trkpt lat="42.85568" lon="1.8375">
        <ele>1411</ele>
        <time>2020-02-29T14:15:29Z</time>
      </trkpt>
      <trkpt lat="42.85575" lon="1.83757">
        <ele>1411</ele>
        <time>2020-02-29T14:15:36Z</time>
      </trkpt>
      <trkpt lat="42.85586" lon="1.83761">
        <ele>1408</ele>
        <time>2020-02-29T14:15:47Z</time>
      </trkpt>
      <trkpt lat="42.85595" lon="1.8376">
        <ele>1408</ele>
        <time>2020-02-29T14:15:54Z</time>
      </trkpt>
      <trkpt lat="42.85604" lon="1.83755">
        <ele>1407</ele>
        <time>2020-02-29T14:16:09Z</time>
      </trkpt>
      <trkpt lat="42.85611" lon="1.83746">
        <ele>1401</ele>
        <time>2020-02-29T14:16:26Z</time>
      </trkpt>
      <trkpt lat="42.8562" lon="1.83739">
        <ele>1395</ele>
        <time>2020-02-29T14:16:44Z</time>
      </trkpt>
      <trkpt lat="42.85629" lon="1.83734">
        <ele>1392</ele>
        <time>2020-02-29T14:17:04Z</time>
      </trkpt>
      <trkpt lat="42.85638" lon="1.8373">
        <ele>1387</ele>
        <time>2020-02-29T14:17:19Z</time>
      </trkpt>
      <trkpt lat="42.85646" lon="1.83735">
        <ele>1384</ele>
        <time>2020-02-29T14:18:44Z</time>
      </trkpt>
      <trkpt lat="42.85655" lon="1.83745">
        <ele>1382</ele>
        <time>2020-02-29T14:20:47Z</time>
      </trkpt>
      <trkpt lat="42.85665" lon="1.83744">
        <ele>1376</ele>
        <time>2020-02-29T14:21:26Z</time>
      </trkpt>
      <trkpt lat="42.85674" lon="1.83738">
        <ele>1373</ele>
        <time>2020-02-29T14:21:32Z</time>
      </trkpt>
      <trkpt lat="42.85684" lon="1.83738">
        <ele>1371</ele>
        <time>2020-02-29T14:21:41Z</time>
      </trkpt>
      <trkpt lat="42.85695" lon="1.83734">
        <ele>1368</ele>
        <time>2020-02-29T14:21:51Z</time>
      </trkpt>
      <trkpt lat="42.85704" lon="1.83732">
        <ele>1367</ele>
        <time>2020-02-29T14:22:00Z</time>
      </trkpt>
      <trkpt lat="42.85711" lon="1.8374">
        <ele>1365</ele>
        <time>2020-02-29T14:22:13Z</time>
      </trkpt>
      <trkpt lat="42.85721" lon="1.83741">
        <ele>1359</ele>
        <time>2020-02-29T14:22:50Z</time>
      </trkpt>
      <trkpt lat="42.85726" lon="1.83751">
        <ele>1359</ele>
        <time>2020-02-29T14:22:58Z</time>
      </trkpt>
      <trkpt lat="42.85734" lon="1.83759">
        <ele>1355</ele>
        <time>2020-02-29T14:23:08Z</time>
      </trkpt>
      <trkpt lat="42.85735" lon="1.83771">
        <ele>1349</ele>
        <time>2020-02-29T14:23:27Z</time>
      </trkpt>
      <trkpt lat="42.85736" lon="1.83787">
        <ele>1344</ele>
        <time>2020-02-29T14:25:27Z</time>
      </trkpt>
      <trkpt lat="42.85745" lon="1.83789">
        <ele>1344</ele>
        <time>2020-02-29T14:25:39Z</time>
      </trkpt>
      <trkpt lat="42.85755" lon="1.83788">
        <ele>1342</ele>
        <time>2020-02-29T14:25:48Z</time>
      </trkpt>
      <trkpt lat="42.85764" lon="1.83786">
        <ele>1342</ele>
        <time>2020-02-29T14:25:58Z</time>
      </trkpt>
      <trkpt lat="42.85771" lon="1.83778">
        <ele>1337</ele>
        <time>2020-02-29T14:26:04Z</time>
      </trkpt>
      <trkpt lat="42.8578" lon="1.83773">
        <ele>1335</ele>
        <time>2020-02-29T14:26:13Z</time>
      </trkpt>
      <trkpt lat="42.85787" lon="1.83765">
        <ele>1331</ele>
        <time>2020-02-29T14:26:22Z</time>
      </trkpt>
      <trkpt lat="42.85795" lon="1.83758">
        <ele>1329</ele>
        <time>2020-02-29T14:26:30Z</time>
      </trkpt>
      <trkpt lat="42.85804" lon="1.83754">
        <ele>1331</ele>
        <time>2020-02-29T14:26:40Z</time>
      </trkpt>
      <trkpt lat="42.85813" lon="1.83749">
        <ele>1330</ele>
        <time>2020-02-29T14:26:46Z</time>
      </trkpt>
      <trkpt lat="42.85822" lon="1.83752">
        <ele>1332</ele>
        <time>2020-02-29T14:26:53Z</time>
      </trkpt>
      <trkpt lat="42.85816" lon="1.83762">
        <ele>1329</ele>
        <time>2020-02-29T14:27:08Z</time>
      </trkpt>
      <trkpt lat="42.85808" lon="1.83769">
        <ele>1329</ele>
        <time>2020-02-29T14:27:16Z</time>
      </trkpt>
      <trkpt lat="42.85799" lon="1.83775">
        <ele>1330</ele>
        <time>2020-02-29T14:27:24Z</time>
      </trkpt>
      <trkpt lat="42.85791" lon="1.83784">
        <ele>1333</ele>
        <time>2020-02-29T14:27:33Z</time>
      </trkpt>
      <trkpt lat="42.85784" lon="1.83792">
        <ele>1333</ele>
        <time>2020-02-29T14:27:45Z</time>
      </trkpt>
      <trkpt lat="42.85777" lon="1.83801">
        <ele>1332</ele>
        <time>2020-02-29T14:27:50Z</time>
      </trkpt>
      <trkpt lat="42.85768" lon="1.83807">
        <ele>1331</ele>
        <time>2020-02-29T14:27:58Z</time>
      </trkpt>
      <trkpt lat="42.85761" lon="1.83816">
        <ele>1332</ele>
        <time>2020-02-29T14:28:05Z</time>
      </trkpt>
      <trkpt lat="42.85752" lon="1.8382">
        <ele>1332</ele>
        <time>2020-02-29T14:28:14Z</time>
      </trkpt>
      <trkpt lat="42.85744" lon="1.83829">
        <ele>1333</ele>
        <time>2020-02-29T14:28:22Z</time>
      </trkpt>
      <trkpt lat="42.85735" lon="1.83832">
        <ele>1331</ele>
        <time>2020-02-29T14:28:30Z</time>
      </trkpt>
      <trkpt lat="42.85726" lon="1.83837">
        <ele>1330</ele>
        <time>2020-02-29T14:28:37Z</time>
      </trkpt>
      <trkpt lat="42.85718" lon="1.83843">
        <ele>1334</ele>
        <time>2020-02-29T14:28:44Z</time>
      </trkpt>
      <trkpt lat="42.8571" lon="1.83852">
        <ele>1332</ele>
        <time>2020-02-29T14:28:53Z</time>
      </trkpt>
      <trkpt lat="42.85704" lon="1.83861">
        <ele>1326</ele>
        <time>2020-02-29T14:29:03Z</time>
      </trkpt>
      <trkpt lat="42.85698" lon="1.83871">
        <ele>1328</ele>
        <time>2020-02-29T14:29:10Z</time>
      </trkpt>
      <trkpt lat="42.85695" lon="1.83884">
        <ele>1325</ele>
        <time>2020-02-29T14:29:18Z</time>
      </trkpt>
      <trkpt lat="42.85691" lon="1.83895">
        <ele>1321</ele>
        <time>2020-02-29T14:29:26Z</time>
      </trkpt>
      <trkpt lat="42.85686" lon="1.83907">
        <ele>1321</ele>
        <time>2020-02-29T14:29:35Z</time>
      </trkpt>
      <trkpt lat="42.85681" lon="1.83918">
        <ele>1319</ele>
        <time>2020-02-29T14:29:43Z</time>
      </trkpt>
      <trkpt lat="42.85676" lon="1.8393">
        <ele>1317</ele>
        <time>2020-02-29T14:29:52Z</time>
      </trkpt>
      <trkpt lat="42.85669" lon="1.83939">
        <ele>1317</ele>
        <time>2020-02-29T14:30:01Z</time>
      </trkpt>
      <trkpt lat="42.85665" lon="1.8395">
        <ele>1313</ele>
        <time>2020-02-29T14:30:09Z</time>
      </trkpt>
      <trkpt lat="42.85659" lon="1.83962">
        <ele>1311</ele>
        <time>2020-02-29T14:30:18Z</time>
      </trkpt>
      <trkpt lat="42.85654" lon="1.83973">
        <ele>1311</ele>
        <time>2020-02-29T14:30:26Z</time>
      </trkpt>
      <trkpt lat="42.85652" lon="1.83986">
        <ele>1310</ele>
        <time>2020-02-29T14:30:33Z</time>
      </trkpt>
      <trkpt lat="42.85643" lon="1.83993">
        <ele>1310</ele>
        <time>2020-02-29T14:30:41Z</time>
      </trkpt>
      <trkpt lat="42.85642" lon="1.84007">
        <ele>1309</ele>
        <time>2020-02-29T14:30:49Z</time>
      </trkpt>
      <trkpt lat="42.85636" lon="1.84017">
        <ele>1308</ele>
        <time>2020-02-29T14:31:00Z</time>
      </trkpt>
      <trkpt lat="42.85633" lon="1.8403">
        <ele>1308</ele>
        <time>2020-02-29T14:31:08Z</time>
      </trkpt>
      <trkpt lat="42.85627" lon="1.84039">
        <ele>1306</ele>
        <time>2020-02-29T14:31:16Z</time>
      </trkpt>
      <trkpt lat="42.85624" lon="1.84051">
        <ele>1307</ele>
        <time>2020-02-29T14:31:24Z</time>
      </trkpt>
      <trkpt lat="42.85621" lon="1.84063">
        <ele>1304</ele>
        <time>2020-02-29T14:31:33Z</time>
      </trkpt>
      <trkpt lat="42.85616" lon="1.84074">
        <ele>1304</ele>
        <time>2020-02-29T14:31:41Z</time>
      </trkpt>
      <trkpt lat="42.85611" lon="1.84084">
        <ele>1301</ele>
        <time>2020-02-29T14:31:49Z</time>
      </trkpt>
      <trkpt lat="42.85603" lon="1.84091">
        <ele>1300</ele>
        <time>2020-02-29T14:31:57Z</time>
      </trkpt>
      <trkpt lat="42.85597" lon="1.84102">
        <ele>1298</ele>
        <time>2020-02-29T14:32:05Z</time>
      </trkpt>
      <trkpt lat="42.85592" lon="1.84113">
        <ele>1294</ele>
        <time>2020-02-29T14:32:13Z</time>
      </trkpt>
      <trkpt lat="42.85586" lon="1.84123">
        <ele>1293</ele>
        <time>2020-02-29T14:32:21Z</time>
      </trkpt>
      <trkpt lat="42.8558" lon="1.84133">
        <ele>1292</ele>
        <time>2020-02-29T14:32:29Z</time>
      </trkpt>
      <trkpt lat="42.85574" lon="1.84143">
        <ele>1288</ele>
        <time>2020-02-29T14:32:38Z</time>
      </trkpt>
      <trkpt lat="42.8557" lon="1.84154">
        <ele>1288</ele>
        <time>2020-02-29T14:32:44Z</time>
      </trkpt>
      <trkpt lat="42.85562" lon="1.84161">
        <ele>1287</ele>
        <time>2020-02-29T14:32:52Z</time>
      </trkpt>
      <trkpt lat="42.85555" lon="1.84168">
        <ele>1290</ele>
        <time>2020-02-29T14:33:00Z</time>
      </trkpt>
      <trkpt lat="42.85549" lon="1.84178">
        <ele>1287</ele>
        <time>2020-02-29T14:33:07Z</time>
      </trkpt>
      <trkpt lat="42.85551" lon="1.84191">
        <ele>1284</ele>
        <time>2020-02-29T14:33:15Z</time>
      </trkpt>
      <trkpt lat="42.85544" lon="1.84203">
        <ele>1284</ele>
        <time>2020-02-29T14:33:25Z</time>
      </trkpt>
      <trkpt lat="42.85541" lon="1.84214">
        <ele>1285</ele>
        <time>2020-02-29T14:33:33Z</time>
      </trkpt>
      <trkpt lat="42.85533" lon="1.8422">
        <ele>1284</ele>
        <time>2020-02-29T14:33:39Z</time>
      </trkpt>
      <trkpt lat="42.85525" lon="1.84231">
        <ele>1280</ele>
        <time>2020-02-29T14:33:47Z</time>
      </trkpt>
      <trkpt lat="42.85523" lon="1.84243">
        <ele>1281</ele>
        <time>2020-02-29T14:33:54Z</time>
      </trkpt>
      <trkpt lat="42.85517" lon="1.84255">
        <ele>1276</ele>
        <time>2020-02-29T14:34:06Z</time>
      </trkpt>
      <trkpt lat="42.85511" lon="1.84266">
        <ele>1276</ele>
        <time>2020-02-29T14:34:14Z</time>
      </trkpt>
      <trkpt lat="42.85504" lon="1.84274">
        <ele>1273</ele>
        <time>2020-02-29T14:34:21Z</time>
      </trkpt>
      <trkpt lat="42.85498" lon="1.84283">
        <ele>1272</ele>
        <time>2020-02-29T14:34:30Z</time>
      </trkpt>
      <trkpt lat="42.85494" lon="1.84295">
        <ele>1271</ele>
        <time>2020-02-29T14:34:38Z</time>
      </trkpt>
      <trkpt lat="42.85494" lon="1.84307">
        <ele>1270</ele>
        <time>2020-02-29T14:34:45Z</time>
      </trkpt>
      <trkpt lat="42.85484" lon="1.84316">
        <ele>1269</ele>
        <time>2020-02-29T14:34:51Z</time>
      </trkpt>
      <trkpt lat="42.85478" lon="1.84328">
        <ele>1266</ele>
        <time>2020-02-29T14:34:59Z</time>
      </trkpt>
      <trkpt lat="42.85472" lon="1.84338">
        <ele>1267</ele>
        <time>2020-02-29T14:35:06Z</time>
      </trkpt>
      <trkpt lat="42.85468" lon="1.8435">
        <ele>1268</ele>
        <time>2020-02-29T14:35:14Z</time>
      </trkpt>
      <trkpt lat="42.85465" lon="1.84363">
        <ele>1266</ele>
        <time>2020-02-29T14:35:24Z</time>
      </trkpt>
      <trkpt lat="42.85457" lon="1.84371">
        <ele>1267</ele>
        <time>2020-02-29T14:35:31Z</time>
      </trkpt>
      <trkpt lat="42.8545" lon="1.8438">
        <ele>1260</ele>
        <time>2020-02-29T14:35:40Z</time>
      </trkpt>
      <trkpt lat="42.85443" lon="1.84389">
        <ele>1255</ele>
        <time>2020-02-29T14:35:47Z</time>
      </trkpt>
      <trkpt lat="42.85445" lon="1.84401">
        <ele>1256</ele>
        <time>2020-02-29T14:35:53Z</time>
      </trkpt>
      <trkpt lat="42.85455" lon="1.84402">
        <ele>1258</ele>
        <time>2020-02-29T14:36:03Z</time>
      </trkpt>
      <trkpt lat="42.85463" lon="1.84393">
        <ele>1256</ele>
        <time>2020-02-29T14:36:11Z</time>
      </trkpt>
      <trkpt lat="42.85472" lon="1.84385">
        <ele>1256</ele>
        <time>2020-02-29T14:36:18Z</time>
      </trkpt>
      <trkpt lat="42.8548" lon="1.84377">
        <ele>1257</ele>
        <time>2020-02-29T14:36:28Z</time>
      </trkpt>
      <trkpt lat="42.85488" lon="1.84367">
        <ele>1259</ele>
        <time>2020-02-29T14:36:36Z</time>
      </trkpt>
      <trkpt lat="42.85495" lon="1.84358">
        <ele>1259</ele>
        <time>2020-02-29T14:36:44Z</time>
      </trkpt>
      <trkpt lat="42.85504" lon="1.84349">
        <ele>1255</ele>
        <time>2020-02-29T14:36:51Z</time>
      </trkpt>
      <trkpt lat="42.85511" lon="1.84341">
        <ele>1254</ele>
        <time>2020-02-29T14:36:59Z</time>
      </trkpt>
      <trkpt lat="42.8552" lon="1.84335">
        <ele>1251</ele>
        <time>2020-02-29T14:37:07Z</time>
      </trkpt>
      <trkpt lat="42.85528" lon="1.84331">
        <ele>1251</ele>
        <time>2020-02-29T14:37:14Z</time>
      </trkpt>
      <trkpt lat="42.85536" lon="1.84322">
        <ele>1251</ele>
        <time>2020-02-29T14:37:22Z</time>
      </trkpt>
      <trkpt lat="42.85545" lon="1.84315">
        <ele>1252</ele>
        <time>2020-02-29T14:37:30Z</time>
      </trkpt>
      <trkpt lat="42.85551" lon="1.84306">
        <ele>1251</ele>
        <time>2020-02-29T14:37:36Z</time>
      </trkpt>
      <trkpt lat="42.85558" lon="1.84298">
        <ele>1252</ele>
        <time>2020-02-29T14:37:42Z</time>
      </trkpt>
      <trkpt lat="42.85566" lon="1.84291">
        <ele>1252</ele>
        <time>2020-02-29T14:37:50Z</time>
      </trkpt>
      <trkpt lat="42.85574" lon="1.84282">
        <ele>1251</ele>
        <time>2020-02-29T14:37:59Z</time>
      </trkpt>
      <trkpt lat="42.85582" lon="1.84273">
        <ele>1249</ele>
        <time>2020-02-29T14:38:06Z</time>
      </trkpt>
      <trkpt lat="42.85591" lon="1.84268">
        <ele>1247</ele>
        <time>2020-02-29T14:38:14Z</time>
      </trkpt>
      <trkpt lat="42.85597" lon="1.84259">
        <ele>1243</ele>
        <time>2020-02-29T14:38:20Z</time>
      </trkpt>
      <trkpt lat="42.85606" lon="1.84255">
        <ele>1244</ele>
        <time>2020-02-29T14:38:28Z</time>
      </trkpt>
      <trkpt lat="42.85614" lon="1.84245">
        <ele>1243</ele>
        <time>2020-02-29T14:38:35Z</time>
      </trkpt>
      <trkpt lat="42.85622" lon="1.84238">
        <ele>1241</ele>
        <time>2020-02-29T14:38:41Z</time>
      </trkpt>
      <trkpt lat="42.85631" lon="1.84234">
        <ele>1239</ele>
        <time>2020-02-29T14:38:48Z</time>
      </trkpt>
      <trkpt lat="42.85638" lon="1.84224">
        <ele>1239</ele>
        <time>2020-02-29T14:38:56Z</time>
      </trkpt>
      <trkpt lat="42.85647" lon="1.8422">
        <ele>1234</ele>
        <time>2020-02-29T14:39:03Z</time>
      </trkpt>
      <trkpt lat="42.85654" lon="1.84211">
        <ele>1234</ele>
        <time>2020-02-29T14:39:10Z</time>
      </trkpt>
      <trkpt lat="42.85661" lon="1.84204">
        <ele>1235</ele>
        <time>2020-02-29T14:39:18Z</time>
      </trkpt>
      <trkpt lat="42.8567" lon="1.84199">
        <ele>1229</ele>
        <time>2020-02-29T14:39:25Z</time>
      </trkpt>
      <trkpt lat="42.85678" lon="1.84192">
        <ele>1227</ele>
        <time>2020-02-29T14:39:31Z</time>
      </trkpt>
      <trkpt lat="42.85687" lon="1.84187">
        <ele>1228</ele>
        <time>2020-02-29T14:39:39Z</time>
      </trkpt>
      <trkpt lat="42.85682" lon="1.84198">
        <ele>1226</ele>
        <time>2020-02-29T14:40:24Z</time>
      </trkpt>
      <trkpt lat="42.85674" lon="1.84206">
        <ele>1227</ele>
        <time>2020-02-29T14:40:33Z</time>
      </trkpt>
      <trkpt lat="42.85668" lon="1.84215">
        <ele>1226</ele>
        <time>2020-02-29T14:40:41Z</time>
      </trkpt>
      <trkpt lat="42.85663" lon="1.84226">
        <ele>1222</ele>
        <time>2020-02-29T14:40:48Z</time>
      </trkpt>
      <trkpt lat="42.85655" lon="1.84232">
        <ele>1225</ele>
        <time>2020-02-29T14:40:55Z</time>
      </trkpt>
      <trkpt lat="42.85647" lon="1.84239">
        <ele>1221</ele>
        <time>2020-02-29T14:41:02Z</time>
      </trkpt>
      <trkpt lat="42.85644" lon="1.84252">
        <ele>1217</ele>
        <time>2020-02-29T14:41:09Z</time>
      </trkpt>
      <trkpt lat="42.85636" lon="1.84259">
        <ele>1218</ele>
        <time>2020-02-29T14:41:15Z</time>
      </trkpt>
      <trkpt lat="42.85628" lon="1.84267">
        <ele>1219</ele>
        <time>2020-02-29T14:41:22Z</time>
      </trkpt>
      <trkpt lat="42.85621" lon="1.84276">
        <ele>1220</ele>
        <time>2020-02-29T14:41:28Z</time>
      </trkpt>
      <trkpt lat="42.85616" lon="1.84287">
        <ele>1218</ele>
        <time>2020-02-29T14:41:36Z</time>
      </trkpt>
      <trkpt lat="42.8561" lon="1.84298">
        <ele>1217</ele>
        <time>2020-02-29T14:41:44Z</time>
      </trkpt>
      <trkpt lat="42.85605" lon="1.84308">
        <ele>1217</ele>
        <time>2020-02-29T14:41:52Z</time>
      </trkpt>
      <trkpt lat="42.85598" lon="1.84318">
        <ele>1216</ele>
        <time>2020-02-29T14:42:00Z</time>
      </trkpt>
      <trkpt lat="42.85594" lon="1.8433">
        <ele>1216</ele>
        <time>2020-02-29T14:42:06Z</time>
      </trkpt>
      <trkpt lat="42.85586" lon="1.84339">
        <ele>1220</ele>
        <time>2020-02-29T14:42:14Z</time>
      </trkpt>
      <trkpt lat="42.85581" lon="1.84349">
        <ele>1218</ele>
        <time>2020-02-29T14:42:20Z</time>
      </trkpt>
      <trkpt lat="42.85575" lon="1.84358">
        <ele>1210</ele>
        <time>2020-02-29T14:42:33Z</time>
      </trkpt>
      <trkpt lat="42.8557" lon="1.84369">
        <ele>1207</ele>
        <time>2020-02-29T14:42:43Z</time>
      </trkpt>
      <trkpt lat="42.85562" lon="1.84378">
        <ele>1206</ele>
        <time>2020-02-29T14:42:53Z</time>
      </trkpt>
      <trkpt lat="42.85555" lon="1.84387">
        <ele>1205</ele>
        <time>2020-02-29T14:43:02Z</time>
      </trkpt>
      <trkpt lat="42.8555" lon="1.84398">
        <ele>1206</ele>
        <time>2020-02-29T14:43:10Z</time>
      </trkpt>
      <trkpt lat="42.85545" lon="1.84411">
        <ele>1208</ele>
        <time>2020-02-29T14:43:17Z</time>
      </trkpt>
      <trkpt lat="42.85537" lon="1.84419">
        <ele>1207</ele>
        <time>2020-02-29T14:43:24Z</time>
      </trkpt>
      <trkpt lat="42.85531" lon="1.84429">
        <ele>1205</ele>
        <time>2020-02-29T14:43:31Z</time>
      </trkpt>
      <trkpt lat="42.85523" lon="1.84436">
        <ele>1205</ele>
        <time>2020-02-29T14:43:39Z</time>
      </trkpt>
      <trkpt lat="42.85517" lon="1.84446">
        <ele>1201</ele>
        <time>2020-02-29T14:43:48Z</time>
      </trkpt>
      <trkpt lat="42.85517" lon="1.84459">
        <ele>1198</ele>
        <time>2020-02-29T14:43:58Z</time>
      </trkpt>
      <trkpt lat="42.85511" lon="1.84472">
        <ele>1196</ele>
        <time>2020-02-29T14:44:33Z</time>
      </trkpt>
      <trkpt lat="42.85505" lon="1.84483">
        <ele>1195</ele>
        <time>2020-02-29T14:44:39Z</time>
      </trkpt>
      <trkpt lat="42.85497" lon="1.84486">
        <ele>1196</ele>
        <time>2020-02-29T14:44:48Z</time>
      </trkpt>
      <trkpt lat="42.85491" lon="1.84496">
        <ele>1199</ele>
        <time>2020-02-29T14:44:58Z</time>
      </trkpt>
      <trkpt lat="42.85486" lon="1.84507">
        <ele>1194</ele>
        <time>2020-02-29T14:46:53Z</time>
      </trkpt>
      <trkpt lat="42.85477" lon="1.84505">
        <ele>1194</ele>
        <time>2020-02-29T14:47:00Z</time>
      </trkpt>
      <trkpt lat="42.85467" lon="1.84507">
        <ele>1195</ele>
        <time>2020-02-29T14:47:11Z</time>
      </trkpt>
      <trkpt lat="42.85458" lon="1.84513">
        <ele>1193</ele>
        <time>2020-02-29T14:47:32Z</time>
      </trkpt>
      <trkpt lat="42.85449" lon="1.84517">
        <ele>1194</ele>
        <time>2020-02-29T14:47:37Z</time>
      </trkpt>
      <trkpt lat="42.8544" lon="1.84523">
        <ele>1190</ele>
        <time>2020-02-29T14:47:43Z</time>
      </trkpt>
      <trkpt lat="42.85433" lon="1.84534">
        <ele>1194</ele>
        <time>2020-02-29T14:47:49Z</time>
      </trkpt>
      <trkpt lat="42.8543" lon="1.84547">
        <ele>1195</ele>
        <time>2020-02-29T14:47:56Z</time>
      </trkpt>
      <trkpt lat="42.8543" lon="1.8456">
        <ele>1198</ele>
        <time>2020-02-29T14:48:02Z</time>
      </trkpt>
      <trkpt lat="42.85433" lon="1.84572">
        <ele>1198</ele>
        <time>2020-02-29T14:48:09Z</time>
      </trkpt>
      <trkpt lat="42.85431" lon="1.84586">
        <ele>1198</ele>
        <time>2020-02-29T14:48:19Z</time>
      </trkpt>
      <trkpt lat="42.85427" lon="1.84597">
        <ele>1195</ele>
        <time>2020-02-29T14:48:26Z</time>
      </trkpt>
      <trkpt lat="42.85427" lon="1.8461">
        <ele>1195</ele>
        <time>2020-02-29T14:48:33Z</time>
      </trkpt>
      <trkpt lat="42.85429" lon="1.84623">
        <ele>1194</ele>
        <time>2020-02-29T14:48:41Z</time>
      </trkpt>
      <trkpt lat="42.8543" lon="1.84636">
        <ele>1189</ele>
        <time>2020-02-29T14:48:51Z</time>
      </trkpt>
      <trkpt lat="42.85432" lon="1.8465">
        <ele>1191</ele>
        <time>2020-02-29T14:48:59Z</time>
      </trkpt>
      <trkpt lat="42.85435" lon="1.84662">
        <ele>1190</ele>
        <time>2020-02-29T14:49:08Z</time>
      </trkpt>
      <trkpt lat="42.85436" lon="1.84677">
        <ele>1187</ele>
        <time>2020-02-29T14:49:17Z</time>
      </trkpt>
      <trkpt lat="42.85437" lon="1.84691">
        <ele>1183</ele>
        <time>2020-02-29T14:49:24Z</time>
      </trkpt>
      <trkpt lat="42.85436" lon="1.84704">
        <ele>1182</ele>
        <time>2020-02-29T14:49:32Z</time>
      </trkpt>
      <trkpt lat="42.85435" lon="1.84716">
        <ele>1181</ele>
        <time>2020-02-29T14:49:39Z</time>
      </trkpt>
      <trkpt lat="42.85433" lon="1.8473">
        <ele>1180</ele>
        <time>2020-02-29T14:49:47Z</time>
      </trkpt>
      <trkpt lat="42.85428" lon="1.84741">
        <ele>1179</ele>
        <time>2020-02-29T14:49:54Z</time>
      </trkpt>
      <trkpt lat="42.85424" lon="1.84754">
        <ele>1179</ele>
        <time>2020-02-29T14:50:03Z</time>
      </trkpt>
      <trkpt lat="42.8542" lon="1.84767">
        <ele>1180</ele>
        <time>2020-02-29T14:50:11Z</time>
      </trkpt>
      <trkpt lat="42.85416" lon="1.84779">
        <ele>1179</ele>
        <time>2020-02-29T14:50:19Z</time>
      </trkpt>
      <trkpt lat="42.8541" lon="1.84789">
        <ele>1182</ele>
        <time>2020-02-29T14:50:30Z</time>
      </trkpt>
      <trkpt lat="42.85404" lon="1.84801">
        <ele>1183</ele>
        <time>2020-02-29T14:50:39Z</time>
      </trkpt>
      <trkpt lat="42.85402" lon="1.84813">
        <ele>1181</ele>
        <time>2020-02-29T14:50:48Z</time>
      </trkpt>
      <trkpt lat="42.85402" lon="1.84825">
        <ele>1184</ele>
        <time>2020-02-29T14:51:12Z</time>
      </trkpt>
      <trkpt lat="42.85398" lon="1.84837">
        <ele>1182</ele>
        <time>2020-02-29T14:51:21Z</time>
      </trkpt>
      <trkpt lat="42.85393" lon="1.84848">
        <ele>1183</ele>
        <time>2020-02-29T14:51:30Z</time>
      </trkpt>
      <trkpt lat="42.85387" lon="1.84858">
        <ele>1178</ele>
        <time>2020-02-29T14:51:37Z</time>
      </trkpt>
      <trkpt lat="42.85383" lon="1.8487">
        <ele>1179</ele>
        <time>2020-02-29T14:51:44Z</time>
      </trkpt>
      <trkpt lat="42.85378" lon="1.84882">
        <ele>1181</ele>
        <time>2020-02-29T14:51:52Z</time>
      </trkpt>
      <trkpt lat="42.85372" lon="1.84893">
        <ele>1181</ele>
        <time>2020-02-29T14:51:59Z</time>
      </trkpt>
      <trkpt lat="42.85367" lon="1.84905">
        <ele>1181</ele>
        <time>2020-02-29T14:52:08Z</time>
      </trkpt>
      <trkpt lat="42.85364" lon="1.84917">
        <ele>1180</ele>
        <time>2020-02-29T14:52:18Z</time>
      </trkpt>
      <trkpt lat="42.85356" lon="1.84923">
        <ele>1178</ele>
        <time>2020-02-29T14:52:23Z</time>
      </trkpt>
      <trkpt lat="42.85353" lon="1.84938">
        <ele>1178</ele>
        <time>2020-02-29T14:52:36Z</time>
      </trkpt>
      <trkpt lat="42.85348" lon="1.84947">
        <ele>1176</ele>
        <time>2020-02-29T14:52:41Z</time>
      </trkpt>
      <trkpt lat="42.85346" lon="1.8496">
        <ele>1174</ele>
        <time>2020-02-29T14:52:49Z</time>
      </trkpt>
      <trkpt lat="42.85338" lon="1.84972">
        <ele>1174</ele>
        <time>2020-02-29T14:52:53Z</time>
      </trkpt>
      <trkpt lat="42.85333" lon="1.84981">
        <ele>1175</ele>
        <time>2020-02-29T14:53:04Z</time>
      </trkpt>
      <trkpt lat="42.85328" lon="1.84993">
        <ele>1175</ele>
        <time>2020-02-29T14:53:13Z</time>
      </trkpt>
      <trkpt lat="42.85321" lon="1.85005">
        <ele>1172</ele>
        <time>2020-02-29T14:53:19Z</time>
      </trkpt>
      <trkpt lat="42.85313" lon="1.85012">
        <ele>1170</ele>
        <time>2020-02-29T14:53:27Z</time>
      </trkpt>
      <trkpt lat="42.85307" lon="1.85023">
        <ele>1169</ele>
        <time>2020-02-29T14:53:34Z</time>
      </trkpt>
      <trkpt lat="42.85301" lon="1.85033">
        <ele>1167</ele>
        <time>2020-02-29T14:53:42Z</time>
      </trkpt>
      <trkpt lat="42.85293" lon="1.8504">
        <ele>1165</ele>
        <time>2020-02-29T14:53:49Z</time>
      </trkpt>
      <trkpt lat="42.85288" lon="1.85052">
        <ele>1164</ele>
        <time>2020-02-29T14:53:56Z</time>
      </trkpt>
      <trkpt lat="42.8528" lon="1.8506">
        <ele>1164</ele>
        <time>2020-02-29T14:54:03Z</time>
      </trkpt>
      <trkpt lat="42.85277" lon="1.85072">
        <ele>1163</ele>
        <time>2020-02-29T14:54:10Z</time>
      </trkpt>
      <trkpt lat="42.85274" lon="1.85084">
        <ele>1162</ele>
        <time>2020-02-29T14:54:16Z</time>
      </trkpt>
      <trkpt lat="42.85269" lon="1.85096">
        <ele>1158</ele>
        <time>2020-02-29T14:54:23Z</time>
      </trkpt>
      <trkpt lat="42.85265" lon="1.85108">
        <ele>1158</ele>
        <time>2020-02-29T14:54:29Z</time>
      </trkpt>
      <trkpt lat="42.85257" lon="1.85116">
        <ele>1157</ele>
        <time>2020-02-29T14:54:36Z</time>
      </trkpt>
      <trkpt lat="42.8525" lon="1.85125">
        <ele>1156</ele>
        <time>2020-02-29T14:54:43Z</time>
      </trkpt>
      <trkpt lat="42.85245" lon="1.85136">
        <ele>1157</ele>
        <time>2020-02-29T14:54:51Z</time>
      </trkpt>
      <trkpt lat="42.85237" lon="1.85143">
        <ele>1157</ele>
        <time>2020-02-29T14:54:58Z</time>
      </trkpt>
      <trkpt lat="42.8523" lon="1.85153">
        <ele>1153</ele>
        <time>2020-02-29T14:55:05Z</time>
      </trkpt>
      <trkpt lat="42.85221" lon="1.8516">
        <ele>1151</ele>
        <time>2020-02-29T14:55:12Z</time>
      </trkpt>
      <trkpt lat="42.85217" lon="1.8517">
        <ele>1149</ele>
        <time>2020-02-29T14:55:19Z</time>
      </trkpt>
      <trkpt lat="42.85209" lon="1.85178">
        <ele>1150</ele>
        <time>2020-02-29T14:55:26Z</time>
      </trkpt>
      <trkpt lat="42.85204" lon="1.85189">
        <ele>1151</ele>
        <time>2020-02-29T14:55:34Z</time>
      </trkpt>
      <trkpt lat="42.85197" lon="1.85197">
        <ele>1152</ele>
        <time>2020-02-29T14:55:41Z</time>
      </trkpt>
      <trkpt lat="42.85189" lon="1.85206">
        <ele>1149</ele>
        <time>2020-02-29T14:55:50Z</time>
      </trkpt>
      <trkpt lat="42.85181" lon="1.85213">
        <ele>1150</ele>
        <time>2020-02-29T14:55:57Z</time>
      </trkpt>
      <trkpt lat="42.85174" lon="1.85221">
        <ele>1149</ele>
        <time>2020-02-29T14:56:04Z</time>
      </trkpt>
      <trkpt lat="42.85165" lon="1.85228">
        <ele>1148</ele>
        <time>2020-02-29T14:56:11Z</time>
      </trkpt>
      <trkpt lat="42.85159" lon="1.85237">
        <ele>1147</ele>
        <time>2020-02-29T14:56:17Z</time>
      </trkpt>
      <trkpt lat="42.85151" lon="1.85244">
        <ele>1146</ele>
        <time>2020-02-29T14:56:24Z</time>
      </trkpt>
      <trkpt lat="42.85142" lon="1.85252">
        <ele>1146</ele>
        <time>2020-02-29T14:56:33Z</time>
      </trkpt>
      <trkpt lat="42.85139" lon="1.85264">
        <ele>1147</ele>
        <time>2020-02-29T14:56:38Z</time>
      </trkpt>
      <trkpt lat="42.85131" lon="1.85271">
        <ele>1145</ele>
        <time>2020-02-29T14:56:46Z</time>
      </trkpt>
      <trkpt lat="42.85122" lon="1.85278">
        <ele>1145</ele>
        <time>2020-02-29T14:56:53Z</time>
      </trkpt>
      <trkpt lat="42.85118" lon="1.85289">
        <ele>1145</ele>
        <time>2020-02-29T14:57:00Z</time>
      </trkpt>
      <trkpt lat="42.85113" lon="1.85303">
        <ele>1146</ele>
        <time>2020-02-29T14:57:08Z</time>
      </trkpt>
      <trkpt lat="42.85115" lon="1.85317">
        <ele>1147</ele>
        <time>2020-02-29T14:57:15Z</time>
      </trkpt>
      <trkpt lat="42.85125" lon="1.85312">
        <ele>1141</ele>
        <time>2020-02-29T14:59:48Z</time>
      </trkpt>
      <trkpt lat="42.8513" lon="1.85302">
        <ele>1141</ele>
        <time>2020-02-29T14:59:57Z</time>
      </trkpt>
      <trkpt lat="42.85136" lon="1.85292">
        <ele>1141</ele>
        <time>2020-02-29T15:00:02Z</time>
      </trkpt>
      <trkpt lat="42.85145" lon="1.85285">
        <ele>1137</ele>
        <time>2020-02-29T15:00:11Z</time>
      </trkpt>
      <trkpt lat="42.85155" lon="1.85274">
        <ele>1133</ele>
        <time>2020-02-29T15:00:18Z</time>
      </trkpt>
      <trkpt lat="42.85164" lon="1.8527">
        <ele>1132</ele>
        <time>2020-02-29T15:00:24Z</time>
      </trkpt>
      <trkpt lat="42.85173" lon="1.85267">
        <ele>1134</ele>
        <time>2020-02-29T15:00:45Z</time>
      </trkpt>
      <trkpt lat="42.85182" lon="1.85259">
        <ele>1129</ele>
        <time>2020-02-29T15:00:50Z</time>
      </trkpt>
      <trkpt lat="42.85191" lon="1.85253">
        <ele>1126</ele>
        <time>2020-02-29T15:00:58Z</time>
      </trkpt>
      <trkpt lat="42.852" lon="1.85253">
        <ele>1128</ele>
        <time>2020-02-29T15:01:06Z</time>
      </trkpt>
      <trkpt lat="42.85209" lon="1.85248">
        <ele>1121</ele>
        <time>2020-02-29T15:01:15Z</time>
      </trkpt>
      <trkpt lat="42.85216" lon="1.85239">
        <ele>1120</ele>
        <time>2020-02-29T15:01:20Z</time>
      </trkpt>
      <trkpt lat="42.85225" lon="1.85239">
        <ele>1113</ele>
        <time>2020-02-29T15:01:30Z</time>
      </trkpt>
      <trkpt lat="42.85233" lon="1.85235">
        <ele>1112</ele>
        <time>2020-02-29T15:01:39Z</time>
      </trkpt>
      <trkpt lat="42.85243" lon="1.85231">
        <ele>1109</ele>
        <time>2020-02-29T15:01:51Z</time>
      </trkpt>
      <trkpt lat="42.85253" lon="1.85228">
        <ele>1111</ele>
        <time>2020-02-29T15:02:06Z</time>
      </trkpt>
      <trkpt lat="42.85263" lon="1.85222">
        <ele>1109</ele>
        <time>2020-02-29T15:02:13Z</time>
      </trkpt>
      <trkpt lat="42.8527" lon="1.85212">
        <ele>1107</ele>
        <time>2020-02-29T15:02:19Z</time>
      </trkpt>
      <trkpt lat="42.85278" lon="1.85207">
        <ele>1109</ele>
        <time>2020-02-29T15:02:25Z</time>
      </trkpt>
      <trkpt lat="42.85288" lon="1.85207">
        <ele>1111</ele>
        <time>2020-02-29T15:02:33Z</time>
      </trkpt>
      <trkpt lat="42.85297" lon="1.852">
        <ele>1111</ele>
        <time>2020-02-29T15:02:41Z</time>
      </trkpt>
      <trkpt lat="42.85305" lon="1.85193">
        <ele>1109</ele>
        <time>2020-02-29T15:02:47Z</time>
      </trkpt>
      <trkpt lat="42.85313" lon="1.85185">
        <ele>1114</ele>
        <time>2020-02-29T15:02:54Z</time>
      </trkpt>
      <trkpt lat="42.85323" lon="1.8518">
        <ele>1106</ele>
        <time>2020-02-29T15:03:06Z</time>
      </trkpt>
      <trkpt lat="42.8533" lon="1.85168">
        <ele>1100</ele>
        <time>2020-02-29T15:03:20Z</time>
      </trkpt>
      <trkpt lat="42.85338" lon="1.85161">
        <ele>1101</ele>
        <time>2020-02-29T15:03:28Z</time>
      </trkpt>
      <trkpt lat="42.85347" lon="1.85154">
        <ele>1105</ele>
        <time>2020-02-29T15:03:41Z</time>
      </trkpt>
      <trkpt lat="42.85355" lon="1.85146">
        <ele>1099</ele>
        <time>2020-02-29T15:04:13Z</time>
      </trkpt>
      <trkpt lat="42.85363" lon="1.85139">
        <ele>1099</ele>
        <time>2020-02-29T15:04:21Z</time>
      </trkpt>
      <trkpt lat="42.85371" lon="1.85132">
        <ele>1099</ele>
        <time>2020-02-29T15:04:26Z</time>
      </trkpt>
      <trkpt lat="42.85379" lon="1.85126">
        <ele>1091</ele>
        <time>2020-02-29T15:04:40Z</time>
      </trkpt>
      <trkpt lat="42.85387" lon="1.85118">
        <ele>1091</ele>
        <time>2020-02-29T15:04:49Z</time>
      </trkpt>
      <trkpt lat="42.85398" lon="1.85112">
        <ele>1091</ele>
        <time>2020-02-29T15:04:58Z</time>
      </trkpt>
      <trkpt lat="42.85405" lon="1.85104">
        <ele>1092</ele>
        <time>2020-02-29T15:05:04Z</time>
      </trkpt>
      <trkpt lat="42.85413" lon="1.85096">
        <ele>1094</ele>
        <time>2020-02-29T15:05:11Z</time>
      </trkpt>
      <trkpt lat="42.85421" lon="1.85088">
        <ele>1093</ele>
        <time>2020-02-29T15:05:22Z</time>
      </trkpt>
      <trkpt lat="42.8543" lon="1.85082">
        <ele>1092</ele>
        <time>2020-02-29T15:05:29Z</time>
      </trkpt>
      <trkpt lat="42.85436" lon="1.85072">
        <ele>1085</ele>
        <time>2020-02-29T15:05:38Z</time>
      </trkpt>
      <trkpt lat="42.85444" lon="1.85066">
        <ele>1081</ele>
        <time>2020-02-29T15:05:47Z</time>
      </trkpt>
      <trkpt lat="42.85451" lon="1.85057">
        <ele>1076</ele>
        <time>2020-02-29T15:05:54Z</time>
      </trkpt>
      <trkpt lat="42.85457" lon="1.85047">
        <ele>1075</ele>
        <time>2020-02-29T15:06:01Z</time>
      </trkpt>
      <trkpt lat="42.85465" lon="1.8504">
        <ele>1075</ele>
        <time>2020-02-29T15:06:07Z</time>
      </trkpt>
      <trkpt lat="42.85473" lon="1.85028">
        <ele>1074</ele>
        <time>2020-02-29T15:06:22Z</time>
      </trkpt>
      <trkpt lat="42.85478" lon="1.85016">
        <ele>1074</ele>
        <time>2020-02-29T15:06:28Z</time>
      </trkpt>
      <trkpt lat="42.85486" lon="1.85007">
        <ele>1074</ele>
        <time>2020-02-29T15:06:36Z</time>
      </trkpt>
      <trkpt lat="42.85495" lon="1.85">
        <ele>1071</ele>
        <time>2020-02-29T15:06:42Z</time>
      </trkpt>
      <trkpt lat="42.855" lon="1.8499">
        <ele>1069</ele>
        <time>2020-02-29T15:06:50Z</time>
      </trkpt>
      <trkpt lat="42.85507" lon="1.84981">
        <ele>1069</ele>
        <time>2020-02-29T15:06:57Z</time>
      </trkpt>
      <trkpt lat="42.85514" lon="1.84972">
        <ele>1065</ele>
        <time>2020-02-29T15:07:04Z</time>
      </trkpt>
      <trkpt lat="42.85519" lon="1.84961">
        <ele>1065</ele>
        <time>2020-02-29T15:07:12Z</time>
      </trkpt>
      <trkpt lat="42.85526" lon="1.84953">
        <ele>1068</ele>
        <time>2020-02-29T15:07:20Z</time>
      </trkpt>
      <trkpt lat="42.85532" lon="1.84942">
        <ele>1069</ele>
        <time>2020-02-29T15:07:31Z</time>
      </trkpt>
      <trkpt lat="42.85537" lon="1.84931">
        <ele>1065</ele>
        <time>2020-02-29T15:07:39Z</time>
      </trkpt>
      <trkpt lat="42.85541" lon="1.8492">
        <ele>1062</ele>
        <time>2020-02-29T15:07:48Z</time>
      </trkpt>
      <trkpt lat="42.85548" lon="1.84911">
        <ele>1061</ele>
        <time>2020-02-29T15:07:56Z</time>
      </trkpt>
      <trkpt lat="42.85555" lon="1.84903">
        <ele>1060</ele>
        <time>2020-02-29T15:08:06Z</time>
      </trkpt>
      <trkpt lat="42.8556" lon="1.84892">
        <ele>1057</ele>
        <time>2020-02-29T15:08:17Z</time>
      </trkpt>
      <trkpt lat="42.85566" lon="1.84881">
        <ele>1051</ele>
        <time>2020-02-29T15:08:24Z</time>
      </trkpt>
      <trkpt lat="42.85572" lon="1.8487">
        <ele>1051</ele>
        <time>2020-02-29T15:08:31Z</time>
      </trkpt>
      <trkpt lat="42.85581" lon="1.84862">
        <ele>1053</ele>
        <time>2020-02-29T15:08:38Z</time>
      </trkpt>
      <trkpt lat="42.85588" lon="1.84853">
        <ele>1048</ele>
        <time>2020-02-29T15:09:00Z</time>
      </trkpt>
      <trkpt lat="42.85576" lon="1.84856">
        <ele>1050</ele>
        <time>2020-02-29T15:09:12Z</time>
      </trkpt>
      <trkpt lat="42.85589" lon="1.84847">
        <ele>1052</ele>
        <time>2020-02-29T15:09:35Z</time>
      </trkpt>
      <trkpt lat="42.85599" lon="1.84837">
        <ele>1053</ele>
        <time>2020-02-29T15:10:25Z</time>
      </trkpt>
      <trkpt lat="42.85604" lon="1.84826">
        <ele>1055</ele>
        <time>2020-02-29T15:10:34Z</time>
      </trkpt>
      <trkpt lat="42.85611" lon="1.84819">
        <ele>1053</ele>
        <time>2020-02-29T15:10:38Z</time>
      </trkpt>
      <trkpt lat="42.85617" lon="1.84809">
        <ele>1055</ele>
        <time>2020-02-29T15:10:44Z</time>
      </trkpt>
      <trkpt lat="42.85623" lon="1.84798">
        <ele>1055</ele>
        <time>2020-02-29T15:10:54Z</time>
      </trkpt>
      <trkpt lat="42.8563" lon="1.84791">
        <ele>1055</ele>
        <time>2020-02-29T15:10:59Z</time>
      </trkpt>
      <trkpt lat="42.85636" lon="1.84781">
        <ele>1056</ele>
        <time>2020-02-29T15:11:05Z</time>
      </trkpt>
      <trkpt lat="42.85635" lon="1.84768">
        <ele>1056</ele>
        <time>2020-02-29T15:11:15Z</time>
      </trkpt>
      <trkpt lat="42.85638" lon="1.84756">
        <ele>1052</ele>
        <time>2020-02-29T15:11:22Z</time>
      </trkpt>
      <trkpt lat="42.85643" lon="1.84745">
        <ele>1059</ele>
        <time>2020-02-29T15:11:34Z</time>
      </trkpt>
      <trkpt lat="42.85651" lon="1.84738">
        <ele>1064</ele>
        <time>2020-02-29T15:11:40Z</time>
      </trkpt>
      <trkpt lat="42.85643" lon="1.84731">
        <ele>1057</ele>
        <time>2020-02-29T15:11:44Z</time>
      </trkpt>
      <trkpt lat="42.85653" lon="1.84731">
        <ele>1052</ele>
        <time>2020-02-29T15:12:12Z</time>
      </trkpt>
      <trkpt lat="42.85662" lon="1.84731">
        <ele>1051</ele>
        <time>2020-02-29T15:12:20Z</time>
      </trkpt>
      <trkpt lat="42.85672" lon="1.84731">
        <ele>1051</ele>
        <time>2020-02-29T15:12:33Z</time>
      </trkpt>
      <trkpt lat="42.85682" lon="1.84731">
        <ele>1051</ele>
        <time>2020-02-29T15:12:39Z</time>
      </trkpt>
      <trkpt lat="42.85694" lon="1.8472">
        <ele>1047</ele>
        <time>2020-02-29T15:12:42Z</time>
      </trkpt>
      <trkpt lat="42.857" lon="1.8471">
        <ele>1043</ele>
        <time>2020-02-29T15:12:51Z</time>
      </trkpt>
      <trkpt lat="42.85707" lon="1.84703">
        <ele>1040</ele>
        <time>2020-02-29T15:12:59Z</time>
      </trkpt>
      <trkpt lat="42.85714" lon="1.84694">
        <ele>1038</ele>
        <time>2020-02-29T15:13:14Z</time>
      </trkpt>
      <trkpt lat="42.85722" lon="1.84689">
        <ele>1039</ele>
        <time>2020-02-29T15:13:23Z</time>
      </trkpt>
      <trkpt lat="42.85729" lon="1.84681">
        <ele>1044</ele>
        <time>2020-02-29T15:13:38Z</time>
      </trkpt>
      <trkpt lat="42.85736" lon="1.84673">
        <ele>1048</ele>
        <time>2020-02-29T15:13:49Z</time>
      </trkpt>
      <trkpt lat="42.85745" lon="1.84665">
        <ele>1044</ele>
        <time>2020-02-29T15:14:10Z</time>
      </trkpt>
      <trkpt lat="42.85756" lon="1.84655">
        <ele>1048</ele>
        <time>2020-02-29T15:14:36Z</time>
      </trkpt>
      <trkpt lat="42.85764" lon="1.84649">
        <ele>1049</ele>
        <time>2020-02-29T15:16:25Z</time>
      </trkpt>
      <trkpt lat="42.85771" lon="1.84639">
        <ele>1045</ele>
        <time>2020-02-29T15:16:32Z</time>
      </trkpt>
      <trkpt lat="42.85779" lon="1.84631">
        <ele>1042</ele>
        <time>2020-02-29T15:16:37Z</time>
      </trkpt>
      <trkpt lat="42.85787" lon="1.84624">
        <ele>1041</ele>
        <time>2020-02-29T15:16:41Z</time>
      </trkpt>
      <trkpt lat="42.85795" lon="1.84617">
        <ele>1045</ele>
        <time>2020-02-29T15:17:32Z</time>
      </trkpt>
      <trkpt lat="42.85804" lon="1.8461">
        <ele>1044</ele>
        <time>2020-02-29T15:17:37Z</time>
      </trkpt>
      <trkpt lat="42.85813" lon="1.84602">
        <ele>1047</ele>
        <time>2020-02-29T15:18:16Z</time>
      </trkpt>
      <trkpt lat="42.8582" lon="1.84591">
        <ele>1047</ele>
        <time>2020-02-29T15:18:18Z</time>
      </trkpt>
      <trkpt lat="42.8583" lon="1.84589">
        <ele>1051</ele>
        <time>2020-02-29T15:18:30Z</time>
      </trkpt>
      <trkpt lat="42.85839" lon="1.84586">
        <ele>1052</ele>
        <time>2020-02-29T15:18:37Z</time>
      </trkpt>
      <trkpt lat="42.85847" lon="1.8458">
        <ele>1063</ele>
        <time>2020-02-29T15:19:07Z</time>
      </trkpt>
      <trkpt lat="42.85857" lon="1.84573">
        <ele>1058</ele>
        <time>2020-02-29T15:19:15Z</time>
      </trkpt>
      <trkpt lat="42.85865" lon="1.84566">
        <ele>1058</ele>
        <time>2020-02-29T15:19:24Z</time>
      </trkpt>
      <trkpt lat="42.85875" lon="1.84561">
        <ele>1063</ele>
        <time>2020-02-29T15:19:34Z</time>
      </trkpt>
      <trkpt lat="42.85883" lon="1.84568">
        <ele>1062</ele>
        <time>2020-02-29T15:19:42Z</time>
      </trkpt>
      <trkpt lat="42.85882" lon="1.84581">
        <ele>1062</ele>
        <time>2020-02-29T15:19:49Z</time>
      </trkpt>
      <trkpt lat="42.85893" lon="1.84574">
        <ele>1060</ele>
        <time>2020-02-29T15:19:54Z</time>
      </trkpt>
      <trkpt lat="42.85903" lon="1.84573">
        <ele>1060</ele>
        <time>2020-02-29T15:19:57Z</time>
      </trkpt>
      <trkpt lat="42.85897" lon="1.84583">
        <ele>1059</ele>
        <time>2020-02-29T15:20:00Z</time>
      </trkpt>
      <trkpt lat="42.85908" lon="1.8458">
        <ele>1059</ele>
        <time>2020-02-29T15:20:03Z</time>
      </trkpt>
      <trkpt lat="42.85921" lon="1.84577">
        <ele>1056</ele>
        <time>2020-02-29T15:20:09Z</time>
      </trkpt>
      <trkpt lat="42.85912" lon="1.84587">
        <ele>1055</ele>
        <time>2020-02-29T15:20:11Z</time>
      </trkpt>
      <trkpt lat="42.85921" lon="1.84593">
        <ele>1055</ele>
        <time>2020-02-29T15:20:22Z</time>
      </trkpt>
      <trkpt lat="42.85932" lon="1.84599">
        <ele>1058</ele>
        <time>2020-02-29T15:20:32Z</time>
      </trkpt>
      <trkpt lat="42.85942" lon="1.84603">
        <ele>1059</ele>
        <time>2020-02-29T15:20:37Z</time>
      </trkpt>
      <trkpt lat="42.85952" lon="1.84606">
        <ele>1058</ele>
        <time>2020-02-29T15:20:46Z</time>
      </trkpt>
      <trkpt lat="42.85962" lon="1.84603">
        <ele>1059</ele>
        <time>2020-02-29T15:20:51Z</time>
      </trkpt>
      <trkpt lat="42.85954" lon="1.84618">
        <ele>1060</ele>
        <time>2020-02-29T15:20:55Z</time>
      </trkpt>
      <trkpt lat="42.85964" lon="1.8462">
        <ele>1062</ele>
        <time>2020-02-29T15:21:00Z</time>
      </trkpt>
      <trkpt lat="42.85972" lon="1.84625">
        <ele>1053</ele>
        <time>2020-02-29T15:21:13Z</time>
      </trkpt>
      <trkpt lat="42.85981" lon="1.84629">
        <ele>1052</ele>
        <time>2020-02-29T15:21:18Z</time>
      </trkpt>
      <trkpt lat="42.85976" lon="1.84645">
        <ele>1053</ele>
        <time>2020-02-29T15:21:24Z</time>
      </trkpt>
      <trkpt lat="42.85975" lon="1.84657">
        <ele>1048</ele>
        <time>2020-02-29T15:21:30Z</time>
      </trkpt>
      <trkpt lat="42.85989" lon="1.84654">
        <ele>1048</ele>
        <time>2020-02-29T15:21:35Z</time>
      </trkpt>
      <trkpt lat="42.85982" lon="1.84664">
        <ele>1049</ele>
        <time>2020-02-29T15:21:37Z</time>
      </trkpt>
      <trkpt lat="42.85988" lon="1.84673">
        <ele>1049</ele>
        <time>2020-02-29T15:21:43Z</time>
      </trkpt>
      <trkpt lat="42.85998" lon="1.84676">
        <ele>1051</ele>
        <time>2020-02-29T15:21:50Z</time>
      </trkpt>
      <trkpt lat="42.85997" lon="1.8469">
        <ele>1050</ele>
        <time>2020-02-29T15:21:58Z</time>
      </trkpt>
      <trkpt lat="42.86006" lon="1.84695">
        <ele>1051</ele>
        <time>2020-02-29T15:22:06Z</time>
      </trkpt>
      <trkpt lat="42.86003" lon="1.84708">
        <ele>1053</ele>
        <time>2020-02-29T15:22:09Z</time>
      </trkpt>
      <trkpt lat="42.86008" lon="1.84719">
        <ele>1055</ele>
        <time>2020-02-29T15:22:17Z</time>
      </trkpt>
      <trkpt lat="42.8601" lon="1.84732">
        <ele>1051</ele>
        <time>2020-02-29T15:22:26Z</time>
      </trkpt>
      <trkpt lat="42.86019" lon="1.84738">
        <ele>1052</ele>
        <time>2020-02-29T15:22:33Z</time>
      </trkpt>
      <trkpt lat="42.86023" lon="1.84749">
        <ele>1051</ele>
        <time>2020-02-29T15:22:45Z</time>
      </trkpt>
      <trkpt lat="42.86028" lon="1.8476">
        <ele>1052</ele>
        <time>2020-02-29T15:22:49Z</time>
      </trkpt>
      <trkpt lat="42.86036" lon="1.84768">
        <ele>1049</ele>
        <time>2020-02-29T15:22:57Z</time>
      </trkpt>
      <trkpt lat="42.86033" lon="1.84782">
        <ele>1051</ele>
        <time>2020-02-29T15:23:01Z</time>
      </trkpt>
      <trkpt lat="42.86041" lon="1.84788">
        <ele>1053</ele>
        <time>2020-02-29T15:23:10Z</time>
      </trkpt>
      <trkpt lat="42.86047" lon="1.84797">
        <ele>1052</ele>
        <time>2020-02-29T15:23:20Z</time>
      </trkpt>
      <trkpt lat="42.86054" lon="1.84805">
        <ele>1053</ele>
        <time>2020-02-29T15:23:29Z</time>
      </trkpt>
      <trkpt lat="42.86061" lon="1.84796">
        <ele>1056</ele>
        <time>2020-02-29T15:23:33Z</time>
      </trkpt>
      <trkpt lat="42.86067" lon="1.84805">
        <ele>1058</ele>
        <time>2020-02-29T15:23:45Z</time>
      </trkpt>
      <trkpt lat="42.86077" lon="1.84812">
        <ele>1055</ele>
        <time>2020-02-29T15:23:55Z</time>
      </trkpt>
      <trkpt lat="42.86087" lon="1.84811">
        <ele>1060</ele>
        <time>2020-02-29T15:24:01Z</time>
      </trkpt>
      <trkpt lat="42.86097" lon="1.84811">
        <ele>1060</ele>
        <time>2020-02-29T15:24:04Z</time>
      </trkpt>
      <trkpt lat="42.86094" lon="1.84823">
        <ele>1059</ele>
        <time>2020-02-29T15:24:09Z</time>
      </trkpt>
      <trkpt lat="42.86099" lon="1.84835">
        <ele>1057</ele>
        <time>2020-02-29T15:24:17Z</time>
      </trkpt>
      <trkpt lat="42.86108" lon="1.84843">
        <ele>1055</ele>
        <time>2020-02-29T15:24:26Z</time>
      </trkpt>
      <trkpt lat="42.86118" lon="1.84843">
        <ele>1057</ele>
        <time>2020-02-29T15:24:33Z</time>
      </trkpt>
      <trkpt lat="42.86126" lon="1.84849">
        <ele>1054</ele>
        <time>2020-02-29T15:24:41Z</time>
      </trkpt>
      <trkpt lat="42.86127" lon="1.84865">
        <ele>1057</ele>
        <time>2020-02-29T15:24:50Z</time>
      </trkpt>
      <trkpt lat="42.86136" lon="1.84868">
        <ele>1059</ele>
        <time>2020-02-29T15:24:56Z</time>
      </trkpt>
      <trkpt lat="42.86145" lon="1.84878">
        <ele>1059</ele>
        <time>2020-02-29T15:25:06Z</time>
      </trkpt>
      <trkpt lat="42.86154" lon="1.84875">
        <ele>1063</ele>
        <time>2020-02-29T15:25:23Z</time>
      </trkpt>
      <trkpt lat="42.86156" lon="1.84888">
        <ele>1059</ele>
        <time>2020-02-29T15:25:31Z</time>
      </trkpt>
      <trkpt lat="42.86164" lon="1.84895">
        <ele>1060</ele>
        <time>2020-02-29T15:25:42Z</time>
      </trkpt>
      <trkpt lat="42.86164" lon="1.84907">
        <ele>1059</ele>
        <time>2020-02-29T15:25:50Z</time>
      </trkpt>
      <trkpt lat="42.86173" lon="1.84903">
        <ele>1062</ele>
        <time>2020-02-29T15:26:21Z</time>
      </trkpt>
      <trkpt lat="42.86179" lon="1.84893">
        <ele>1065</ele>
        <time>2020-02-29T15:26:26Z</time>
      </trkpt>
      <trkpt lat="42.86186" lon="1.84885">
        <ele>1064</ele>
        <time>2020-02-29T15:26:32Z</time>
      </trkpt>
      <trkpt lat="42.86193" lon="1.84876">
        <ele>1063</ele>
        <time>2020-02-29T15:26:43Z</time>
      </trkpt>
      <trkpt lat="42.86201" lon="1.84872">
        <ele>1062</ele>
        <time>2020-02-29T15:26:50Z</time>
      </trkpt>
      <trkpt lat="42.86208" lon="1.84863">
        <ele>1058</ele>
        <time>2020-02-29T15:26:54Z</time>
      </trkpt>
      <trkpt lat="42.86213" lon="1.84852">
        <ele>1054</ele>
        <time>2020-02-29T15:27:03Z</time>
      </trkpt>
      <trkpt lat="42.86221" lon="1.84842">
        <ele>1054</ele>
        <time>2020-02-29T15:27:13Z</time>
      </trkpt>
      <trkpt lat="42.86228" lon="1.84833">
        <ele>1058</ele>
        <time>2020-02-29T15:27:21Z</time>
      </trkpt>
      <trkpt lat="42.86235" lon="1.84825">
        <ele>1056</ele>
        <time>2020-02-29T15:27:27Z</time>
      </trkpt>
      <trkpt lat="42.8624" lon="1.84815">
        <ele>1053</ele>
        <time>2020-02-29T15:27:33Z</time>
      </trkpt>
      <trkpt lat="42.86241" lon="1.84801">
        <ele>1049</ele>
        <time>2020-02-29T15:27:41Z</time>
      </trkpt>
      <trkpt lat="42.86249" lon="1.84795">
        <ele>1048</ele>
        <time>2020-02-29T15:27:48Z</time>
      </trkpt>
      <trkpt lat="42.86253" lon="1.84784">
        <ele>1051</ele>
        <time>2020-02-29T15:27:56Z</time>
      </trkpt>
      <trkpt lat="42.86259" lon="1.84772">
        <ele>1055</ele>
        <time>2020-02-29T15:28:04Z</time>
      </trkpt>
      <trkpt lat="42.86262" lon="1.84759">
        <ele>1055</ele>
        <time>2020-02-29T15:28:27Z</time>
      </trkpt>
      <trkpt lat="42.86266" lon="1.84747">
        <ele>1055</ele>
        <time>2020-02-29T15:28:33Z</time>
      </trkpt>
      <trkpt lat="42.8627" lon="1.84735">
        <ele>1052</ele>
        <time>2020-02-29T15:28:42Z</time>
      </trkpt>
      <trkpt lat="42.86273" lon="1.84723">
        <ele>1053</ele>
        <time>2020-02-29T15:28:50Z</time>
      </trkpt>
      <trkpt lat="42.86277" lon="1.84711">
        <ele>1056</ele>
        <time>2020-02-29T15:28:59Z</time>
      </trkpt>
      <trkpt lat="42.8628" lon="1.84698">
        <ele>1055</ele>
        <time>2020-02-29T15:29:07Z</time>
      </trkpt>
      <trkpt lat="42.86285" lon="1.84688">
        <ele>1055</ele>
        <time>2020-02-29T15:29:12Z</time>
      </trkpt>
      <trkpt lat="42.86288" lon="1.84673">
        <ele>1053</ele>
        <time>2020-02-29T15:29:21Z</time>
      </trkpt>
      <trkpt lat="42.86294" lon="1.84662">
        <ele>1053</ele>
        <time>2020-02-29T15:29:28Z</time>
      </trkpt>
      <trkpt lat="42.86298" lon="1.8465">
        <ele>1048</ele>
        <time>2020-02-29T15:29:39Z</time>
      </trkpt>
      <trkpt lat="42.86298" lon="1.84637">
        <ele>1047</ele>
        <time>2020-02-29T15:29:47Z</time>
      </trkpt>
      <trkpt lat="42.86303" lon="1.84625">
        <ele>1047</ele>
        <time>2020-02-29T15:29:56Z</time>
      </trkpt>
      <trkpt lat="42.86304" lon="1.84611">
        <ele>1047</ele>
        <time>2020-02-29T15:30:05Z</time>
      </trkpt>
      <trkpt lat="42.86305" lon="1.84599">
        <ele>1043</ele>
        <time>2020-02-29T15:30:14Z</time>
      </trkpt>
      <trkpt lat="42.8631" lon="1.84588">
        <ele>1041</ele>
        <time>2020-02-29T15:30:20Z</time>
      </trkpt>
      <trkpt lat="42.86315" lon="1.84577">
        <ele>1040</ele>
        <time>2020-02-29T15:30:26Z</time>
      </trkpt>
      <trkpt lat="42.86319" lon="1.84565">
        <ele>1042</ele>
        <time>2020-02-29T15:30:34Z</time>
      </trkpt>
      <trkpt lat="42.86323" lon="1.84553">
        <ele>1043</ele>
        <time>2020-02-29T15:30:41Z</time>
      </trkpt>
      <trkpt lat="42.86329" lon="1.84543">
        <ele>1044</ele>
        <time>2020-02-29T15:30:50Z</time>
      </trkpt>
      <trkpt lat="42.86331" lon="1.8453">
        <ele>1043</ele>
        <time>2020-02-29T15:30:53Z</time>
      </trkpt>
      <trkpt lat="42.86336" lon="1.84519">
        <ele>1041</ele>
        <time>2020-02-29T15:31:02Z</time>
      </trkpt>
      <trkpt lat="42.86338" lon="1.84506">
        <ele>1034</ele>
        <time>2020-02-29T15:31:10Z</time>
      </trkpt>
      <trkpt lat="42.86345" lon="1.84497">
        <ele>1034</ele>
        <time>2020-02-29T15:31:14Z</time>
      </trkpt>
      <trkpt lat="42.86348" lon="1.84485">
        <ele>1031</ele>
        <time>2020-02-29T15:31:20Z</time>
      </trkpt>
      <trkpt lat="42.86353" lon="1.84475">
        <ele>1031</ele>
        <time>2020-02-29T15:31:30Z</time>
      </trkpt>
      <trkpt lat="42.86361" lon="1.84465">
        <ele>1034</ele>
        <time>2020-02-29T15:31:36Z</time>
      </trkpt>
      <trkpt lat="42.86365" lon="1.84454">
        <ele>1033</ele>
        <time>2020-02-29T15:31:46Z</time>
      </trkpt>
      <trkpt lat="42.86372" lon="1.84446">
        <ele>1035</ele>
        <time>2020-02-29T15:31:54Z</time>
      </trkpt>
      <trkpt lat="42.86367" lon="1.84434">
        <ele>1031</ele>
        <time>2020-02-29T15:32:01Z</time>
      </trkpt>
      <trkpt lat="42.86371" lon="1.84422">
        <ele>1029</ele>
        <time>2020-02-29T15:32:10Z</time>
      </trkpt>
      <trkpt lat="42.86376" lon="1.84412">
        <ele>1027</ele>
        <time>2020-02-29T15:32:17Z</time>
      </trkpt>
      <trkpt lat="42.86381" lon="1.84401">
        <ele>1025</ele>
        <time>2020-02-29T15:32:23Z</time>
      </trkpt>
      <trkpt lat="42.86388" lon="1.84394">
        <ele>1023</ele>
        <time>2020-02-29T15:32:26Z</time>
      </trkpt>
      <trkpt lat="42.86388" lon="1.84378">
        <ele>1021</ele>
        <time>2020-02-29T15:32:52Z</time>
      </trkpt>
      <trkpt lat="42.86392" lon="1.84365">
        <ele>1019</ele>
        <time>2020-02-29T15:32:56Z</time>
      </trkpt>
      <trkpt lat="42.86387" lon="1.84354">
        <ele>1012</ele>
        <time>2020-02-29T15:33:02Z</time>
      </trkpt>
      <trkpt lat="42.86386" lon="1.8434">
        <ele>1011</ele>
        <time>2020-02-29T15:33:08Z</time>
      </trkpt>
      <trkpt lat="42.86386" lon="1.84326">
        <ele>1012</ele>
        <time>2020-02-29T15:33:14Z</time>
      </trkpt>
      <trkpt lat="42.86391" lon="1.84315">
        <ele>1010</ele>
        <time>2020-02-29T15:33:23Z</time>
      </trkpt>
      <trkpt lat="42.86389" lon="1.84303">
        <ele>1008</ele>
        <time>2020-02-29T15:33:31Z</time>
      </trkpt>
      <trkpt lat="42.86384" lon="1.84289">
        <ele>1013</ele>
        <time>2020-02-29T15:33:39Z</time>
      </trkpt>
      <trkpt lat="42.86388" lon="1.84277">
        <ele>1011</ele>
        <time>2020-02-29T15:33:45Z</time>
      </trkpt>
      <trkpt lat="42.86386" lon="1.84263">
        <ele>1012</ele>
        <time>2020-02-29T15:33:53Z</time>
      </trkpt>
      <trkpt lat="42.86383" lon="1.8425">
        <ele>1012</ele>
        <time>2020-02-29T15:34:03Z</time>
      </trkpt>
      <trkpt lat="42.86381" lon="1.84237">
        <ele>1006</ele>
        <time>2020-02-29T15:34:10Z</time>
      </trkpt>
      <trkpt lat="42.86382" lon="1.84224">
        <ele>1003</ele>
        <time>2020-02-29T15:34:17Z</time>
      </trkpt>
      <trkpt lat="42.86385" lon="1.84211">
        <ele>1003</ele>
        <time>2020-02-29T15:34:24Z</time>
      </trkpt>
      <trkpt lat="42.86384" lon="1.84197">
        <ele>1002</ele>
        <time>2020-02-29T15:34:34Z</time>
      </trkpt>
      <trkpt lat="42.86385" lon="1.84184">
        <ele>997</ele>
        <time>2020-02-29T15:34:43Z</time>
      </trkpt>
      <trkpt lat="42.86384" lon="1.84171">
        <ele>995</ele>
        <time>2020-02-29T15:34:50Z</time>
      </trkpt>
      <trkpt lat="42.86389" lon="1.8416">
        <ele>998</ele>
        <time>2020-02-29T15:35:00Z</time>
      </trkpt>
      <trkpt lat="42.8639" lon="1.84146">
        <ele>993</ele>
        <time>2020-02-29T15:35:07Z</time>
      </trkpt>
      <trkpt lat="42.8639" lon="1.84132">
        <ele>990</ele>
        <time>2020-02-29T15:35:16Z</time>
      </trkpt>
      <trkpt lat="42.86392" lon="1.84118">
        <ele>987</ele>
        <time>2020-02-29T15:35:23Z</time>
      </trkpt>
      <trkpt lat="42.86395" lon="1.84105">
        <ele>987</ele>
        <time>2020-02-29T15:35:32Z</time>
      </trkpt>
      <trkpt lat="42.86393" lon="1.84091">
        <ele>984</ele>
        <time>2020-02-29T15:35:40Z</time>
      </trkpt>
      <trkpt lat="42.86396" lon="1.84078">
        <ele>986</ele>
        <time>2020-02-29T15:35:50Z</time>
      </trkpt>
      <trkpt lat="42.86399" lon="1.84066">
        <ele>985</ele>
        <time>2020-02-29T15:35:59Z</time>
      </trkpt>
      <trkpt lat="42.86405" lon="1.84054">
        <ele>984</ele>
        <time>2020-02-29T15:36:07Z</time>
      </trkpt>
      <trkpt lat="42.8641" lon="1.84042">
        <ele>982</ele>
        <time>2020-02-29T15:36:17Z</time>
      </trkpt>
      <trkpt lat="42.86417" lon="1.84033">
        <ele>979</ele>
        <time>2020-02-29T15:36:23Z</time>
      </trkpt>
      <trkpt lat="42.86425" lon="1.84026">
        <ele>980</ele>
        <time>2020-02-29T15:36:28Z</time>
      </trkpt>
      <trkpt lat="42.86429" lon="1.84015">
        <ele>977</ele>
        <time>2020-02-29T15:36:38Z</time>
      </trkpt>
      <trkpt lat="42.86437" lon="1.84007">
        <ele>978</ele>
        <time>2020-02-29T15:36:45Z</time>
      </trkpt>
      <trkpt lat="42.86446" lon="1.83998">
        <ele>981</ele>
        <time>2020-02-29T15:36:57Z</time>
      </trkpt>
      <trkpt lat="42.86453" lon="1.83988">
        <ele>976</ele>
        <time>2020-02-29T15:37:03Z</time>
      </trkpt>
      <trkpt lat="42.86454" lon="1.83973">
        <ele>974</ele>
        <time>2020-02-29T15:37:16Z</time>
      </trkpt>
      <trkpt lat="42.86458" lon="1.83959">
        <ele>975</ele>
        <time>2020-02-29T15:37:21Z</time>
      </trkpt>
      <trkpt lat="42.86457" lon="1.83947">
        <ele>974</ele>
        <time>2020-02-29T15:37:30Z</time>
      </trkpt>
      <trkpt lat="42.86465" lon="1.83938">
        <ele>979</ele>
        <time>2020-02-29T15:38:36Z</time>
      </trkpt>
      <trkpt lat="42.86472" lon="1.83928">
        <ele>981</ele>
        <time>2020-02-29T15:38:39Z</time>
      </trkpt>
      <trkpt lat="42.86475" lon="1.83915">
        <ele>979</ele>
        <time>2020-02-29T15:38:46Z</time>
      </trkpt>
      <trkpt lat="42.86485" lon="1.83904">
        <ele>975</ele>
        <time>2020-02-29T15:38:52Z</time>
      </trkpt>
      <trkpt lat="42.86492" lon="1.83897">
        <ele>973</ele>
        <time>2020-02-29T15:38:56Z</time>
      </trkpt>
      <trkpt lat="42.86503" lon="1.83891">
        <ele>974</ele>
        <time>2020-02-29T15:39:02Z</time>
      </trkpt>
      <trkpt lat="42.86512" lon="1.83887">
        <ele>978</ele>
        <time>2020-02-29T15:39:16Z</time>
      </trkpt>
      <trkpt lat="42.86524" lon="1.83889">
        <ele>976</ele>
        <time>2020-02-29T15:39:26Z</time>
      </trkpt>
      <trkpt lat="42.86533" lon="1.83893">
        <ele>971</ele>
        <time>2020-02-29T15:39:34Z</time>
      </trkpt>
      <trkpt lat="42.86538" lon="1.83905">
        <ele>965</ele>
        <time>2020-02-29T15:39:42Z</time>
      </trkpt>
      <trkpt lat="42.86546" lon="1.83912">
        <ele>964</ele>
        <time>2020-02-29T15:39:52Z</time>
      </trkpt>
      <trkpt lat="42.86558" lon="1.83915">
        <ele>964</ele>
        <time>2020-02-29T15:39:59Z</time>
      </trkpt>
      <trkpt lat="42.86565" lon="1.83922">
        <ele>964</ele>
        <time>2020-02-29T15:40:07Z</time>
      </trkpt>
      <trkpt lat="42.86571" lon="1.83932">
        <ele>963</ele>
        <time>2020-02-29T15:40:15Z</time>
      </trkpt>
      <trkpt lat="42.8658" lon="1.83937">
        <ele>963</ele>
        <time>2020-02-29T15:40:23Z</time>
      </trkpt>
      <trkpt lat="42.86589" lon="1.83944">
        <ele>962</ele>
        <time>2020-02-29T15:40:31Z</time>
      </trkpt>
      <trkpt lat="42.86598" lon="1.83947">
        <ele>958</ele>
        <time>2020-02-29T15:40:40Z</time>
      </trkpt>
      <trkpt lat="42.86606" lon="1.83957">
        <ele>957</ele>
        <time>2020-02-29T15:40:46Z</time>
      </trkpt>
      <trkpt lat="42.86615" lon="1.83966">
        <ele>958</ele>
        <time>2020-02-29T15:40:56Z</time>
      </trkpt>
      <trkpt lat="42.86623" lon="1.83975">
        <ele>954</ele>
        <time>2020-02-29T15:41:05Z</time>
      </trkpt>
      <trkpt lat="42.8663" lon="1.83983">
        <ele>955</ele>
        <time>2020-02-29T15:41:14Z</time>
      </trkpt>
      <trkpt lat="42.86639" lon="1.83988">
        <ele>954</ele>
        <time>2020-02-29T15:41:23Z</time>
      </trkpt>
      <trkpt lat="42.86649" lon="1.83992">
        <ele>953</ele>
        <time>2020-02-29T15:41:31Z</time>
      </trkpt>
    </trkseg>
  </trk>
</gpx>